MYDAX CHILLER For Sector 8 Monochromators  S/N 120-0453             

Key: (Temperatures in Centigrade) 
A) System is ON or OFF
B) Actual Tank Temperature as sensed by the Output RTD                   
C) Set point Temperature 
D) Calculated temperature of the refrigerant line at the suction pressure transducer
E) Pressure in PSIg of the refrigerant line at the suction pressure transducer
F & G) Temperature in the refrigerant line at the Superheat and Condenser RTDs
H) Temperature in the refrigerant line at the Discharge RTD (2-stage design only)
I) Temperature in the refrigerant line at the Subcooler RTD (inactive)
J) Valve drives of evaporator 

----------- DATE ----------: A    B     C     D     E    F    G    H   I J

 last update: Tue Jan 16 05:44:51 PST 2018
Tue Jan 16 05:44:46 PST 2018 ON: 19.94 +20.0 19.56 - 2.8 34.9 01 14 492B 0A03 Alarm State:  5
Tue Jan 16 05:43:44 PST 2018 ON: 20.03 +20.0 19.70 - 4.8 33.7 0D 13 492E 0918 Alarm State:  5
Tue Jan 16 05:42:43 PST 2018 ON: 20.00 +20.0 19.62 - 3.2 34.3 02 14 4917 0920 Alarm State:  5
Tue Jan 16 05:41:41 PST 2018 ON: 20.01 +20.0 19.67 - 4.4 33.9 07 14 4822 0906 Alarm State:  5
Tue Jan 16 05:40:40 PST 2018 ON: 20.01 +20.0 19.68 - 5.1 33.5 0D 14 4811 0927 Alarm State:  5
Tue Jan 16 05:39:38 PST 2018 ON: 20.00 +20.0 19.59 - 3.0 34.4 04 14 4811 091C Alarm State:  5
Tue Jan 16 05:38:37 PST 2018 ON: 19.98 +20.0 19.65 - 4.8 33.8 05 14 4723 092A Alarm State:  5
Tue Jan 16 05:37:35 PST 2018 ON: 19.99 +20.0 19.56 - 2.6 34.7 04 14 4818 091D Alarm State:  5
Tue Jan 16 05:36:34 PST 2018 ON: 19.99 +20.0 19.69 - 5.3 33.3 0D 14 4730 0A1B Alarm State:  5
Tue Jan 16 05:35:32 PST 2018 ON: 19.97 +20.0 19.58 - 2.7 34.8 09 14 4900 092D Alarm State:  5
Tue Jan 16 05:34:31 PST 2018 ON: 20.00 +20.0 19.68 - 4.8 33.7 0D 14 4826 0925 Alarm State:  5
Tue Jan 16 05:33:29 PST 2018 ON: 20.01 +20.0 19.61 - 2.8 34.7 0C 14 4917 0926 Alarm State:  5
Tue Jan 16 05:32:28 PST 2018 ON: 20.01 +20.0 19.67 - 4.9 33.7 0C 14 4821 0907 Alarm State:  5
Tue Jan 16 05:31:26 PST 2018 ON: 20.03 +20.0 19.65 - 4.1 34.0 02 14 481D 0925 Alarm State:  5
Tue Jan 16 05:30:25 PST 2018 ON: 19.98 +20.0 19.64 - 4.2 33.9 05 14 4818 0A11 Alarm State:  5
Tue Jan 16 05:29:23 PST 2018 ON: 20.01 +20.0 19.57 - 2.2 34.7 07 14 491F 091B Alarm State:  5
Tue Jan 16 05:28:22 PST 2018 ON: 20.01 +20.0 19.66 - 4.5 33.9 05 14 482B 0902 Alarm State:  5
Tue Jan 16 05:27:20 PST 2018 ON: 20.05 +20.0 19.68 - 4.9 33.2 05 14 4825 0926 Alarm State:  5
Tue Jan 16 05:26:19 PST 2018 ON: 20.02 +20.0 19.63 - 3.7 34.1 02 14 481C 091E Alarm State:  5
Tue Jan 16 05:25:17 PST 2018 ON: 20.01 +20.0 19.61 - 3.9 34.2 00 14 481C 0907 Alarm State:  5
Tue Jan 16 05:24:16 PST 2018 ON: 20.03 +20.0 19.68 - 5.1 33.2 05 14 4821 091E Alarm State:  5
Tue Jan 16 05:23:14 PST 2018 ON: 20.00 +20.0 19.63 - 3.9 34.5 05 14 481D 090F Alarm State:  5
Tue Jan 16 05:22:13 PST 2018 ON: 20.02 +20.0 19.69 - 5.2 33.4 0D 14 4810 0A01 Alarm State:  5
Tue Jan 16 05:21:11 PST 2018 ON: 20.00 +20.0 19.59 - 3.1 34.7 0C 14 4905 0929 Alarm State:  5
Tue Jan 16 05:20:10 PST 2018 ON: 20.01 +20.0 19.67 - 4.7 33.7 05 14 482B 0921 Alarm State:  5
Tue Jan 16 05:19:08 PST 2018 ON: 20.00 +20.0 19.57 - 2.4 34.8 09 14 4920 0909 Alarm State:  5
Tue Jan 16 05:18:07 PST 2018 ON: 20.01 +20.0 19.69 - 5.2 33.4 0D 14 482C 0913 Alarm State:  5
Tue Jan 16 05:17:05 PST 2018 ON: 20.01 +20.0 19.59 - 2.8 34.6 0C 14 482C 0923 Alarm State:  5
Tue Jan 16 05:16:04 PST 2018 ON: 20.02 +20.0 19.67 - 4.7 33.6 07 14 4807 0904 Alarm State:  5
Tue Jan 16 05:15:02 PST 2018 ON: 20.04 +20.0 19.62 - 3.3 34.2 05 14 4817 090C Alarm State:  5
Tue Jan 16 05:14:01 PST 2018 ON: 19.99 +20.0 19.64 - 4.4 33.8 0D 14 472D 0910 Alarm State:  5
Tue Jan 16 05:12:59 PST 2018 ON: 20.03 +20.0 19.62 - 3.7 33.9 00 14 4818 090C Alarm State:  5
Tue Jan 16 05:11:58 PST 2018 ON: 19.97 +20.0 19.62 - 4.1 34.0 00 14 480F 0929 Alarm State:  5
Tue Jan 16 05:10:56 PST 2018 ON: 20.01 +20.0 19.62 - 3.1 34.2 00 14 4906 091C Alarm State:  5
Tue Jan 16 05:09:55 PST 2018 ON: 19.97 +20.0 19.63 - 4.3 33.7 00 14 482E 0A0E Alarm State:  5
Tue Jan 16 05:08:53 PST 2018 ON: 19.98 +20.0 19.58 - 2.3 34.5 00 14 4A02 0912 Alarm State:  5
Tue Jan 16 05:07:52 PST 2018 ON: 20.00 +20.0 19.64 - 3.8 34.5 00 14 491A 0912 Alarm State:  5
Tue Jan 16 05:06:50 PST 2018 ON: 20.01 +20.0 19.67 - 4.7 33.7 00 14 4831 091D Alarm State:  5
Tue Jan 16 05:05:49 PST 2018 ON: 20.05 +20.0 19.65 - 4.5 33.6 00 14 480A 0904 Alarm State:  5
Tue Jan 16 05:04:47 PST 2018 ON: 20.00 +20.0 19.64 - 4.3 33.9 0C 14 4728 0928 Alarm State:  5
Tue Jan 16 05:03:46 PST 2018 ON: 20.03 +20.0 19.61 - 3.2 34.2 00 14 481E 0917 Alarm State:  5
Tue Jan 16 05:02:44 PST 2018 ON: 20.02 +20.0 19.67 - 4.4 33.9 0A 14 472F 0920 Alarm State:  5
Tue Jan 16 05:01:43 PST 2018 ON: 20.02 +20.0 19.61 - 3.1 34.3 0A 14 480D 091B Alarm State:  5
Tue Jan 16 05:00:41 PST 2018 ON: 20.02 +20.0 19.66 - 4.6 33.7 0C 14 4717 0928 Alarm State:  5
Tue Jan 16 04:59:40 PST 2018 ON: 19.99 +20.0 19.58 - 2.6 34.4 01 14 4813 0907 Alarm State:  5
Tue Jan 16 04:58:38 PST 2018 ON: 19.99 +20.0 19.65 - 4.4 33.9 07 14 4721 0911 Alarm State:  5
Tue Jan 16 04:57:37 PST 2018 ON: 20.03 +20.0 19.69 - 5.5 32.8 05 14 471B 0902 Alarm State:  5
Tue Jan 16 04:56:35 PST 2018 ON: 20.01 +20.0 19.64 - 3.9 34.3 07 14 4724 0915 Alarm State:  5
Tue Jan 16 04:55:34 PST 2018 ON: 20.03 +20.0 19.71 - 5.5 33.0 08 13 471C 0A04 Alarm State:  5
Tue Jan 16 04:54:32 PST 2018 ON: 19.98 +20.0 19.61 - 3.9 34.0 07 14 4800 092F Alarm State:  5
Tue Jan 16 04:53:31 PST 2018 ON: 20.05 +20.0 19.70 - 5.4 32.9 05 14 480A 0A0A Alarm State:  5
Tue Jan 16 04:52:29 PST 2018 ON: 19.97 +20.0 19.61 - 3.9 34.0 07 14 4819 0A09 Alarm State:  5
Tue Jan 16 04:51:28 PST 2018 ON: 20.03 +20.0 19.63 - 3.4 34.1 00 14 4914 0919 Alarm State:  5
Tue Jan 16 04:50:26 PST 2018 ON: 19.97 +20.0 19.65 - 4.4 33.9 05 14 4827 0A1D Alarm State:  5
Tue Jan 16 04:49:25 PST 2018 ON: 19.99 +20.0 19.58 - 2.4 34.5 01 14 4924 0927 Alarm State:  5
Tue Jan 16 04:48:23 PST 2018 ON: 19.98 +20.0 19.64 - 4.3 33.8 00 14 4907 0927 Alarm State:  5
Tue Jan 16 04:47:22 PST 2018 ON: 20.02 +20.0 19.65 - 4.2 33.8 00 14 4919 0902 Alarm State:  5
Tue Jan 16 04:46:20 PST 2018 ON: 19.98 +20.0 19.63 - 4.2 33.8 02 14 490C 092E Alarm State:  5
Tue Jan 16 04:45:19 PST 2018 ON: 20.00 +20.0 19.69 - 4.7 33.6 05 14 491A 090D Alarm State:  5
Tue Jan 16 04:44:17 PST 2018 ON: 20.02 +20.0 19.63 - 2.7 34.7 07 14 4921 0920 Alarm State:  5
Tue Jan 16 04:43:16 PST 2018 ON: 20.00 +20.0 19.68 - 4.5 33.9 0D 14 482A 0906 Alarm State:  5
Tue Jan 16 04:42:14 PST 2018 ON: 20.05 +20.0 19.68 - 4.9 33.4 0D 14 4805 0918 Alarm State:  5
Tue Jan 16 04:41:13 PST 2018 ON: 19.99 +20.0 19.64 - 4.0 34.1 05 14 4806 0A05 Alarm State:  5
Tue Jan 16 04:40:11 PST 2018 ON: 20.04 +20.0 19.71 - 5.5 33.2 0D 13 4805 091D Alarm State:  5
Tue Jan 16 04:39:10 PST 2018 ON: 20.02 +20.0 19.65 - 3.8 34.4 0A 14 480F 090E Alarm State:  5
Tue Jan 16 04:38:08 PST 2018 ON: 20.03 +20.0 19.72 - 6.2 32.4 0A 13 472C 0A04 Alarm State:  5
Tue Jan 16 04:37:07 PST 2018 ON: 19.97 +20.0 19.61 - 4.1 33.9 07 14 480B 0A02 Alarm State:  5
Tue Jan 16 04:36:05 PST 2018 ON: 20.01 +20.0 19.59 - 2.8 34.3 05 14 490B 0909 Alarm State:  5
Tue Jan 16 04:35:04 PST 2018 ON: 20.01 +20.0 19.67 - 4.4 33.8 07 14 4820 0910 Alarm State:  5
Tue Jan 16 04:34:02 PST 2018 ON: 20.02 +20.0 19.70 - 5.4 33.0 0D 13 481D 0927 Alarm State:  5
Tue Jan 16 04:33:01 PST 2018 ON: 19.97 +20.0 19.61 - 3.9 34.0 07 14 4827 092E Alarm State:  5
Tue Jan 16 04:31:59 PST 2018 ON: 20.01 +20.0 19.57 - 2.5 34.4 00 14 4927 0905 Alarm State:  5
Tue Jan 16 04:30:58 PST 2018 ON: 20.00 +20.0 19.65 - 4.0 34.2 02 14 4826 091A Alarm State:  5
Tue Jan 16 04:29:56 PST 2018 ON: 19.98 +20.0 19.62 - 3.5 34.6 00 14 480F 0920 Alarm State:  5
Tue Jan 16 04:28:55 PST 2018 ON: 19.99 +20.0 19.69 - 5.2 33.4 0D 14 4728 092B Alarm State:  5
Tue Jan 16 04:27:53 PST 2018 ON: 19.97 +20.0 19.55 - 2.3 34.7 07 14 481E 0910 Alarm State:  5
Tue Jan 16 04:26:52 PST 2018 ON: 20.00 +20.0 19.67 - 4.6 33.5 00 14 480E 090F Alarm State:  5
Tue Jan 16 04:25:50 PST 2018 ON: 20.04 +20.0 19.66 - 4.5 33.5 00 14 480D 0928 Alarm State:  5
Tue Jan 16 04:24:49 PST 2018 ON: 19.98 +20.0 19.63 - 4.0 33.9 07 14 4807 091D Alarm State:  5
Tue Jan 16 04:23:47 PST 2018 ON: 20.05 +20.0 19.67 - 4.5 33.7 00 14 4816 091E Alarm State:  5
Tue Jan 16 04:22:46 PST 2018 ON: 19.99 +20.0 19.63 - 3.5 34.6 05 14 4802 091B Alarm State:  5
Tue Jan 16 04:21:44 PST 2018 ON: 20.03 +20.0 19.70 - 5.5 33.2 0D 13 4712 0923 Alarm State:  5
Tue Jan 16 04:20:43 PST 2018 ON: 19.98 +20.0 19.61 - 3.5 34.6 05 14 472E 0929 Alarm State:  5
Tue Jan 16 04:19:41 PST 2018 ON: 20.03 +20.0 19.70 - 5.1 33.4 0D 13 472B 0911 Alarm State:  5
Tue Jan 16 04:18:40 PST 2018 ON: 20.00 +20.0 19.60 - 3.1 34.7 00 14 480E 0913 Alarm State:  5
Tue Jan 16 04:17:38 PST 2018 ON: 20.01 +20.0 19.69 - 5.1 33.5 0D 14 472C 0915 Alarm State:  5
Tue Jan 16 04:16:37 PST 2018 ON: 20.00 +20.0 19.60 - 2.9 34.7 07 14 481B 0907 Alarm State:  5
Tue Jan 16 04:15:36 PST 2018 ON: 20.02 +20.0 19.70 - 5.3 33.4 0D 13 4802 0909 Alarm State:  5
Tue Jan 16 04:14:34 PST 2018 ON: 19.99 +20.0 19.61 - 3.0 34.7 05 14 481E 0913 Alarm State:  5
Tue Jan 16 04:13:33 PST 2018 ON: 19.98 +20.0 19.67 - 4.8 33.6 05 14 480B 0A11 Alarm State:  5
Tue Jan 16 04:12:31 PST 2018 ON: 19.98 +20.0 19.58 - 2.4 34.9 07 14 4912 0928 Alarm State:  5
Tue Jan 16 04:11:30 PST 2018 ON: 20.01 +20.0 19.67 - 4.5 33.8 00 14 482A 0901 Alarm State:  5
Tue Jan 16 04:10:28 PST 2018 ON: 19.98 +20.0 19.58 - 2.7 34.5 00 14 4826 091D Alarm State:  5
Tue Jan 16 04:09:27 PST 2018 ON: 20.01 +20.0 19.67 - 5.1 33.3 07 14 4732 0927 Alarm State:  5
Tue Jan 16 04:08:25 PST 2018 ON: 19.97 +20.0 19.60 - 3.3 34.6 05 14 482F 090C Alarm State:  5
Tue Jan 16 04:07:24 PST 2018 ON: 20.05 +20.0 19.70 - 5.0 33.6 0D 13 482A 0921 Alarm State:  5
Tue Jan 16 04:06:22 PST 2018 ON: 20.01 +20.0 19.59 - 2.8 34.5 01 14 4828 090E Alarm State:  5
Tue Jan 16 04:05:21 PST 2018 ON: 20.02 +20.0 19.66 - 4.6 33.8 07 14 4730 091C Alarm State:  5
Tue Jan 16 04:04:19 PST 2018 ON: 20.02 +20.0 19.60 - 2.8 34.5 05 14 4811 091E Alarm State:  5
Tue Jan 16 04:03:18 PST 2018 ON: 19.98 +20.0 19.65 - 4.8 33.5 05 14 472D 0A20 Alarm State:  5
Tue Jan 16 04:02:16 PST 2018 ON: 19.99 +20.0 19.56 - 2.2 34.8 00 14 4903 091A Alarm State:  5
Tue Jan 16 04:01:15 PST 2018 ON: 20.01 +20.0 19.67 - 4.8 33.6 00 14 4816 091C Alarm State:  5
Tue Jan 16 04:00:13 PST 2018 ON: 20.01 +20.0 19.60 - 2.9 34.4 00 14 480B 091A Alarm State:  5
Tue Jan 16 03:59:12 PST 2018 ON: 19.98 +20.0 19.66 - 4.6 33.5 00 14 4712 0923 Alarm State:  5
Tue Jan 16 03:58:10 PST 2018 ON: 20.03 +20.0 19.60 - 3.0 34.3 00 14 480A 0914 Alarm State:  5
Tue Jan 16 03:57:09 PST 2018 ON: 19.99 +20.0 19.63 - 4.0 34.1 00 14 472F 0917 Alarm State:  5
Tue Jan 16 03:56:07 PST 2018 ON: 20.05 +20.0 19.68 - 4.8 33.4 05 14 4730 0907 Alarm State:  5
Tue Jan 16 03:55:06 PST 2018 ON: 19.99 +20.0 19.62 - 4.2 34.0 00 14 4722 0925 Alarm State:  5
Tue Jan 16 03:54:04 PST 2018 ON: 20.02 +20.0 19.59 - 3.2 34.2 00 14 481E 090A Alarm State:  5
Tue Jan 16 03:53:03 PST 2018 ON: 19.99 +20.0 19.62 - 4.3 33.8 07 14 4804 0931 Alarm State:  5
Tue Jan 16 03:52:01 PST 2018 ON: 19.98 +20.0 19.57 - 2.4 34.7 09 14 490A 0906 Alarm State:  5
Tue Jan 16 03:51:00 PST 2018 ON: 20.03 +20.0 19.66 - 4.4 34.0 07 14 4829 0907 Alarm State:  5
Tue Jan 16 03:49:58 PST 2018 ON: 19.99 +20.0 19.57 - 2.5 34.7 00 14 490B 090E Alarm State:  5
Tue Jan 16 03:48:57 PST 2018 ON: 20.02 +20.0 19.67 - 4.4 34.1 07 14 4811 091B Alarm State:  5
Tue Jan 16 03:47:55 PST 2018 ON: 20.00 +20.0 19.68 - 5.1 33.2 0D 14 4804 0A19 Alarm State:  5
Tue Jan 16 03:46:54 PST 2018 ON: 20.00 +20.0 19.63 - 3.6 34.3 07 14 4901 092B Alarm State:  5
Tue Jan 16 03:45:52 PST 2018 ON: 20.03 +20.0 19.69 - 4.8 33.6 0D 14 490A 0909 Alarm State:  5
Tue Jan 16 03:44:51 PST 2018 ON: 20.03 +20.0 19.64 - 3.8 34.2 02 14 4823 0914 Alarm State:  5
Tue Jan 16 03:43:49 PST 2018 ON: 20.02 +20.0 19.64 - 4.0 33.9 00 14 472B 0928 Alarm State:  5
Tue Jan 16 03:42:48 PST 2018 ON: 20.00 +20.0 19.63 - 4.3 33.8 0A 14 4711 0A2E Alarm State:  5
Tue Jan 16 03:41:46 PST 2018 ON: 19.99 +20.0 19.56 - 2.4 34.5 00 14 4813 0A03 Alarm State:  5
Tue Jan 16 03:40:45 PST 2018 ON: 19.98 +20.0 19.66 - 4.9 33.4 05 14 4730 0A27 Alarm State:  5
Tue Jan 16 03:39:43 PST 2018 ON: 19.96 +20.0 19.56 - 2.4 34.9 01 14 4907 0924 Alarm State:  5
Tue Jan 16 03:38:42 PST 2018 ON: 20.02 +20.0 19.68 - 4.5 34.0 0D 14 482A 0915 Alarm State:  5
Tue Jan 16 03:37:40 PST 2018 ON: 20.02 +20.0 19.66 - 5.0 33.3 00 14 4728 0A00 Alarm State:  5
Tue Jan 16 03:36:39 PST 2018 ON: 19.95 +20.0 19.60 - 3.9 33.9 04 14 472E 0A04 Alarm State:  5
Tue Jan 16 03:35:37 PST 2018 ON: 20.00 +20.0 19.59 - 2.7 34.3 00 14 4830 0907 Alarm State:  5
Tue Jan 16 03:34:36 PST 2018 ON: 19.97 +20.0 19.64 - 4.5 33.9 00 14 4812 0A08 Alarm State:  5
Tue Jan 16 03:33:34 PST 2018 ON: 19.98 +20.0 19.56 - 2.5 34.7 00 14 491C 0913 Alarm State:  5
Tue Jan 16 03:32:33 PST 2018 ON: 19.98 +20.0 19.64 - 4.5 33.5 07 14 4916 0912 Alarm State:  5
Tue Jan 16 03:31:31 PST 2018 ON: 20.02 +20.0 19.62 - 3.2 34.3 00 14 4A04 090B Alarm State:  5
Tue Jan 16 03:30:30 PST 2018 ON: 20.03 +20.0 19.65 - 4.0 34.0 00 14 4905 091C Alarm State:  5
Tue Jan 16 03:29:29 PST 2018 ON: 20.02 +20.0 19.64 - 3.5 34.7 0A 14 4829 0918 Alarm State:  5
Tue Jan 16 03:28:27 PST 2018 ON: 20.01 +20.0 19.68 - 5.0 33.6 0D 14 4803 091D Alarm State:  5
Tue Jan 16 03:27:26 PST 2018 ON: 20.02 +20.0 19.62 - 2.7 34.6 05 14 4808 0907 Alarm State:  5
Tue Jan 16 03:26:24 PST 2018 ON: 19.99 +20.0 19.64 - 4.4 33.8 07 14 4723 0A0C Alarm State:  5
Tue Jan 16 03:25:23 PST 2018 ON: 20.02 +20.0 19.58 - 2.6 34.5 00 14 4823 0923 Alarm State:  5
Tue Jan 16 03:24:21 PST 2018 ON: 19.99 +20.0 19.62 - 4.1 34.0 05 14 481D 0A1A Alarm State:  5
Tue Jan 16 03:23:20 PST 2018 ON: 20.00 +20.0 19.56 - 2.2 34.8 07 14 4925 091B Alarm State:  5
Tue Jan 16 03:22:18 PST 2018 ON: 20.02 +20.0 19.67 - 4.5 33.8 07 14 482D 0927 Alarm State:  5
Tue Jan 16 03:21:17 PST 2018 ON: 20.05 +20.0 19.70 - 4.5 33.6 05 13 4811 0909 Alarm State:  5
Tue Jan 16 03:20:15 PST 2018 ON: 20.03 +20.0 19.61 - 3.5 34.0 00 14 4727 090B Alarm State:  5
Tue Jan 16 03:19:14 PST 2018 ON: 20.00 +20.0 19.67 - 4.7 33.6 07 14 4705 0A10 Alarm State:  5
Tue Jan 16 03:18:12 PST 2018 ON: 19.99 +20.0 19.55 - 2.4 34.6 00 14 480F 0917 Alarm State:  5
Tue Jan 16 03:17:11 PST 2018 ON: 20.00 +20.0 19.67 - 4.5 33.5 07 14 472B 0914 Alarm State:  5
Tue Jan 16 03:16:09 PST 2018 ON: 20.02 +20.0 19.65 - 4.2 33.7 00 14 4817 090F Alarm State:  5
Tue Jan 16 03:15:08 PST 2018 ON: 19.98 +20.0 19.62 - 3.7 34.2 07 14 481D 0926 Alarm State:  5
Tue Jan 16 03:14:06 PST 2018 ON: 20.01 +20.0 19.62 - 3.7 33.9 00 14 490B 091B Alarm State:  5
Tue Jan 16 03:13:05 PST 2018 ON: 20.00 +20.0 19.64 - 4.1 34.1 07 14 481E 0924 Alarm State:  5
Tue Jan 16 03:12:03 PST 2018 ON: 20.01 +20.0 19.62 - 3.3 34.1 00 14 4902 0925 Alarm State:  5
Tue Jan 16 03:11:02 PST 2018 ON: 19.99 +20.0 19.65 - 4.2 34.0 05 14 481D 0928 Alarm State:  5
Tue Jan 16 03:10:00 PST 2018 ON: 19.99 +20.0 19.57 - 2.4 34.6 00 14 4909 0923 Alarm State:  5
Tue Jan 16 03:08:59 PST 2018 ON: 20.01 +20.0 19.66 - 4.4 33.9 05 14 480C 090B Alarm State:  5
Tue Jan 16 03:07:57 PST 2018 ON: 20.02 +20.0 19.70 - 5.2 33.1 00 13 4732 090D Alarm State:  5
Tue Jan 16 03:06:56 PST 2018 ON: 19.98 +20.0 19.62 - 3.7 34.3 05 14 480B 091D Alarm State:  5
Tue Jan 16 03:05:54 PST 2018 ON: 20.01 +20.0 19.70 - 5.0 33.5 0A 13 480A 0924 Alarm State:  5
Tue Jan 16 03:04:53 PST 2018 ON: 20.00 +20.0 19.58 - 3.0 34.3 00 14 4802 0923 Alarm State:  5
Tue Jan 16 03:03:51 PST 2018 ON: 19.99 +20.0 19.65 - 4.4 33.7 00 14 4718 092B Alarm State:  5
Tue Jan 16 03:02:50 PST 2018 ON: 20.00 +20.0 19.58 - 2.4 34.5 01 14 4813 0911 Alarm State:  5
Tue Jan 16 03:01:48 PST 2018 ON: 19.99 +20.0 19.65 - 4.4 33.7 00 14 4723 0919 Alarm State:  5
Tue Jan 16 03:00:47 PST 2018 ON: 20.01 +20.0 19.56 - 2.2 34.5 00 14 481A 0907 Alarm State:  5
Tue Jan 16 02:59:45 PST 2018 ON: 19.99 +20.0 19.66 - 4.8 33.6 00 14 471B 0A15 Alarm State:  5
Tue Jan 16 02:58:44 PST 2018 ON: 19.97 +20.0 19.57 - 2.5 34.6 04 14 481C 092B Alarm State:  5
Tue Jan 16 02:57:42 PST 2018 ON: 19.98 +20.0 19.64 - 4.7 33.7 05 14 480F 0A1F Alarm State:  5
Tue Jan 16 02:56:41 PST 2018 ON: 19.98 +20.0 19.56 - 2.3 34.8 07 14 4918 0923 Alarm State:  5
Tue Jan 16 02:55:39 PST 2018 ON: 20.00 +20.0 19.65 - 4.3 33.8 00 14 4901 0923 Alarm State:  5
Tue Jan 16 02:54:38 PST 2018 ON: 20.04 +20.0 19.68 - 4.3 33.8 05 14 4830 091A Alarm State:  5
Tue Jan 16 02:53:36 PST 2018 ON: 19.98 +20.0 19.64 - 3.9 34.3 05 14 4813 091C Alarm State:  5
Tue Jan 16 02:52:35 PST 2018 ON: 20.04 +20.0 19.71 - 5.6 33.0 0D 13 4727 091B Alarm State:  5
Tue Jan 16 02:51:33 PST 2018 ON: 19.97 +20.0 19.63 - 4.0 33.9 00 14 472E 0A01 Alarm State:  5
Tue Jan 16 02:50:32 PST 2018 ON: 20.02 +20.0 19.66 - 4.4 33.6 00 14 480F 090E Alarm State:  5
Tue Jan 16 02:49:30 PST 2018 ON: 19.97 +20.0 19.63 - 4.1 33.8 00 14 480C 092C Alarm State:  5
Tue Jan 16 02:48:29 PST 2018 ON: 19.99 +20.0 19.59 - 2.5 34.5 00 14 490D 0905 Alarm State:  5
Tue Jan 16 02:47:27 PST 2018 ON: 20.01 +20.0 19.60 - 3.0 34.4 00 14 490A 0903 Alarm State:  5
Tue Jan 16 02:46:26 PST 2018 ON: 19.99 +20.0 19.67 - 4.5 33.6 00 14 4817 0A0E Alarm State:  5
Tue Jan 16 02:45:24 PST 2018 ON: 20.02 +20.0 19.58 - 2.7 34.4 00 14 4911 0902 Alarm State:  5
Tue Jan 16 02:44:23 PST 2018 ON: 19.99 +20.0 19.66 - 4.5 33.7 00 14 4814 090D Alarm State:  5
Tue Jan 16 02:43:21 PST 2018 ON: 20.03 +20.0 19.62 - 4.0 33.8 00 14 4829 0910 Alarm State:  5
Tue Jan 16 02:42:20 PST 2018 ON: 19.97 +20.0 19.63 - 4.0 33.9 07 14 481F 0926 Alarm State:  0
Tue Jan 16 02:41:18 PST 2018 ON: 20.03 +20.0 19.59 - 3.1 34.2 00 14 4919 090B Alarm State:  5
Tue Jan 16 02:40:17 PST 2018 ON: 19.99 +20.0 19.65 - 4.1 34.1 05 14 482E 090C Alarm State:  5
Tue Jan 16 02:39:15 PST 2018 ON: 20.05 +20.0 19.64 - 4.1 33.9 00 14 4902 0919 Alarm State:  5
Tue Jan 16 02:38:14 PST 2018 ON: 19.99 +20.0 19.66 - 4.1 34.0 02 14 481F 091A Alarm State:  5
Tue Jan 16 02:37:12 PST 2018 ON: 20.08 +20.0 19.69 - 5.2 33.2 0D 14 4810 0912 Alarm State:  5
Tue Jan 16 02:36:11 PST 2018 ON: 20.01 +20.0 19.63 - 3.7 34.5 07 14 471F 0921 Alarm State:  5
Tue Jan 16 02:35:09 PST 2018 ON: 20.01 +20.0 19.69 - 5.1 33.4 0D 14 4708 0A27 Alarm State:  5
Tue Jan 16 02:34:08 PST 2018 ON: 19.96 +20.0 19.58 - 3.0 34.8 01 14 4811 0921 Alarm State:  5
Tue Jan 16 02:33:06 PST 2018 ON: 20.03 +20.0 19.70 - 5.8 32.6 08 14 480C 0A07 Alarm State:  5
Tue Jan 16 02:32:05 PST 2018 ON: 19.96 +20.0 19.60 - 3.3 34.6 00 14 4830 091D Alarm State:  5
Tue Jan 16 02:31:03 PST 2018 ON: 20.03 +20.0 19.69 - 4.9 33.4 0D 14 490E 091E Alarm State:  5
Tue Jan 16 02:30:02 PST 2018 ON: 20.01 +20.0 19.65 - 4.2 33.8 00 14 4912 0913 Alarm State:  0
Tue Jan 16 02:29:00 PST 2018 ON: 20.01 +20.0 19.63 - 3.8 34.5 05 14 4830 090F Alarm State:  5
Tue Jan 16 02:27:59 PST 2018 ON: 20.01 +20.0 19.68 - 5.0 33.5 0D 14 4816 0A0E Alarm State:  5
Tue Jan 16 02:26:58 PST 2018 ON: 20.02 +20.0 19.61 - 3.0 34.6 07 14 4831 0A09 Alarm State:  5
Tue Jan 16 02:25:56 PST 2018 ON: 20.00 +20.0 19.68 - 5.3 33.1 0D 14 4811 0B08 Alarm State:  5
Tue Jan 16 02:24:54 PST 2018 ON: 20.00 +20.0 19.61 - 3.3 34.5 0C 14 4915 0A0B Alarm State:  5
Tue Jan 16 02:23:53 PST 2018 ON: 20.03 +20.0 19.69 - 5.2 32.9 0A 14 4919 0918 Alarm State:  5
Tue Jan 16 02:22:51 PST 2018 ON: 20.01 +20.0 19.61 - 3.2 34.6 00 14 4920 0925 Alarm State:  5
Tue Jan 16 02:21:50 PST 2018 ON: 20.02 +20.0 19.65 - 4.1 34.4 05 14 490A 0928 Alarm State:  5
Tue Jan 16 02:20:48 PST 2018 ON: 20.01 +20.0 19.65 - 4.4 33.9 0D 14 4826 092A Alarm State:  5
Tue Jan 16 02:19:47 PST 2018 ON: 20.00 +20.0 19.56 - 2.4 34.6 00 14 4925 091D Alarm State:  5
Tue Jan 16 02:18:45 PST 2018 ON: 20.04 +20.0 19.64 - 3.8 34.3 05 14 4829 0908 Alarm State:  5
Tue Jan 16 02:17:44 PST 2018 ON: 19.99 +20.0 19.64 - 3.7 34.6 02 14 4809 090B Alarm State:  5
Tue Jan 16 02:16:42 PST 2018 ON: 20.04 +20.0 19.70 - 5.3 33.3 0D 14 4719 0A0B Alarm State:  5
Tue Jan 16 02:15:41 PST 2018 ON: 19.97 +20.0 19.60 - 3.5 34.5 0A 14 480C 092D Alarm State:  5
Tue Jan 16 02:14:39 PST 2018 ON: 20.07 +20.0 19.69 - 5.5 33.2 0D 14 4807 0911 Alarm State:  5
Tue Jan 16 02:13:38 PST 2018 ON: 19.98 +20.0 19.62 - 4.0 34.3 00 14 4803 0927 Alarm State:  5
Tue Jan 16 02:12:36 PST 2018 ON: 20.05 +20.0 19.71 - 5.7 33.1 0D 13 4727 091B Alarm State:  0
Tue Jan 16 02:11:35 PST 2018 ON: 19.99 +20.0 19.64 - 4.0 33.7 02 14 4806 0921 Alarm State:  5
Tue Jan 16 02:10:33 PST 2018 ON: 20.05 +20.0 19.67 - 5.0 33.2 00 14 4811 0928 Alarm State:  5
Tue Jan 16 02:09:32 PST 2018 ON: 19.98 +20.0 19.64 - 4.2 33.9 02 14 4811 0A15 Alarm State:  5
Tue Jan 16 02:08:30 PST 2018 ON: 20.04 +20.0 19.59 - 2.6 34.4 00 14 4915 091C Alarm State:  5
Tue Jan 16 02:07:29 PST 2018 ON: 20.00 +20.0 19.64 - 4.3 33.8 07 14 482C 091E Alarm State:  5
Tue Jan 16 02:06:27 PST 2018 ON: 20.03 +20.0 19.67 - 4.1 33.8 08 14 490D 0926 Alarm State:  5
Tue Jan 16 02:05:26 PST 2018 ON: 20.00 +20.0 19.63 - 3.6 34.2 00 14 4821 0905 Alarm State:  5
Tue Jan 16 02:04:25 PST 2018 ON: 20.00 +20.0 19.61 - 3.3 34.5 05 14 4805 090E Alarm State:  5
Tue Jan 16 02:03:23 PST 2018 ON: 19.98 +20.0 19.68 - 5.0 33.4 00 14 4717 0A1A Alarm State:  0
Tue Jan 16 02:02:21 PST 2018 ON: 19.97 +20.0 19.59 - 3.0 34.8 00 14 481A 0922 Alarm State:  5
Tue Jan 16 02:01:20 PST 2018 ON: 20.03 +20.0 19.70 - 5.0 33.4 0D 13 480D 090C Alarm State:  0
Tue Jan 16 02:00:18 PST 2018 ON: 20.00 +20.0 19.56 - 2.5 34.8 09 14 4829 090E Alarm State:  5
Tue Jan 16 01:59:17 PST 2018 ON: 20.02 +20.0 19.67 - 4.1 34.4 0C 14 4804 0916 Alarm State:  5
Tue Jan 16 01:58:15 PST 2018 ON: 20.02 +20.0 19.69 - 5.1 33.3 0D 14 4715 0A23 Alarm State:  5
Tue Jan 16 01:57:14 PST 2018 ON: 19.96 +20.0 19.59 - 3.1 34.7 09 14 4819 0A00 Alarm State:  5
Tue Jan 16 01:56:12 PST 2018 ON: 20.02 +20.0 19.69 - 5.1 33.3 0D 14 480F 0921 Alarm State:  5
Tue Jan 16 01:55:11 PST 2018 ON: 20.01 +20.0 19.60 - 2.9 34.5 07 14 4815 0914 Alarm State:  0
Tue Jan 16 01:54:09 PST 2018 ON: 19.99 +20.0 19.64 - 3.9 34.1 00 14 4731 0918 Alarm State:  5
Tue Jan 16 01:53:08 PST 2018 ON: 20.05 +20.0 19.69 - 5.1 33.2 05 14 472D 0913 Alarm State:  0
Tue Jan 16 01:52:06 PST 2018 ON: 19.99 +20.0 19.65 - 4.4 33.8 00 14 4716 0915 Alarm State:  5
Tue Jan 16 01:51:05 PST 2018 ON: 20.02 +20.0 19.67 - 4.6 33.6 00 14 471C 0921 Alarm State:  5
Tue Jan 16 01:50:03 PST 2018 ON: 19.99 +20.0 19.61 - 4.1 34.2 00 14 4711 0A0F Alarm State:  5
Tue Jan 16 01:49:02 PST 2018 ON: 20.03 +20.0 19.60 - 2.9 34.3 00 14 4811 0900 Alarm State:  5
Tue Jan 16 01:48:00 PST 2018 ON: 20.01 +20.0 19.64 - 3.9 34.3 0C 14 4728 0905 Alarm State:  5
Tue Jan 16 01:46:59 PST 2018 ON: 20.03 +20.0 19.71 - 5.3 33.1 0D 13 470F 0A01 Alarm State:  5
Tue Jan 16 01:45:57 PST 2018 ON: 20.00 +20.0 19.62 - 3.2 34.7 07 14 4808 0928 Alarm State:  5
Tue Jan 16 01:44:56 PST 2018 ON: 20.00 +20.0 19.70 - 5.3 33.5 0D 14 4724 0A26 Alarm State:  5
Tue Jan 16 01:43:55 PST 2018 ON: 19.97 +20.0 19.62 - 3.4 34.4 05 14 4827 0A02 Alarm State:  5
Tue Jan 16 01:42:53 PST 2018 ON: 20.01 +20.0 19.70 - 4.5 33.9 0D 13 482C 090E Alarm State:  5
Tue Jan 16 01:41:52 PST 2018 ON: 19.99 +20.0 19.60 - 2.7 34.4 00 14 481E 090F Alarm State:  5
Tue Jan 16 01:40:50 PST 2018 ON: 20.01 +20.0 19.68 - 4.3 34.0 07 14 4720 0921 Alarm State:  5
Tue Jan 16 01:39:49 PST 2018 ON: 20.03 +20.0 19.64 - 4.1 33.8 00 14 470E 0924 Alarm State:  5
Tue Jan 16 01:38:47 PST 2018 ON: 20.00 +20.0 19.66 - 4.8 33.7 0D 14 462B 0A1A Alarm State:  5
Tue Jan 16 01:37:45 PST 2018 ON: 20.00 +20.0 19.56 - 2.3 34.8 07 14 4803 0910 Alarm State:  5
Tue Jan 16 01:36:44 PST 2018 ON: 19.99 +20.0 19.67 - 4.5 33.3 07 14 4806 092B Alarm State:  5
Tue Jan 16 01:35:42 PST 2018 ON: 20.04 +20.0 19.67 - 4.2 33.7 05 14 480E 090A Alarm State:  5
Tue Jan 16 01:34:41 PST 2018 ON: 19.97 +20.0 19.62 - 4.3 33.5 07 14 4801 0929 Alarm State:  5
Tue Jan 16 01:33:40 PST 2018 ON: 20.00 +20.0 19.61 - 2.9 34.4 00 14 4831 091A Alarm State:  5
Tue Jan 16 01:32:38 PST 2018 ON: 20.01 +20.0 19.65 - 4.5 33.5 07 14 4812 0924 Alarm State:  5
Tue Jan 16 01:31:37 PST 2018 ON: 20.03 +20.0 19.69 - 4.5 33.8 03 14 4814 090F Alarm State:  5
Tue Jan 16 01:30:35 PST 2018 ON: 20.03 +20.0 19.67 - 4.9 33.3 07 14 4716 0923 Alarm State:  5
Tue Jan 16 01:29:34 PST 2018 ON: 20.00 +20.0 19.63 - 4.1 33.5 00 14 4714 0916 Alarm State:  5
Tue Jan 16 01:28:32 PST 2018 ON: 20.04 +20.0 19.67 - 4.7 33.0 00 14 471F 0917 Alarm State:  5
Tue Jan 16 01:27:31 PST 2018 ON: 19.97 +20.0 19.64 - 4.3 33.5 07 14 470D 0A10 Alarm State:  5
Tue Jan 16 01:26:29 PST 2018 ON: 19.99 +20.0 19.60 - 2.9 34.2 0A 14 4811 0921 Alarm State:  5
Tue Jan 16 01:25:28 PST 2018 ON: 20.00 +20.0 19.68 - 5.1 33.0 00 14 4728 091C Alarm State:  5
Tue Jan 16 01:24:26 PST 2018 ON: 20.01 +20.0 19.60 - 3.0 34.2 0A 14 481E 0924 Alarm State:  5
Tue Jan 16 01:23:25 PST 2018 ON: 20.03 +20.0 19.69 - 5.5 32.7 0D 14 4731 0927 Alarm State:  0
Tue Jan 16 01:22:23 PST 2018 ON: 19.98 +20.0 19.59 - 2.9 34.1 04 14 4815 092D Alarm State:  5
Tue Jan 16 01:21:22 PST 2018 ON: 20.01 +20.0 19.67 - 4.7 33.0 0D 14 4807 0928 Alarm State:  5
Tue Jan 16 01:20:20 PST 2018 ON: 20.00 +20.0 19.65 - 4.2 33.2 00 14 4824 091D Alarm State:  0
Tue Jan 16 01:19:19 PST 2018 ON: 20.00 +20.0 19.58 - 2.5 34.0 00 14 4824 0916 Alarm State:  5
Tue Jan 16 01:18:17 PST 2018 ON: 20.01 +20.0 19.66 - 4.6 33.2 00 14 472C 0901 Alarm State:  5
Tue Jan 16 01:17:16 PST 2018 ON: 20.05 +20.0 19.68 - 5.5 32.3 00 14 4712 0902 Alarm State:  5
Tue Jan 16 01:16:14 PST 2018 ON: 19.99 +20.0 19.64 - 4.2 33.4 0A 14 462E 0925 Alarm State:  5
Tue Jan 16 01:15:13 PST 2018 ON: 20.01 +20.0 19.58 - 2.4 34.1 09 14 472B 0909 Alarm State:  0
Tue Jan 16 01:14:11 PST 2018 ON: 19.99 +20.0 19.68 - 5.4 32.6 05 14 4706 0A11 Alarm State:  5
Tue Jan 16 01:13:10 PST 2018 ON: 19.96 +20.0 19.60 - 3.4 34.0 0A 14 4801 0929 Alarm State:  5
Tue Jan 16 01:12:08 PST 2018 ON: 20.04 +20.0 19.71 - 5.8 32.3 0D 13 472B 0917 Alarm State:  5
Tue Jan 16 01:11:07 PST 2018 ON: 19.99 +20.0 19.62 - 3.7 34.0 0A 14 4731 0A00 Alarm State:  0
Tue Jan 16 01:10:05 PST 2018 ON: 20.01 +20.0 19.71 - 5.3 32.8 0D 13 472C 0920 Alarm State:  5
Tue Jan 16 01:09:04 PST 2018 ON: 19.98 +20.0 19.62 - 3.7 33.8 0C 14 480B 0916 Alarm State:  5
Tue Jan 16 01:08:02 PST 2018 ON: 20.00 +20.0 19.69 - 5.8 32.0 0D 14 4800 0A04 Alarm State:  0
Tue Jan 16 01:07:01 PST 2018 ON: 19.95 +20.0 19.61 - 3.9 33.1 00 14 4822 0926 Alarm State:  5
Tue Jan 16 01:05:59 PST 2018 ON: 20.03 +20.0 19.67 - 4.8 32.9 05 14 4902 091D Alarm State:  0
Tue Jan 16 01:04:58 PST 2018 ON: 19.98 +20.0 19.63 - 4.1 33.6 05 14 481C 0922 Alarm State:  5
Tue Jan 16 01:03:56 PST 2018 ON: 20.05 +20.0 19.74 - 5.9 32.2 0A 11 480B 091A Alarm State:  0
Tue Jan 16 01:02:55 PST 2018 ON: 20.01 +20.0 19.64 - 4.2 33.2 0C 14 4817 091C Alarm State:  5
Tue Jan 16 01:01:53 PST 2018 ON: 20.04 +20.0 19.69 - 5.5 32.2 0D 14 481C 0921 Alarm State:  5
Tue Jan 16 01:00:52 PST 2018 ON: 19.98 +20.0 19.61 - 3.9 33.3 0A 14 482E 092C Alarm State:  5
Tue Jan 16 00:59:50 PST 2018 ON: 20.02 +20.0 19.61 - 2.9 33.6 00 14 492C 090D Alarm State:  5
Tue Jan 16 00:58:49 PST 2018 ON: 19.99 +20.0 19.64 - 4.1 33.7 05 14 4902 0918 Alarm State:  0
Tue Jan 16 00:57:47 PST 2018 ON: 20.02 +20.0 19.70 - 5.8 32.1 0D 13 481A 0924 Alarm State:  5
Tue Jan 16 00:56:46 PST 2018 ON: 19.96 +20.0 19.60 - 3.5 34.0 02 14 4909 0928 Alarm State:  5
Tue Jan 16 00:55:44 PST 2018 ON: 20.04 +20.0 19.68 - 5.0 32.9 0D 14 4906 090A Alarm State:  5
Tue Jan 16 00:54:43 PST 2018 ON: 20.03 +20.0 19.60 - 3.0 33.8 05 14 4914 0922 Alarm State:  5
Tue Jan 16 00:53:41 PST 2018 ON: 20.01 +20.0 19.67 - 4.5 33.2 07 14 4818 0909 Alarm State:  0
Tue Jan 16 00:52:40 PST 2018 ON: 20.02 +20.0 19.68 - 4.6 32.9 0A 14 4822 0921 Alarm State:  0
Tue Jan 16 00:51:38 PST 2018 ON: 20.00 +20.0 19.57 - 2.9 33.7 00 14 4825 0917 Alarm State:  5
Tue Jan 16 00:50:37 PST 2018 ON: 19.98 +20.0 19.67 - 4.8 33.1 00 14 472C 0928 Alarm State:  0
Tue Jan 16 00:49:35 PST 2018 ON: 20.01 +20.0 19.57 - 2.7 33.9 01 14 4820 091E Alarm State:  0
Tue Jan 16 00:48:34 PST 2018 ON: 20.02 +20.0 19.70 - 5.5 32.6 0D 13 4727 0924 Alarm State:  5
Tue Jan 16 00:47:32 PST 2018 ON: 20.01 +20.0 19.59 - 2.8 34.0 0C 14 481C 0912 Alarm State:  5
Tue Jan 16 00:46:31 PST 2018 ON: 20.00 +20.0 19.67 - 4.9 32.8 05 14 4803 0910 Alarm State:  5
Tue Jan 16 00:45:29 PST 2018 ON: 20.00 +20.0 19.59 - 2.8 33.9 07 14 481D 0904 Alarm State:  5
Tue Jan 16 00:44:28 PST 2018 ON: 20.02 +20.0 19.67 - 4.8 32.9 07 14 4720 0915 Alarm State:  0
Tue Jan 16 00:43:26 PST 2018 ON: 20.00 +20.0 19.60 - 3.1 33.5 00 14 4731 0924 Alarm State:  5
Tue Jan 16 00:42:25 PST 2018 ON: 19.98 +20.0 19.65 - 4.9 32.9 05 14 4712 0A28 Alarm State:  0
Tue Jan 16 00:41:23 PST 2018 ON: 19.97 +20.0 19.55 - 2.5 34.1 00 14 481D 0926 Alarm State:  0
Tue Jan 16 00:40:22 PST 2018 ON: 20.03 +20.0 19.66 - 4.8 32.8 02 14 4800 0926 Alarm State:  0
Tue Jan 16 00:39:20 PST 2018 ON: 20.04 +20.0 19.67 - 5.0 32.6 00 14 4731 091D Alarm State:  0
Tue Jan 16 00:38:19 PST 2018 ON: 19.99 +20.0 19.62 - 4.2 33.2 07 14 472E 0A09 Alarm State:  5
Tue Jan 16 00:37:17 PST 2018 ON: 20.05 +20.0 19.65 - 4.3 33.0 00 14 4819 0906 Alarm State:  0
Tue Jan 16 00:36:16 PST 2018 ON: 19.96 +20.0 19.65 - 4.8 33.0 05 14 4802 0A04 Alarm State:  0
Tue Jan 16 00:35:14 PST 2018 ON: 19.98 +20.0 19.54 - 2.4 34.0 01 14 4909 090A Alarm State:  0
Tue Jan 16 00:34:13 PST 2018 ON: 20.01 +20.0 19.67 - 4.6 33.1 00 14 4829 0906 Alarm State:  5
Tue Jan 16 00:33:11 PST 2018 ON: 20.03 +20.0 19.64 - 4.0 33.1 00 14 4821 0926 Alarm State:  0
Tue Jan 16 00:32:10 PST 2018 ON: 19.99 +20.0 19.63 - 4.3 33.2 07 14 4731 092A Alarm State:  5
Tue Jan 16 00:31:08 PST 2018 ON: 20.02 +20.0 19.69 - 5.3 32.4 0A 14 4804 0914 Alarm State:  5
Tue Jan 16 00:30:07 PST 2018 ON: 20.00 +20.0 19.63 - 4.1 33.3 07 14 4809 092E Alarm State:  0
Tue Jan 16 00:29:05 PST 2018 ON: 20.06 +20.0 19.71 - 5.6 32.3 0D 13 480F 0914 Alarm State:  5
Tue Jan 16 00:28:04 PST 2018 ON: 19.98 +20.0 19.63 - 3.5 34.0 05 14 480A 090A Alarm State:  0
Tue Jan 16 00:27:02 PST 2018 ON: 20.03 +20.0 19.73 - 5.9 32.1 0D 12 471D 0A0B Alarm State:  0
Tue Jan 16 00:26:01 PST 2018 ON: 19.96 +20.0 19.61 - 3.8 33.7 0A 14 4809 0A0A Alarm State:  5
Tue Jan 16 00:24:59 PST 2018 ON: 20.02 +20.0 19.71 - 5.4 32.4 0D 13 480D 091B Alarm State:  0
Tue Jan 16 00:23:58 PST 2018 ON: 19.98 +20.0 19.63 - 3.5 33.9 00 14 4804 0913 Alarm State:  0
Tue Jan 16 00:22:57 PST 2018 ON: 19.99 +20.0 19.71 - 5.8 32.3 0D 13 4711 0A18 Alarm State:  0
Tue Jan 16 00:21:55 PST 2018 ON: 20.00 +20.0 19.61 - 3.3 33.9 05 14 480D 0923 Alarm State:  5
Tue Jan 16 00:20:53 PST 2018 ON: 20.02 +20.0 19.69 - 5.2 32.7 0D 14 4811 0A0C Alarm State:  0
Tue Jan 16 00:19:52 PST 2018 ON: 20.00 +20.0 19.56 - 2.6 34.0 09 14 4909 0900 Alarm State:  5
Tue Jan 16 00:18:50 PST 2018 ON: 20.00 +20.0 19.67 - 4.8 32.9 05 14 4824 0905 Alarm State:  5
Tue Jan 16 00:17:49 PST 2018 ON: 19.98 +20.0 19.59 - 2.7 33.9 00 14 4916 0906 Alarm State:  5
Tue Jan 16 00:16:47 PST 2018 ON: 19.99 +20.0 19.64 - 3.9 33.8 05 14 482B 0911 Alarm State:  5
Tue Jan 16 00:15:46 PST 2018 ON: 19.99 +20.0 19.66 - 4.4 33.3 00 14 4814 091D Alarm State:  0
Tue Jan 16 00:14:44 PST 2018 ON: 20.03 +20.0 19.69 - 5.5 32.2 05 14 4802 091C Alarm State:  5
Tue Jan 16 00:13:43 PST 2018 ON: 20.01 +20.0 19.64 - 4.0 33.3 07 14 4809 0A02 Alarm State:  0
Tue Jan 16 00:12:41 PST 2018 ON: 20.05 +20.0 19.69 - 4.9 32.8 08 14 4811 0917 Alarm State:  0
Tue Jan 16 00:11:40 PST 2018 ON: 20.01 +20.0 19.62 - 3.3 33.6 00 14 472B 091F Alarm State:  0
Tue Jan 16 00:10:38 PST 2018 ON: 19.99 +20.0 19.64 - 4.6 33.1 0C 14 4709 092A Alarm State:  0
Tue Jan 16 00:09:37 PST 2018 ON: 19.99 +20.0 19.58 - 2.9 33.7 00 14 4730 0926 Alarm State:  5
Tue Jan 16 00:08:35 PST 2018 ON: 19.97 +20.0 19.65 - 4.7 33.0 00 14 471A 0929 Alarm State:  5
Tue Jan 16 00:07:34 PST 2018 ON: 20.01 +20.0 19.58 - 2.6 33.8 00 14 4814 091B Alarm State:  0
Tue Jan 16 00:06:32 PST 2018 ON: 19.99 +20.0 19.63 - 4.6 33.0 00 14 4729 0926 Alarm State:  5
Tue Jan 16 00:05:31 PST 2018 ON: 20.03 +20.0 19.58 - 2.6 33.8 01 14 4819 0913 Alarm State:  0
Tue Jan 16 00:04:29 PST 2018 ON: 20.03 +20.0 19.66 - 4.5 33.4 00 14 4712 0926 Alarm State:  0
Tue Jan 16 00:03:28 PST 2018 ON: 20.04 +20.0 19.66 - 4.9 32.7 00 14 4628 0B05 Alarm State:  0
Tue Jan 16 00:02:27 PST 2018 ON: 19.97 +20.0 19.61 - 4.1 33.5 04 14 4628 0B19 Alarm State:  0
Tue Jan 16 00:01:25 PST 2018 ON: 20.00 +20.0 19.63 - 4.1 33.1 00 14 4724 0B03 Alarm State:  0
Tue Jan 16 00:00:24 PST 2018 ON: 19.94 +20.0 19.60 - 4.1 33.2 00 14 480D 0A31 Alarm State:  0
Mon Jan 15 23:59:22 PST 2018 ON: 19.97 +20.0 19.52 - 2.0 34.1 00 14 491A 0928 Alarm State:  0
Mon Jan 15 23:58:20 PST 2018 ON: 19.98 +20.0 19.66 - 4.9 33.0 00 14 4900 0929 Alarm State:  5
Mon Jan 15 23:57:19 PST 2018 ON: 20.02 +20.0 19.59 - 2.9 33.7 02 14 492F 091C Alarm State:  0
Mon Jan 15 23:56:17 PST 2018 ON: 20.02 +20.0 19.62 - 3.6 33.7 05 14 4917 0927 Alarm State:  0
Mon Jan 15 23:55:16 PST 2018 ON: 19.99 +20.0 19.64 - 4.0 33.7 05 14 4910 0925 Alarm State:  0
Mon Jan 15 23:54:14 PST 2018 ON: 20.03 +20.0 19.70 - 5.6 32.3 0D 13 482F 091C Alarm State:  0
Mon Jan 15 23:53:13 PST 2018 ON: 19.98 +20.0 19.58 - 3.0 33.9 00 14 4901 0904 Alarm State:  0
Mon Jan 15 23:52:11 PST 2018 ON: 19.97 +20.0 19.68 - 4.7 33.0 0D 14 4822 092C Alarm State:  0
Mon Jan 15 23:51:10 PST 2018 ON: 20.00 +20.0 19.57 - 2.5 33.9 00 14 4922 090A Alarm State:  0
Mon Jan 15 23:50:08 PST 2018 ON: 19.99 +20.0 19.62 - 3.7 33.9 05 14 4904 0915 Alarm State:  0
Mon Jan 15 23:49:07 PST 2018 ON: 20.02 +20.0 19.67 - 4.4 33.3 07 14 4820 091D Alarm State:  0
Mon Jan 15 23:48:05 PST 2018 ON: 20.05 +20.0 19.66 - 4.7 32.8 00 14 4828 090A Alarm State:  0
Mon Jan 15 23:47:04 PST 2018 ON: 19.99 +20.0 19.62 - 3.5 34.0 0A 14 4827 0927 Alarm State:  0
Mon Jan 15 23:46:02 PST 2018 ON: 20.02 +20.0 19.70 - 5.1 33.0 0D 13 480D 0926 Alarm State:  0
Mon Jan 15 23:45:01 PST 2018 ON: 19.98 +20.0 19.60 - 2.8 34.1 02 14 482E 091B Alarm State:  0
Mon Jan 15 23:44:00 PST 2018 ON: 20.01 +20.0 19.67 - 5.2 32.8 07 14 4808 0920 Alarm State:  0
Mon Jan 15 23:42:58 PST 2018 ON: 19.98 +20.0 19.59 - 3.0 33.8 00 14 4821 0901 Alarm State:  0
Mon Jan 15 23:41:57 PST 2018 ON: 19.98 +20.0 19.64 - 4.3 33.2 00 14 480B 0A04 Alarm State:  0
Mon Jan 15 23:40:55 PST 2018 ON: 20.01 +20.0 19.59 - 3.0 33.8 00 14 482C 0902 Alarm State:  5
Mon Jan 15 23:39:54 PST 2018 ON: 19.99 +20.0 19.63 - 3.7 33.9 05 14 4800 0917 Alarm State:  5
Mon Jan 15 23:38:52 PST 2018 ON: 20.03 +20.0 19.68 - 5.3 32.9 05 14 4700 0900 Alarm State:  0
Mon Jan 15 23:37:51 PST 2018 ON: 20.01 +20.0 19.60 - 3.2 33.8 00 14 4704 0922 Alarm State:  0
Mon Jan 15 23:36:49 PST 2018 ON: 20.01 +20.0 19.67 - 4.7 33.1 07 14 461E 0A24 Alarm State:  0
Mon Jan 15 23:35:48 PST 2018 ON: 19.99 +20.0 19.56 - 2.8 34.1 04 14 4721 092C Alarm State:  0
Mon Jan 15 23:34:46 PST 2018 ON: 20.02 +20.0 19.73 - 6.1 32.0 0D 13 4708 0B05 Alarm State:  0
Mon Jan 15 23:33:45 PST 2018 ON: 19.97 +20.0 19.58 - 3.5 33.6 07 14 480E 0A07 Alarm State:  0
Mon Jan 15 23:32:43 PST 2018 ON: 20.01 +20.0 19.67 - 4.5 33.0 00 14 482D 0922 Alarm State:  0
Mon Jan 15 23:31:42 PST 2018 ON: 19.98 +20.0 19.63 - 3.6 34.0 05 14 481F 091F Alarm State:  0
Mon Jan 15 23:30:40 PST 2018 ON: 20.00 +20.0 19.69 - 5.6 32.6 0D 14 472F 0925 Alarm State:  0
Mon Jan 15 23:29:39 PST 2018 ON: 19.98 +20.0 19.59 - 2.9 34.2 01 14 481E 0924 Alarm State:  0
Mon Jan 15 23:28:37 PST 2018 ON: 20.03 +20.0 19.67 - 4.7 33.3 07 14 4809 0922 Alarm State:  0
Mon Jan 15 23:27:36 PST 2018 ON: 20.02 +20.0 19.62 - 3.4 33.6 07 14 4806 0922 Alarm State:  0
Mon Jan 15 23:26:34 PST 2018 ON: 20.00 +20.0 19.66 - 4.5 33.3 00 14 4717 092E Alarm State:  0
Mon Jan 15 23:25:33 PST 2018 ON: 19.97 +20.0 19.58 - 2.6 34.0 01 14 4815 0917 Alarm State:  0
Mon Jan 15 23:24:31 PST 2018 ON: 19.98 +20.0 19.66 - 4.8 32.9 05 14 472C 0A18 Alarm State:  0
Mon Jan 15 23:23:30 PST 2018 ON: 20.00 +20.0 19.55 - 2.3 33.9 01 14 4900 0928 Alarm State:  0
Mon Jan 15 23:22:28 PST 2018 ON: 20.00 +20.0 19.66 - 4.4 33.5 00 14 480D 090D Alarm State:  0
Mon Jan 15 23:21:27 PST 2018 ON: 20.00 +20.0 19.71 - 5.7 32.4 0A 13 4726 0914 Alarm State:  5
Mon Jan 15 23:20:25 PST 2018 ON: 20.01 +20.0 19.58 - 3.0 34.1 0C 14 472B 0927 Alarm State:  5
Mon Jan 15 23:19:24 PST 2018 ON: 20.00 +20.0 19.68 - 4.9 33.0 0A 14 471A 0925 Alarm State:  0
Mon Jan 15 23:18:22 PST 2018 ON: 19.98 +20.0 19.58 - 2.5 34.2 0D 14 4815 0917 Alarm State:  0
Mon Jan 15 23:17:21 PST 2018 ON: 20.01 +20.0 19.67 - 4.6 33.1 07 14 4805 0914 Alarm State:  0
Mon Jan 15 23:16:19 PST 2018 ON: 19.98 +20.0 19.57 - 2.5 33.9 00 14 4826 090B Alarm State:  0
Mon Jan 15 23:15:18 PST 2018 ON: 19.99 +20.0 19.66 - 4.7 33.2 00 14 4729 091C Alarm State:  5
Mon Jan 15 23:14:16 PST 2018 ON: 20.03 +20.0 19.69 - 5.4 32.5 0A 14 4718 091A Alarm State:  0
Mon Jan 15 23:13:15 PST 2018 ON: 19.98 +20.0 19.62 - 4.1 33.5 05 14 4729 0921 Alarm State:  0
Mon Jan 15 23:12:13 PST 2018 ON: 20.04 +20.0 19.71 - 5.5 32.1 0A 13 472E 0925 Alarm State:  0
Mon Jan 15 23:11:12 PST 2018 ON: 19.96 +20.0 19.61 - 4.0 33.3 00 14 481C 0928 Alarm State:  0
Mon Jan 15 23:10:10 PST 2018 ON: 20.02 +20.0 19.66 - 4.4 33.0 00 14 4905 0916 Alarm State:  0
Mon Jan 15 23:09:09 PST 2018 ON: 19.99 +20.0 19.62 - 3.5 34.0 02 14 4821 0912 Alarm State:  0
Mon Jan 15 23:08:07 PST 2018 ON: 20.02 +20.0 19.67 - 4.6 33.3 02 14 4809 0913 Alarm State:  0
Mon Jan 15 23:07:06 PST 2018 ON: 20.05 +20.0 19.70 - 5.5 32.3 0D 13 471F 091D Alarm State:  0
Mon Jan 15 23:06:04 PST 2018 ON: 20.00 +20.0 19.65 - 4.4 33.0 07 14 471D 0A0C Alarm State:  0
Mon Jan 15 23:05:03 PST 2018 ON: 20.01 +20.0 19.64 - 4.3 33.2 00 14 480B 0904 Alarm State:  0
Mon Jan 15 23:04:01 PST 2018 ON: 19.99 +20.0 19.65 - 4.3 33.6 07 14 4715 090F Alarm State:  0
Mon Jan 15 23:03:00 PST 2018 ON: 20.02 +20.0 19.71 - 5.6 32.5 05 13 4702 0909 Alarm State:  0
Mon Jan 15 23:01:58 PST 2018 ON: 19.98 +20.0 19.61 - 3.9 33.7 00 14 4712 0915 Alarm State:  0
Mon Jan 15 23:00:57 PST 2018 ON: 20.07 +20.0 19.72 - 6.0 32.0 0A 12 470B 0928 Alarm State:  0
Mon Jan 15 22:59:55 PST 2018 ON: 20.01 +20.0 19.64 - 4.4 33.2 02 14 470B 090F Alarm State:  0
Mon Jan 15 22:58:54 PST 2018 ON: 20.03 +20.0 19.69 - 5.2 32.6 0A 14 471C 0918 Alarm State:  0
Mon Jan 15 22:57:52 PST 2018 ON: 19.97 +20.0 19.63 - 4.2 33.4 00 14 4722 092B Alarm State:  0
Mon Jan 15 22:56:51 PST 2018 ON: 20.04 +20.0 19.69 - 5.5 32.0 0D 14 472B 0A0B Alarm State:  0
Mon Jan 15 22:55:49 PST 2018 ON: 19.99 +20.0 19.62 - 3.9 33.4 0C 14 4814 0931 Alarm State:  0
Mon Jan 15 22:54:48 PST 2018 ON: 20.02 +20.0 19.66 - 4.1 33.1 00 14 4900 0920 Alarm State:  0
Mon Jan 15 22:53:46 PST 2018 ON: 19.98 +20.0 19.62 - 3.9 33.6 00 14 482D 091B Alarm State:  0
Mon Jan 15 22:52:45 PST 2018 ON: 20.02 +20.0 19.68 - 4.9 33.0 0D 14 482C 0928 Alarm State:  0
Mon Jan 15 22:51:43 PST 2018 ON: 20.01 +20.0 19.58 - 2.6 34.0 01 14 482A 0925 Alarm State:  0
Mon Jan 15 22:50:42 PST 2018 ON: 20.01 +20.0 19.67 - 4.6 33.3 00 14 472C 090E Alarm State:  0
Mon Jan 15 22:49:40 PST 2018 ON: 20.03 +20.0 19.67 - 5.0 32.6 05 14 4720 0911 Alarm State:  0
Mon Jan 15 22:48:39 PST 2018 ON: 19.97 +20.0 19.64 - 4.2 33.2 00 14 471F 0920 Alarm State:  0
Mon Jan 15 22:47:37 PST 2018 ON: 20.02 +20.0 19.66 - 4.6 32.9 00 14 480A 0914 Alarm State:  0
Mon Jan 15 22:46:36 PST 2018 ON: 20.00 +20.0 19.65 - 4.3 33.2 0A 14 4732 0A04 Alarm State:  0
Mon Jan 15 22:45:34 PST 2018 ON: 20.05 +20.0 19.66 - 4.3 33.1 05 14 4819 0907 Alarm State:  0
Mon Jan 15 22:44:33 PST 2018 ON: 19.98 +20.0 19.62 - 4.2 33.4 05 14 480C 0922 Alarm State:  5
Mon Jan 15 22:43:31 PST 2018 ON: 20.02 +20.0 19.70 - 5.7 32.1 08 13 4806 090D Alarm State:  0
Mon Jan 15 22:42:30 PST 2018 ON: 20.00 +20.0 19.61 - 3.6 34.0 0C 14 480D 0927 Alarm State:  0
Mon Jan 15 22:41:28 PST 2018 ON: 20.01 +20.0 19.68 - 4.9 32.9 0A 14 4803 0920 Alarm State:  0
Mon Jan 15 22:40:27 PST 2018 ON: 20.00 +20.0 19.57 - 2.8 33.9 04 14 4830 0909 Alarm State:  0
Mon Jan 15 22:39:25 PST 2018 ON: 19.98 +20.0 19.64 - 4.5 33.1 05 14 4820 0A0C Alarm State:  0
Mon Jan 15 22:38:24 PST 2018 ON: 19.99 +20.0 19.58 - 2.4 34.0 00 14 491A 0929 Alarm State:  0
Mon Jan 15 22:37:22 PST 2018 ON: 20.00 +20.0 19.63 - 4.0 33.8 00 14 481A 0911 Alarm State:  0
Mon Jan 15 22:36:21 PST 2018 ON: 20.03 +20.0 19.71 - 5.3 32.7 0D 13 4722 0923 Alarm State:  0
Mon Jan 15 22:35:19 PST 2018 ON: 20.00 +20.0 19.60 - 3.1 34.1 0A 14 4815 091C Alarm State:  0
Mon Jan 15 22:34:18 PST 2018 ON: 20.00 +20.0 19.69 - 5.4 32.8 0D 14 4729 091C Alarm State:  0
Mon Jan 15 22:33:17 PST 2018 ON: 19.97 +20.0 19.60 - 3.4 34.0 02 14 4806 0928 Alarm State:  0
Mon Jan 15 22:32:15 PST 2018 ON: 20.03 +20.0 19.69 - 5.1 33.0 0D 14 4728 0926 Alarm State:  0
Mon Jan 15 22:31:14 PST 2018 ON: 19.99 +20.0 19.57 - 2.7 34.0 01 14 481F 0915 Alarm State:  0
Mon Jan 15 22:30:12 PST 2018 ON: 20.00 +20.0 19.66 - 4.8 33.0 00 14 4806 0913 Alarm State:  0
Mon Jan 15 22:29:11 PST 2018 ON: 20.03 +20.0 19.63 - 3.3 33.5 00 14 482C 0905 Alarm State:  0
Mon Jan 15 22:28:09 PST 2018 ON: 19.98 +20.0 19.62 - 4.4 33.3 05 14 4811 090D Alarm State:  0
Mon Jan 15 22:27:08 PST 2018 ON: 20.06 +20.0 19.70 - 5.6 32.1 05 13 4812 0922 Alarm State:  0
Mon Jan 15 22:26:06 PST 2018 ON: 20.00 +20.0 19.61 - 3.7 34.0 0A 14 480C 0909 Alarm State:  0
Mon Jan 15 22:25:05 PST 2018 ON: 20.00 +20.0 19.69 - 5.4 32.7 0D 14 4809 0926 Alarm State:  0
Mon Jan 15 22:24:03 PST 2018 ON: 19.98 +20.0 19.63 - 3.7 33.6 07 14 4908 0927 Alarm State:  0
Mon Jan 15 22:23:02 PST 2018 ON: 20.03 +20.0 19.67 - 4.9 32.7 03 14 490F 090B Alarm State:  0
Mon Jan 15 22:22:00 PST 2018 ON: 19.99 +20.0 19.64 - 4.3 33.5 00 14 4826 0A0C Alarm State:  0
Mon Jan 15 22:20:59 PST 2018 ON: 20.05 +20.0 19.68 - 5.6 32.0 0D 14 4819 0A21 Alarm State:  0
Mon Jan 15 22:19:57 PST 2018 ON: 19.98 +20.0 19.60 - 3.9 33.3 00 14 482D 0A17 Alarm State:  0
Mon Jan 15 22:18:56 PST 2018 ON: 20.02 +20.0 19.63 - 3.7 33.4 00 14 4921 0903 Alarm State:  0
Mon Jan 15 22:17:54 PST 2018 ON: 20.01 +20.0 19.64 - 4.0 33.8 0C 14 482A 0910 Alarm State:  0
Mon Jan 15 22:16:53 PST 2018 ON: 19.99 +20.0 19.69 - 5.3 32.6 0D 14 4813 0A1A Alarm State:  0
Mon Jan 15 22:15:51 PST 2018 ON: 19.97 +20.0 19.57 - 2.9 34.1 00 14 4914 0926 Alarm State:  0
Mon Jan 15 22:14:50 PST 2018 ON: 20.02 +20.0 19.67 - 4.7 33.2 0D 14 4907 0918 Alarm State:  0
Mon Jan 15 22:13:48 PST 2018 ON: 20.00 +20.0 19.58 - 2.8 34.0 00 14 4927 0908 Alarm State:  0
Mon Jan 15 22:12:47 PST 2018 ON: 20.02 +20.0 19.66 - 4.8 33.1 07 14 4829 0918 Alarm State:  0
Mon Jan 15 22:11:45 PST 2018 ON: 20.05 +20.0 19.63 - 3.5 33.5 00 14 4825 091F Alarm State:  0
Mon Jan 15 22:10:44 PST 2018 ON: 20.00 +20.0 19.66 - 4.5 33.5 05 14 472B 0908 Alarm State:  0
Mon Jan 15 22:09:42 PST 2018 ON: 20.01 +20.0 19.71 - 5.8 32.3 0D 13 4713 090D Alarm State:  0
Mon Jan 15 22:08:41 PST 2018 ON: 19.98 +20.0 19.62 - 3.7 33.9 00 14 4720 091C Alarm State:  0
Mon Jan 15 22:07:39 PST 2018 ON: 19.99 +20.0 19.69 - 5.6 32.5 0A 14 4716 0A0F Alarm State:  0
Mon Jan 15 22:06:38 PST 2018 ON: 19.99 +20.0 19.60 - 3.3 34.1 0A 14 4808 092E Alarm State:  0
Mon Jan 15 22:05:36 PST 2018 ON: 20.03 +20.0 19.69 - 5.2 32.8 0D 14 4808 091B Alarm State:  0
Mon Jan 15 22:04:35 PST 2018 ON: 19.98 +20.0 19.57 - 2.5 34.0 01 14 4821 0918 Alarm State:  0
Mon Jan 15 22:03:33 PST 2018 ON: 20.00 +20.0 19.68 - 5.2 32.8 05 14 472E 0925 Alarm State:  0
Mon Jan 15 22:02:32 PST 2018 ON: 19.98 +20.0 19.58 - 2.8 34.1 00 14 481E 0927 Alarm State:  5
Mon Jan 15 22:01:30 PST 2018 ON: 20.01 +20.0 19.67 - 4.7 33.2 00 14 472B 0903 Alarm State:  0
Mon Jan 15 22:00:29 PST 2018 ON: 20.03 +20.0 19.66 - 4.9 32.8 00 14 471A 090D Alarm State:  0
Mon Jan 15 21:59:27 PST 2018 ON: 19.99 +20.0 19.64 - 4.2 33.2 02 14 471C 0926 Alarm State:  0
Mon Jan 15 21:58:26 PST 2018 ON: 20.03 +20.0 19.66 - 4.3 33.1 00 14 480C 0917 Alarm State:  0
Mon Jan 15 21:57:24 PST 2018 ON: 19.99 +20.0 19.62 - 4.1 33.4 00 14 480E 092A Alarm State:  0
Mon Jan 15 21:56:23 PST 2018 ON: 20.00 +20.0 19.64 - 4.6 32.9 00 14 4902 091F Alarm State:  0
Mon Jan 15 21:55:21 PST 2018 ON: 19.96 +20.0 19.58 - 2.9 34.1 01 14 4916 091F Alarm State:  0
Mon Jan 15 21:54:20 PST 2018 ON: 20.00 +20.0 19.65 - 4.7 33.4 00 14 4909 091D Alarm State:  0
Mon Jan 15 21:53:18 PST 2018 ON: 20.01 +20.0 19.67 - 4.4 33.6 0D 14 490D 0916 Alarm State:  0
Mon Jan 15 21:52:17 PST 2018 ON: 20.03 +20.0 19.71 - 5.7 32.4 0A 13 481D 091A Alarm State:  0
Mon Jan 15 21:51:15 PST 2018 ON: 20.01 +20.0 19.60 - 3.3 34.0 05 14 4908 092A Alarm State:  0
Mon Jan 15 21:50:14 PST 2018 ON: 19.99 +20.0 19.68 - 5.2 32.8 0D 14 481E 092C Alarm State:  0
Mon Jan 15 21:49:12 PST 2018 ON: 19.99 +20.0 19.58 - 2.7 33.9 04 14 4919 091F Alarm State:  0
Mon Jan 15 21:48:11 PST 2018 ON: 19.99 +20.0 19.65 - 4.3 33.4 00 14 490C 0921 Alarm State:  0
Mon Jan 15 21:47:10 PST 2018 ON: 20.06 +20.0 19.65 - 4.5 33.0 00 14 490F 0915 Alarm State:  0
Mon Jan 15 21:46:08 PST 2018 ON: 20.01 +20.0 19.65 - 4.3 33.6 00 14 481C 0920 Alarm State:  0
Mon Jan 15 21:45:07 PST 2018 ON: 20.02 +20.0 19.70 - 5.8 32.4 0D 13 4803 0920 Alarm State:  0
Mon Jan 15 21:44:05 PST 2018 ON: 19.99 +20.0 19.60 - 3.4 34.1 0D 14 4815 092B Alarm State:  0
Mon Jan 15 21:43:04 PST 2018 ON: 20.00 +20.0 19.69 - 5.3 32.8 0D 14 4806 091F Alarm State:  0
Mon Jan 15 21:42:02 PST 2018 ON: 19.99 +20.0 19.57 - 2.6 34.1 00 14 4828 091F Alarm State:  0
Mon Jan 15 21:41:01 PST 2018 ON: 20.00 +20.0 19.67 - 4.6 33.3 00 14 480B 0925 Alarm State:  0
Mon Jan 15 21:39:59 PST 2018 ON: 20.01 +20.0 19.60 - 2.8 33.8 00 14 4819 090C Alarm State:  0
Mon Jan 15 21:38:58 PST 2018 ON: 20.00 +20.0 19.64 - 5.1 32.8 05 14 4725 0A14 Alarm State:  0
Mon Jan 15 21:37:56 PST 2018 ON: 19.97 +20.0 19.58 - 3.0 34.1 04 14 482A 091C Alarm State:  0
Mon Jan 15 21:36:55 PST 2018 ON: 20.02 +20.0 19.70 - 5.4 32.7 0D 13 480F 0918 Alarm State:  0
Mon Jan 15 21:35:53 PST 2018 ON: 20.01 +20.0 19.58 - 2.8 33.8 01 14 482B 0920 Alarm State:  0
Mon Jan 15 21:34:52 PST 2018 ON: 19.98 +20.0 19.63 - 4.6 33.1 00 14 481C 0A1A Alarm State:  0
Mon Jan 15 21:33:50 PST 2018 ON: 20.00 +20.0 19.55 - 2.3 33.9 01 14 491D 0920 Alarm State:  0
Mon Jan 15 21:32:49 PST 2018 ON: 20.01 +20.0 19.66 - 4.8 33.1 02 14 4821 0903 Alarm State:  0
Mon Jan 15 21:31:47 PST 2018 ON: 20.02 +20.0 19.63 - 3.8 33.3 00 14 4827 0919 Alarm State:  0
Mon Jan 15 21:30:46 PST 2018 ON: 20.00 +20.0 19.65 - 4.6 33.0 07 14 4808 0925 Alarm State:  0
Mon Jan 15 21:29:44 PST 2018 ON: 20.05 +20.0 19.69 - 5.4 32.4 03 14 480C 0904 Alarm State:  0
Mon Jan 15 21:28:43 PST 2018 ON: 20.00 +20.0 19.65 - 4.3 33.3 07 14 4809 091F Alarm State:  0
Mon Jan 15 21:27:41 PST 2018 ON: 20.05 +20.0 19.71 - 5.6 32.1 0D 13 4805 0A12 Alarm State:  0
Mon Jan 15 21:26:40 PST 2018 ON: 19.97 +20.0 19.60 - 4.2 33.2 05 14 4812 0A13 Alarm State:  0
Mon Jan 15 21:25:38 PST 2018 ON: 20.01 +20.0 19.68 - 4.5 33.1 08 14 482E 0912 Alarm State:  0
Mon Jan 15 21:24:37 PST 2018 ON: 20.00 +20.0 19.58 - 3.2 33.6 00 14 481D 0920 Alarm State:  0
Mon Jan 15 21:23:35 PST 2018 ON: 20.00 +20.0 19.66 - 4.8 33.0 02 14 4720 090C Alarm State:  0
Mon Jan 15 21:22:34 PST 2018 ON: 20.06 +20.0 19.66 - 4.5 33.1 00 14 4721 0900 Alarm State:  0
Mon Jan 15 21:21:32 PST 2018 ON: 20.01 +20.0 19.65 - 4.4 33.4 00 14 470D 092C Alarm State:  0
Mon Jan 15 21:20:31 PST 2018 ON: 20.04 +20.0 19.72 - 5.9 32.2 0D 13 462E 0A1C Alarm State:  0
Mon Jan 15 21:19:29 PST 2018 ON: 19.98 +20.0 19.61 - 4.1 33.5 07 14 4709 0A20 Alarm State:  0
Mon Jan 15 21:18:28 PST 2018 ON: 20.03 +20.0 19.67 - 5.2 32.6 00 14 471C 0A19 Alarm State:  0
Mon Jan 15 21:17:26 PST 2018 ON: 19.95 +20.0 19.62 - 4.5 33.1 05 14 472C 0A1C Alarm State:  0
Mon Jan 15 21:16:25 PST 2018 ON: 19.99 +20.0 19.55 - 1.9 34.2 00 14 4908 0911 Alarm State:  0
Mon Jan 15 21:15:23 PST 2018 ON: 19.99 +20.0 19.69 - 5.8 32.3 0D 14 481A 0A16 Alarm State:  0
Mon Jan 15 21:14:22 PST 2018 ON: 19.98 +20.0 19.61 - 3.5 34.0 0C 14 4918 0925 Alarm State:  0
Mon Jan 15 21:13:20 PST 2018 ON: 20.03 +20.0 19.68 - 5.3 32.8 0D 14 4910 0910 Alarm State:  0
Mon Jan 15 21:12:19 PST 2018 ON: 20.01 +20.0 19.62 - 3.5 33.5 02 14 490B 0914 Alarm State:  0
Mon Jan 15 21:11:17 PST 2018 ON: 19.99 +20.0 19.62 - 4.4 33.3 07 14 4828 0915 Alarm State:  0
Mon Jan 15 21:10:16 PST 2018 ON: 20.01 +20.0 19.67 - 4.9 32.6 00 14 4821 0903 Alarm State:  0
Mon Jan 15 21:09:14 PST 2018 ON: 19.98 +20.0 19.62 - 3.8 33.9 0A 14 482F 0915 Alarm State:  0
Mon Jan 15 21:08:13 PST 2018 ON: 20.03 +20.0 19.69 - 5.3 32.9 0D 14 4821 0901 Alarm State:  0
Mon Jan 15 21:07:11 PST 2018 ON: 19.99 +20.0 19.57 - 3.0 33.8 00 14 4902 0903 Alarm State:  0
Mon Jan 15 21:06:10 PST 2018 ON: 20.00 +20.0 19.64 - 4.7 33.0 0D 14 4822 092A Alarm State:  0
Mon Jan 15 21:05:08 PST 2018 ON: 20.00 +20.0 19.59 - 3.1 33.7 00 14 491C 0902 Alarm State:  0
Mon Jan 15 21:04:07 PST 2018 ON: 19.99 +20.0 19.62 - 4.3 33.2 00 14 4900 092C Alarm State:  0
Mon Jan 15 21:03:05 PST 2018 ON: 20.01 +20.0 19.62 - 4.1 33.4 00 14 4919 0900 Alarm State:  0
Mon Jan 15 21:02:04 PST 2018 ON: 19.99 +20.0 19.68 - 4.7 33.2 0D 14 481E 0911 Alarm State:  0
Mon Jan 15 21:01:02 PST 2018 ON: 20.02 +20.0 19.69 - 5.0 32.8 0A 14 4813 0907 Alarm State:  0
Mon Jan 15 21:00:01 PST 2018 ON: 20.02 +20.0 19.63 - 4.1 33.2 00 14 4811 0906 Alarm State:  0
Mon Jan 15 20:58:59 PST 2018 ON: 20.01 +20.0 19.65 - 4.4 33.3 07 14 472D 090A Alarm State:  0
Mon Jan 15 20:57:58 PST 2018 ON: 20.06 +20.0 19.69 - 5.3 32.3 0D 14 4800 0918 Alarm State:  0
Mon Jan 15 20:56:56 PST 2018 ON: 19.97 +20.0 19.61 - 4.0 33.4 00 14 4804 092A Alarm State:  0
Mon Jan 15 20:55:55 PST 2018 ON: 20.04 +20.0 19.69 - 5.4 32.3 0D 14 4808 090B Alarm State:  0
Mon Jan 15 20:54:53 PST 2018 ON: 19.97 +20.0 19.63 - 4.2 33.2 02 14 4730 092B Alarm State:  0
Mon Jan 15 20:53:52 PST 2018 ON: 20.01 +20.0 19.68 - 4.8 32.9 0A 14 480F 0900 Alarm State:  0
Mon Jan 15 20:52:51 PST 2018 ON: 20.05 +20.0 19.67 - 5.2 32.4 00 14 4725 090C Alarm State:  0
Mon Jan 15 20:51:49 PST 2018 ON: 19.99 +20.0 19.63 - 4.1 33.7 00 14 471F 0931 Alarm State:  0
Mon Jan 15 20:50:48 PST 2018 ON: 20.02 +20.0 19.71 - 5.9 32.2 0D 13 471C 0A21 Alarm State:  0
Mon Jan 15 20:49:46 PST 2018 ON: 19.98 +20.0 19.61 - 3.9 33.4 05 14 480B 0A0F Alarm State:  0
Mon Jan 15 20:48:44 PST 2018 ON: 20.01 +20.0 19.69 - 5.5 32.2 05 14 4812 091B Alarm State:  0
Mon Jan 15 20:47:43 PST 2018 ON: 19.98 +20.0 19.59 - 3.2 33.9 00 14 4814 0908 Alarm State:  0
Mon Jan 15 20:46:42 PST 2018 ON: 20.00 +20.0 19.67 - 4.7 33.2 00 14 4809 0929 Alarm State:  0
Mon Jan 15 20:45:40 PST 2018 ON: 20.00 +20.0 19.58 - 2.6 33.9 00 14 4900 091A Alarm State:  0
Mon Jan 15 20:44:39 PST 2018 ON: 20.02 +20.0 19.64 - 4.6 33.2 07 14 4816 0920 Alarm State:  0
Mon Jan 15 20:43:37 PST 2018 ON: 20.05 +20.0 19.70 - 5.4 32.6 0A 13 4814 090B Alarm State:  0
Mon Jan 15 20:42:36 PST 2018 ON: 20.01 +20.0 19.58 - 3.2 33.7 04 14 4821 090C Alarm State:  0
Mon Jan 15 20:41:34 PST 2018 ON: 20.01 +20.0 19.64 - 4.6 32.6 07 14 4819 092C Alarm State:  0
Mon Jan 15 20:40:33 PST 2018 ON: 20.01 +20.0 19.65 - 3.9 33.3 00 14 4909 0917 Alarm State:  0
Mon Jan 15 20:39:31 PST 2018 ON: 19.99 +20.0 19.60 - 3.1 33.8 02 14 4820 091C Alarm State:  0
Mon Jan 15 20:38:30 PST 2018 ON: 20.02 +20.0 19.66 - 5.1 32.7 07 14 472A 092A Alarm State:  0
Mon Jan 15 20:37:28 PST 2018 ON: 20.02 +20.0 19.59 - 3.4 33.4 00 14 481D 0928 Alarm State:  0
Mon Jan 15 20:36:27 PST 2018 ON: 20.00 +20.0 19.64 - 4.6 33.1 00 14 4806 092A Alarm State:  0
Mon Jan 15 20:35:25 PST 2018 ON: 20.01 +20.0 19.58 - 2.7 33.9 07 14 4909 0902 Alarm State:  0
Mon Jan 15 20:34:24 PST 2018 ON: 19.99 +20.0 19.64 - 4.7 32.8 07 14 4823 092D Alarm State:  0
Mon Jan 15 20:33:22 PST 2018 ON: 20.03 +20.0 19.62 - 3.7 33.3 00 14 4912 0925 Alarm State:  0
Mon Jan 15 20:32:21 PST 2018 ON: 19.99 +20.0 19.65 - 4.6 32.8 00 14 481A 0906 Alarm State:  0
Mon Jan 15 20:31:19 PST 2018 ON: 20.04 +20.0 19.68 - 4.6 32.9 00 14 481A 0920 Alarm State:  0
Mon Jan 15 20:30:18 PST 2018 ON: 20.01 +20.0 19.65 - 5.0 32.7 00 14 4732 0A22 Alarm State:  0
Mon Jan 15 20:29:16 PST 2018 ON: 19.95 +20.0 19.59 - 4.0 33.0 01 14 4827 0A08 Alarm State:  0
Mon Jan 15 20:28:15 PST 2018 ON: 20.04 +20.0 19.60 - 3.4 33.4 00 14 4921 0915 Alarm State:  0
Mon Jan 15 20:27:13 PST 2018 ON: 20.02 +20.0 19.66 - 4.5 33.4 07 14 4826 0926 Alarm State:  0
Mon Jan 15 20:26:12 PST 2018 ON: 20.03 +20.0 19.70 - 6.0 31.8 0D 13 4803 0905 Alarm State:  0
Mon Jan 15 20:25:10 PST 2018 ON: 19.99 +20.0 19.61 - 3.9 33.6 07 14 4811 0911 Alarm State:  0
Mon Jan 15 20:24:09 PST 2018 ON: 20.01 +20.0 19.70 - 5.6 32.3 0D 13 4816 091A Alarm State:  0
Mon Jan 15 20:23:07 PST 2018 ON: 19.97 +20.0 19.59 - 3.0 33.9 00 14 482A 092C Alarm State:  0
Mon Jan 15 20:22:06 PST 2018 ON: 19.98 +20.0 19.66 - 4.8 32.8 00 14 481F 092A Alarm State:  0
Mon Jan 15 20:21:04 PST 2018 ON: 20.01 +20.0 19.69 - 5.1 32.5 0A 14 481F 090B Alarm State:  0
Mon Jan 15 20:20:03 PST 2018 ON: 20.00 +20.0 19.62 - 3.6 33.9 02 14 482C 091A Alarm State:  0
Mon Jan 15 20:19:01 PST 2018 ON: 20.02 +20.0 19.68 - 5.1 32.9 0A 14 480C 091D Alarm State:  0
Mon Jan 15 20:18:00 PST 2018 ON: 19.99 +20.0 19.60 - 3.1 34.0 0A 14 480F 0A05 Alarm State:  0
Mon Jan 15 20:16:58 PST 2018 ON: 20.02 +20.0 19.70 - 6.2 32.0 0D 14 4718 0B0E Alarm State:  0
Mon Jan 15 20:15:57 PST 2018 ON: 19.95 +20.0 19.59 - 3.6 33.6 07 14 481A 0A11 Alarm State:  0
Mon Jan 15 20:14:55 PST 2018 ON: 20.03 +20.0 19.70 - 5.2 32.3 0A 13 4901 0910 Alarm State:  0
Mon Jan 15 20:13:54 PST 2018 ON: 19.97 +20.0 19.62 - 3.9 33.7 00 14 490C 0917 Alarm State:  0
Mon Jan 15 20:12:52 PST 2018 ON: 20.02 +20.0 19.70 - 5.6 32.3 05 13 4906 0904 Alarm State:  0
Mon Jan 15 20:11:51 PST 2018 ON: 20.00 +20.0 19.61 - 3.7 33.8 0C 14 4905 0917 Alarm State:  0
Mon Jan 15 20:10:49 PST 2018 ON: 20.01 +20.0 19.69 - 5.2 32.7 0D 14 4825 0911 Alarm State:  0
Mon Jan 15 20:09:48 PST 2018 ON: 20.01 +20.0 19.61 - 3.1 33.9 07 14 4908 091D Alarm State:  0
Mon Jan 15 20:08:46 PST 2018 ON: 20.01 +20.0 19.67 - 4.8 33.1 05 14 480E 0906 Alarm State:  0
Mon Jan 15 20:07:45 PST 2018 ON: 20.01 +20.0 19.64 - 4.6 32.9 00 14 4731 090B Alarm State:  0
Mon Jan 15 20:06:43 PST 2018 ON: 20.00 +20.0 19.63 - 4.4 33.4 07 14 4722 0911 Alarm State:  0
Mon Jan 15 20:05:42 PST 2018 ON: 20.04 +20.0 19.72 - 6.1 31.9 08 13 4722 0A00 Alarm State:  0
Mon Jan 15 20:04:40 PST 2018 ON: 19.99 +20.0 19.62 - 4.1 33.2 0A 14 4731 0A07 Alarm State:  0
Mon Jan 15 20:03:39 PST 2018 ON: 20.04 +20.0 19.66 - 4.8 32.8 00 14 4816 0A0A Alarm State:  0
Mon Jan 15 20:02:37 PST 2018 ON: 19.96 +20.0 19.61 - 4.4 33.1 00 14 4813 0A1D Alarm State:  0
Mon Jan 15 20:01:36 PST 2018 ON: 19.99 +20.0 19.56 - 2.5 33.8 00 14 4918 091F Alarm State:  0
Mon Jan 15 20:00:34 PST 2018 ON: 20.02 +20.0 19.67 - 4.8 32.8 00 14 481E 0927 Alarm State:  0
Mon Jan 15 19:59:33 PST 2018 ON: 20.02 +20.0 19.64 - 4.2 33.2 00 14 4832 0902 Alarm State:  0
Mon Jan 15 19:58:31 PST 2018 ON: 20.01 +20.0 19.63 - 3.8 33.7 0A 14 4813 090A Alarm State:  0
Mon Jan 15 19:57:30 PST 2018 ON: 19.99 +20.0 19.65 - 4.8 33.0 07 14 472E 0A0F Alarm State:  0
Mon Jan 15 19:56:28 PST 2018 ON: 19.98 +20.0 19.58 - 3.0 33.6 00 14 482A 0920 Alarm State:  0
Mon Jan 15 19:55:27 PST 2018 ON: 19.98 +20.0 19.64 - 4.6 33.4 05 14 480E 0929 Alarm State:  0
Mon Jan 15 19:54:25 PST 2018 ON: 20.01 +20.0 19.70 - 5.6 32.5 0A 13 4809 0923 Alarm State:  0
Mon Jan 15 19:53:24 PST 2018 ON: 19.97 +20.0 19.59 - 3.7 33.9 00 14 482D 0927 Alarm State:  0
Mon Jan 15 19:52:22 PST 2018 ON: 20.04 +20.0 19.70 - 5.7 32.6 0D 13 4821 0915 Alarm State:  0
Mon Jan 15 19:51:21 PST 2018 ON: 20.02 +20.0 19.64 - 3.6 33.9 0C 14 481B 090C Alarm State:  0
Mon Jan 15 19:50:19 PST 2018 ON: 20.01 +20.0 19.70 - 5.5 32.6 0D 13 472D 0912 Alarm State:  0
Mon Jan 15 19:49:18 PST 2018 ON: 19.98 +20.0 19.59 - 2.8 33.9 09 14 4820 0906 Alarm State:  0
Mon Jan 15 19:48:16 PST 2018 ON: 19.99 +20.0 19.65 - 4.5 33.3 00 14 4811 0902 Alarm State:  0
Mon Jan 15 19:47:15 PST 2018 ON: 20.01 +20.0 19.64 - 4.3 33.0 00 14 4821 0914 Alarm State:  0
Mon Jan 15 19:46:13 PST 2018 ON: 19.99 +20.0 19.62 - 4.3 33.3 05 14 4822 092C Alarm State:  0
Mon Jan 15 19:45:12 PST 2018 ON: 20.03 +20.0 19.68 - 4.8 33.1 0D 14 4905 0926 Alarm State:  0
Mon Jan 15 19:44:10 PST 2018 ON: 20.02 +20.0 19.69 - 4.9 32.8 0D 14 4815 0905 Alarm State:  0
Mon Jan 15 19:43:09 PST 2018 ON: 20.04 +20.0 19.66 - 5.1 32.7 05 14 4720 0912 Alarm State:  0
Mon Jan 15 19:42:07 PST 2018 ON: 19.96 +20.0 19.64 - 4.6 33.1 00 14 470D 0A06 Alarm State:  0
Mon Jan 15 19:41:06 PST 2018 ON: 20.00 +20.0 19.59 - 3.1 33.6 00 14 480E 0914 Alarm State:  0
Mon Jan 15 19:40:04 PST 2018 ON: 20.01 +20.0 19.64 - 4.5 33.2 0A 14 472A 0916 Alarm State:  0
Mon Jan 15 19:39:03 PST 2018 ON: 20.04 +20.0 19.60 - 2.9 33.7 00 14 481B 090C Alarm State:  0
Mon Jan 15 19:38:01 PST 2018 ON: 20.00 +20.0 19.65 - 4.9 33.2 05 14 471C 091A Alarm State:  0
Mon Jan 15 19:37:00 PST 2018 ON: 20.01 +20.0 19.61 - 3.2 33.6 05 14 4809 0924 Alarm State:  0
Mon Jan 15 19:35:58 PST 2018 ON: 19.97 +20.0 19.65 - 5.5 32.4 05 14 4719 0A28 Alarm State:  0
Mon Jan 15 19:34:57 PST 2018 ON: 19.95 +20.0 19.57 - 3.0 34.1 09 14 4829 091C Alarm State:  0
Mon Jan 15 19:33:55 PST 2018 ON: 20.02 +20.0 19.68 - 4.8 32.8 0D 14 4903 0929 Alarm State:  0
Mon Jan 15 19:32:54 PST 2018 ON: 20.04 +20.0 19.61 - 3.7 33.3 00 14 4921 0921 Alarm State:  0
Mon Jan 15 19:31:53 PST 2018 ON: 19.97 +20.0 19.64 - 4.2 33.2 00 14 491C 0917 Alarm State:  0
Mon Jan 15 19:30:51 PST 2018 ON: 20.02 +20.0 19.65 - 4.2 33.2 02 14 492C 0923 Alarm State:  0
Mon Jan 15 19:29:50 PST 2018 ON: 20.02 +20.0 19.67 - 4.5 33.2 00 14 4822 090E Alarm State:  0
Mon Jan 15 19:28:48 PST 2018 ON: 20.03 +20.0 19.63 - 4.1 33.2 00 14 4731 0921 Alarm State:  0
Mon Jan 15 19:27:47 PST 2018 ON: 20.00 +20.0 19.64 - 4.5 33.1 07 14 471C 0923 Alarm State:  0
Mon Jan 15 19:26:45 PST 2018 ON: 20.01 +20.0 19.59 - 3.1 33.6 04 14 4815 0919 Alarm State:  0
Mon Jan 15 19:25:44 PST 2018 ON: 19.98 +20.0 19.66 - 4.8 32.7 00 14 472A 0A1D Alarm State:  0
Mon Jan 15 19:24:42 PST 2018 ON: 19.99 +20.0 19.58 - 3.1 33.6 00 14 482D 0929 Alarm State:  0
Mon Jan 15 19:23:41 PST 2018 ON: 20.00 +20.0 19.66 - 4.5 32.9 0C 14 481A 091F Alarm State:  0
Mon Jan 15 19:22:39 PST 2018 ON: 20.06 +20.0 19.69 - 4.7 33.1 0D 14 4820 0904 Alarm State:  0
Mon Jan 15 19:21:38 PST 2018 ON: 20.02 +20.0 19.69 - 5.7 32.2 08 14 471A 0918 Alarm State:  0
Mon Jan 15 19:20:36 PST 2018 ON: 19.97 +20.0 19.62 - 4.1 33.4 05 14 4730 0921 Alarm State:  0
Mon Jan 15 19:19:35 PST 2018 ON: 20.04 +20.0 19.70 - 5.4 32.5 08 13 480C 0926 Alarm State:  0
Mon Jan 15 19:18:33 PST 2018 ON: 20.03 +20.0 19.60 - 3.3 33.6 00 14 480A 0919 Alarm State:  0
Mon Jan 15 19:17:32 PST 2018 ON: 20.00 +20.0 19.65 - 4.7 33.1 0C 14 471C 0921 Alarm State:  0
Mon Jan 15 19:16:30 PST 2018 ON: 20.01 +20.0 19.59 - 2.8 33.7 00 14 4813 0915 Alarm State:  0
Mon Jan 15 19:15:29 PST 2018 ON: 20.01 +20.0 19.66 - 4.9 32.9 00 14 4715 0900 Alarm State:  0
Mon Jan 15 19:14:27 PST 2018 ON: 20.02 +20.0 19.64 - 4.5 32.9 00 14 471E 091D Alarm State:  0
Mon Jan 15 19:13:26 PST 2018 ON: 19.97 +20.0 19.61 - 4.3 33.1 07 14 4722 0A0A Alarm State:  0
Mon Jan 15 19:12:24 PST 2018 ON: 20.00 +20.0 19.64 - 4.6 32.8 00 14 4812 0925 Alarm State:  0
Mon Jan 15 19:11:23 PST 2018 ON: 19.96 +20.0 19.62 - 4.0 33.2 07 14 482C 092E Alarm State:  0
Mon Jan 15 19:10:21 PST 2018 ON: 20.05 +20.0 19.67 - 4.8 33.0 0D 14 4908 0906 Alarm State:  0
Mon Jan 15 19:09:10 PST 2018 ON: 20.04 +20.0 19.72 - 6.1 32.0 0D 12 4725 0925 Alarm State:  0
Mon Jan 15 19:08:08 PST 2018 ON: 19.96 +20.0 19.60 - 3.6 33.9 00 14 4815 0929 Alarm State:  0
Mon Jan 15 19:07:07 PST 2018 ON: 20.00 +20.0 19.69 - 5.5 32.6 0D 14 4811 091F Alarm State:  0
Mon Jan 15 19:06:05 PST 2018 ON: 19.99 +20.0 19.60 - 3.0 34.0 05 14 4828 0927 Alarm State:  0
Mon Jan 15 19:05:04 PST 2018 ON: 20.00 +20.0 19.66 - 4.8 33.1 02 14 4814 0920 Alarm State:  0
Mon Jan 15 19:04:02 PST 2018 ON: 20.02 +20.0 19.59 - 3.3 33.5 00 14 482F 0923 Alarm State:  0
Mon Jan 15 19:03:01 PST 2018 ON: 19.99 +20.0 19.64 - 4.8 32.9 0C 14 480B 092E Alarm State:  0
Mon Jan 15 19:01:59 PST 2018 ON: 20.01 +20.0 19.60 - 3.5 33.4 00 14 4909 0925 Alarm State:  0
Mon Jan 15 19:00:58 PST 2018 ON: 19.99 +20.0 19.63 - 4.5 33.1 07 14 482A 0920 Alarm State:  0
Mon Jan 15 18:59:56 PST 2018 ON: 20.04 +20.0 19.65 - 4.5 33.0 00 14 490A 091F Alarm State:  0
Mon Jan 15 18:58:55 PST 2018 ON: 20.00 +20.0 19.67 - 4.6 33.1 00 14 4817 092A Alarm State:  0
Mon Jan 15 18:57:53 PST 2018 ON: 20.01 +20.0 19.66 - 5.1 32.4 00 14 4822 0914 Alarm State:  0
Mon Jan 15 18:56:52 PST 2018 ON: 19.97 +20.0 19.64 - 4.2 33.5 00 14 4824 0A01 Alarm State:  0
Mon Jan 15 18:55:50 PST 2018 ON: 20.05 +20.0 19.69 - 5.8 31.9 0A 14 481B 091D Alarm State:  0
Mon Jan 15 18:54:49 PST 2018 ON: 20.00 +20.0 19.61 - 3.7 33.9 0A 14 482F 0928 Alarm State:  0
Mon Jan 15 18:53:47 PST 2018 ON: 20.02 +20.0 19.67 - 4.8 33.4 07 14 4826 0927 Alarm State:  0
Mon Jan 15 18:52:46 PST 2018 ON: 20.01 +20.0 19.68 - 4.8 32.9 0D 14 4808 0909 Alarm State:  0
Mon Jan 15 18:51:44 PST 2018 ON: 20.02 +20.0 19.67 - 5.0 32.8 05 14 480B 091C Alarm State:  0
Mon Jan 15 18:50:43 PST 2018 ON: 19.97 +20.0 19.59 - 3.1 34.0 00 14 4805 0913 Alarm State:  0
Mon Jan 15 18:49:41 PST 2018 ON: 20.02 +20.0 19.68 - 5.2 33.0 00 14 470D 091F Alarm State:  0
Mon Jan 15 18:48:40 PST 2018 ON: 20.00 +20.0 19.59 - 3.3 34.0 01 14 471D 0927 Alarm State:  0
Mon Jan 15 18:47:38 PST 2018 ON: 20.02 +20.0 19.70 - 6.3 32.0 0D 14 462F 0A29 Alarm State:  0
Mon Jan 15 18:46:37 PST 2018 ON: 19.98 +20.0 19.60 - 3.8 33.5 04 14 4730 0A03 Alarm State:  0
Mon Jan 15 18:45:26 PST 2018 ON: 20.02 +20.0 19.69 - 5.7 32.2 08 14 480E 0903 Alarm State:  0
Mon Jan 15 18:44:24 PST 2018 ON: 19.98 +20.0 19.57 - 2.9 33.9 01 14 4816 0909 Alarm State:  0
Mon Jan 15 18:43:23 PST 2018 ON: 20.00 +20.0 19.65 - 4.8 33.1 00 14 4805 0928 Alarm State:  0
Mon Jan 15 18:42:21 PST 2018 ON: 20.00 +20.0 19.58 - 2.8 33.8 00 14 4904 090A Alarm State:  0
Mon Jan 15 18:41:20 PST 2018 ON: 20.02 +20.0 19.63 - 4.6 33.3 05 14 4820 0912 Alarm State:  0
Mon Jan 15 18:40:18 PST 2018 ON: 20.04 +20.0 19.61 - 3.5 33.4 00 14 4905 0920 Alarm State:  0
Mon Jan 15 18:39:17 PST 2018 ON: 20.00 +20.0 19.66 - 4.5 33.2 07 14 4815 0926 Alarm State:  0
Mon Jan 15 18:38:15 PST 2018 ON: 20.03 +20.0 19.70 - 5.6 32.3 08 13 480F 0915 Alarm State:  0
Mon Jan 15 18:37:14 PST 2018 ON: 19.99 +20.0 19.63 - 4.0 33.5 00 14 4826 0912 Alarm State:  0
Mon Jan 15 18:36:12 PST 2018 ON: 20.03 +20.0 19.70 - 5.6 32.3 0D 13 4820 0924 Alarm State:  0
Mon Jan 15 18:35:11 PST 2018 ON: 19.98 +20.0 19.62 - 3.9 33.8 0A 14 4825 091A Alarm State:  0
Mon Jan 15 18:34:09 PST 2018 ON: 20.02 +20.0 19.69 - 4.9 33.2 0D 14 480F 091B Alarm State:  0
Mon Jan 15 18:33:08 PST 2018 ON: 20.02 +20.0 19.66 - 4.4 33.6 05 14 4725 0900 Alarm State:  0
Mon Jan 15 18:32:06 PST 2018 ON: 20.05 +20.0 19.73 - 6.5 31.5 0D 12 4705 0A07 Alarm State:  0
Mon Jan 15 18:31:05 PST 2018 ON: 19.97 +20.0 19.59 - 4.1 33.3 07 14 4716 0A0A Alarm State:  0
Mon Jan 15 18:30:03 PST 2018 ON: 20.04 +20.0 19.68 - 4.8 32.8 05 14 4730 0928 Alarm State:  0
Mon Jan 15 18:29:02 PST 2018 ON: 19.96 +20.0 19.62 - 4.4 33.2 00 14 472D 0A14 Alarm State:  0
Mon Jan 15 18:28:00 PST 2018 ON: 20.02 +20.0 19.59 - 2.4 33.8 00 14 4831 091B Alarm State:  0
Mon Jan 15 18:26:59 PST 2018 ON: 20.00 +20.0 19.66 - 5.4 32.6 05 14 4807 0A28 Alarm State:  0
Mon Jan 15 18:25:57 PST 2018 ON: 19.99 +20.0 19.61 - 3.2 34.1 0A 14 490F 092D Alarm State:  0
Mon Jan 15 18:24:56 PST 2018 ON: 20.03 +20.0 19.69 - 5.3 32.9 0D 14 4830 0922 Alarm State:  0
Mon Jan 15 18:23:54 PST 2018 ON: 19.97 +20.0 19.58 - 2.8 34.1 09 14 4912 0921 Alarm State:  0
Mon Jan 15 18:22:53 PST 2018 ON: 20.02 +20.0 19.67 - 5.0 33.1 05 14 4825 0926 Alarm State:  0
Mon Jan 15 18:21:51 PST 2018 ON: 20.00 +20.0 19.65 - 4.7 33.1 00 14 481A 0903 Alarm State:  0
Mon Jan 15 18:20:50 PST 2018 ON: 19.99 +20.0 19.59 - 3.1 34.0 00 14 4816 0921 Alarm State:  0
Mon Jan 15 18:19:48 PST 2018 ON: 20.01 +20.0 19.69 - 6.0 32.2 0D 14 472A 0A27 Alarm State:  0
Mon Jan 15 18:18:47 PST 2018 ON: 19.97 +20.0 19.60 - 3.6 33.8 07 14 482F 0929 Alarm State:  0
Mon Jan 15 18:17:45 PST 2018 ON: 20.04 +20.0 19.68 - 5.3 32.4 0D 14 490F 0907 Alarm State:  0
Mon Jan 15 18:16:44 PST 2018 ON: 20.00 +20.0 19.63 - 4.3 33.3 07 14 4913 0919 Alarm State:  0
Mon Jan 15 18:15:42 PST 2018 ON: 20.03 +20.0 19.70 - 5.4 32.4 0A 13 491A 0920 Alarm State:  0
Mon Jan 15 18:14:41 PST 2018 ON: 20.01 +20.0 19.62 - 3.5 33.8 0A 14 4906 0923 Alarm State:  0
Mon Jan 15 18:13:39 PST 2018 ON: 19.98 +20.0 19.65 - 4.7 33.1 05 14 4820 0929 Alarm State:  0
Mon Jan 15 18:12:38 PST 2018 ON: 19.97 +20.0 19.56 - 2.6 34.0 00 14 4925 090D Alarm State:  0
Mon Jan 15 18:11:36 PST 2018 ON: 20.01 +20.0 19.66 - 4.8 33.0 02 14 482D 091D Alarm State:  0
Mon Jan 15 18:10:35 PST 2018 ON: 20.02 +20.0 19.61 - 3.2 33.6 00 14 4831 090C Alarm State:  0
Mon Jan 15 18:09:33 PST 2018 ON: 20.02 +20.0 19.66 - 4.8 32.9 07 14 4731 091E Alarm State:  0
Mon Jan 15 18:08:32 PST 2018 ON: 20.06 +20.0 19.63 - 4.1 33.2 00 14 480C 0924 Alarm State:  0
Mon Jan 15 18:07:30 PST 2018 ON: 20.00 +20.0 19.63 - 4.5 33.1 0A 14 4728 0926 Alarm State:  0
Mon Jan 15 18:06:29 PST 2018 ON: 20.05 +20.0 19.65 - 4.3 33.1 00 14 480F 0901 Alarm State:  0
Mon Jan 15 18:05:27 PST 2018 ON: 19.98 +20.0 19.63 - 4.4 33.3 00 14 472F 0931 Alarm State:  0
Mon Jan 15 18:04:26 PST 2018 ON: 20.02 +20.0 19.62 - 3.8 33.4 05 14 481C 0927 Alarm State:  0
Mon Jan 15 18:03:24 PST 2018 ON: 19.99 +20.0 19.66 - 4.4 33.3 00 14 472E 092D Alarm State:  0
Mon Jan 15 18:02:23 PST 2018 ON: 19.98 +20.0 19.58 - 3.2 33.6 00 14 4821 0903 Alarm State:  0
Mon Jan 15 18:01:21 PST 2018 ON: 20.02 +20.0 19.65 - 4.4 33.1 02 14 4814 0928 Alarm State:  0
Mon Jan 15 18:00:20 PST 2018 ON: 20.03 +20.0 19.58 - 2.9 33.7 00 14 4909 0928 Alarm State:  0
Mon Jan 15 17:59:18 PST 2018 ON: 20.01 +20.0 19.66 - 4.8 33.0 07 14 480D 0913 Alarm State:  0
Mon Jan 15 17:58:17 PST 2018 ON: 20.04 +20.0 19.65 - 4.6 32.9 00 14 4811 0902 Alarm State:  0
Mon Jan 15 17:57:15 PST 2018 ON: 19.97 +20.0 19.62 - 4.3 33.4 00 14 4731 0929 Alarm State:  0
Mon Jan 15 17:56:14 PST 2018 ON: 20.00 +20.0 19.59 - 2.8 33.8 00 14 482E 0913 Alarm State:  0
Mon Jan 15 17:55:12 PST 2018 ON: 19.99 +20.0 19.64 - 4.8 33.0 05 14 480F 0A17 Alarm State:  0
Mon Jan 15 17:54:11 PST 2018 ON: 19.98 +20.0 19.55 - 2.2 34.1 00 14 4916 0915 Alarm State:  0
Mon Jan 15 17:53:09 PST 2018 ON: 20.03 +20.0 19.69 - 4.6 33.3 0D 14 4820 0921 Alarm State:  0
Mon Jan 15 17:52:08 PST 2018 ON: 20.06 +20.0 19.68 - 4.8 32.9 08 14 4800 0907 Alarm State:  0
Mon Jan 15 17:51:06 PST 2018 ON: 19.98 +20.0 19.64 - 4.2 33.4 0C 14 472A 092F Alarm State:  0
Mon Jan 15 17:50:05 PST 2018 ON: 20.03 +20.0 19.68 - 4.8 32.7 05 14 4815 0A04 Alarm State:  0
Mon Jan 15 17:49:03 PST 2018 ON: 19.96 +20.0 19.61 - 4.1 33.4 00 14 481E 0A0D Alarm State:  0
Mon Jan 15 17:48:02 PST 2018 ON: 20.02 +20.0 19.67 - 5.0 32.5 05 14 4901 0912 Alarm State:  0
Mon Jan 15 17:47:00 PST 2018 ON: 19.97 +20.0 19.63 - 4.1 33.5 05 14 482E 0923 Alarm State:  0
Mon Jan 15 17:45:59 PST 2018 ON: 20.00 +20.0 19.70 - 5.4 32.5 0A 13 482E 0904 Alarm State:  0
Mon Jan 15 17:44:57 PST 2018 ON: 20.03 +20.0 19.59 - 3.3 33.6 00 14 482D 0921 Alarm State:  0
Mon Jan 15 17:43:56 PST 2018 ON: 20.00 +20.0 19.63 - 4.5 33.0 02 14 480F 0903 Alarm State:  0
Mon Jan 15 17:42:54 PST 2018 ON: 20.05 +20.0 19.67 - 4.6 33.2 02 14 4816 0918 Alarm State:  0
Mon Jan 15 17:41:53 PST 2018 ON: 20.04 +20.0 19.65 - 4.8 33.0 00 14 4711 0A04 Alarm State:  0
Mon Jan 15 17:40:51 PST 2018 ON: 19.98 +20.0 19.62 - 4.5 33.2 07 14 470A 0A19 Alarm State:  0
Mon Jan 15 17:39:50 PST 2018 ON: 20.01 +20.0 19.56 - 2.1 34.1 04 14 4813 0913 Alarm State:  0
Mon Jan 15 17:38:48 PST 2018 ON: 20.00 +20.0 19.68 - 5.1 33.1 05 14 471C 091B Alarm State:  0
Mon Jan 15 17:37:47 PST 2018 ON: 20.00 +20.0 19.59 - 3.1 34.0 09 14 4732 0923 Alarm State:  0
Mon Jan 15 17:36:45 PST 2018 ON: 20.00 +20.0 19.69 - 5.7 32.5 08 14 470D 0A2D Alarm State:  0
Mon Jan 15 17:35:44 PST 2018 ON: 19.96 +20.0 19.60 - 3.3 34.1 0D 14 4812 0A01 Alarm State:  0
Mon Jan 15 17:34:42 PST 2018 ON: 20.02 +20.0 19.73 - 6.1 32.0 0D 12 4803 0921 Alarm State:  0
Mon Jan 15 17:33:41 PST 2018 ON: 19.96 +20.0 19.61 - 4.0 33.5 00 14 4817 0930 Alarm State:  0
Mon Jan 15 17:32:39 PST 2018 ON: 20.02 +20.0 19.69 - 4.9 32.8 08 14 481E 090E Alarm State:  0
Mon Jan 15 17:31:38 PST 2018 ON: 20.01 +20.0 19.61 - 3.8 33.4 00 14 4802 0913 Alarm State:  0
Mon Jan 15 17:30:36 PST 2018 ON: 20.01 +20.0 19.64 - 4.4 33.3 02 14 4712 0917 Alarm State:  0
Mon Jan 15 17:29:35 PST 2018 ON: 20.01 +20.0 19.66 - 4.7 33.0 00 14 4718 0927 Alarm State:  0
Mon Jan 15 17:28:33 PST 2018 ON: 20.00 +20.0 19.63 - 4.3 33.2 0A 14 471B 0A0D Alarm State:  0
Mon Jan 15 17:27:32 PST 2018 ON: 20.03 +20.0 19.63 - 3.6 33.5 00 14 480C 0904 Alarm State:  0
Mon Jan 15 17:26:30 PST 2018 ON: 20.00 +20.0 19.65 - 4.4 33.3 07 14 471E 092D Alarm State:  0
Mon Jan 15 17:25:29 PST 2018 ON: 20.06 +20.0 19.62 - 3.3 33.6 00 14 480F 0926 Alarm State:  0
Mon Jan 15 17:24:27 PST 2018 ON: 20.00 +20.0 19.66 - 4.8 33.1 0C 14 471A 0A03 Alarm State:  0
Mon Jan 15 17:23:26 PST 2018 ON: 19.99 +20.0 19.56 - 2.6 34.1 00 14 4821 090F Alarm State:  0
Mon Jan 15 17:22:24 PST 2018 ON: 19.98 +20.0 19.66 - 4.7 33.1 00 14 4802 091B Alarm State:  0
Mon Jan 15 17:21:23 PST 2018 ON: 20.01 +20.0 19.57 - 2.6 33.9 01 14 481A 0927 Alarm State:  0
Mon Jan 15 17:20:21 PST 2018 ON: 19.98 +20.0 19.66 - 4.9 33.1 05 14 471B 0A10 Alarm State:  0
Mon Jan 15 17:19:20 PST 2018 ON: 20.00 +20.0 19.61 - 3.4 33.6 02 14 481C 0A06 Alarm State:  0
Mon Jan 15 17:18:18 PST 2018 ON: 19.96 +20.0 19.62 - 4.2 33.2 00 14 4827 0A21 Alarm State:  0
Mon Jan 15 17:17:17 PST 2018 ON: 20.01 +20.0 19.59 - 2.8 33.8 00 14 4926 0902 Alarm State:  0
Mon Jan 15 17:16:15 PST 2018 ON: 20.00 +20.0 19.65 - 4.4 33.5 00 14 4820 0916 Alarm State:  0
Mon Jan 15 17:15:14 PST 2018 ON: 20.04 +20.0 19.68 - 5.0 32.8 00 14 472C 0925 Alarm State:  0
Mon Jan 15 17:14:12 PST 2018 ON: 20.00 +20.0 19.65 - 4.4 33.5 05 14 4717 0A1F Alarm State:  0
Mon Jan 15 17:13:11 PST 2018 ON: 20.00 +20.0 19.58 - 3.1 33.7 00 14 480E 0A0F Alarm State:  0
Mon Jan 15 17:12:09 PST 2018 ON: 19.99 +20.0 19.64 - 4.6 33.1 05 14 4803 0A2F Alarm State:  0
Mon Jan 15 17:11:08 PST 2018 ON: 19.99 +20.0 19.57 - 2.4 34.1 00 14 490E 0927 Alarm State:  0
Mon Jan 15 17:10:06 PST 2018 ON: 20.01 +20.0 19.65 - 4.2 33.1 07 14 490F 0915 Alarm State:  0
Mon Jan 15 17:09:05 PST 2018 ON: 20.04 +20.0 19.67 - 4.2 33.4 08 14 4915 091D Alarm State:  0
Mon Jan 15 17:08:03 PST 2018 ON: 20.03 +20.0 19.67 - 4.5 33.5 07 14 481B 0908 Alarm State:  0
Mon Jan 15 17:07:02 PST 2018 ON: 20.03 +20.0 19.68 - 5.2 32.6 02 14 4724 0919 Alarm State:  0
Mon Jan 15 17:06:00 PST 2018 ON: 20.00 +20.0 19.62 - 4.1 33.4 07 14 4723 0A01 Alarm State:  0
Mon Jan 15 17:04:59 PST 2018 ON: 20.02 +20.0 19.64 - 3.7 33.5 00 14 4804 090C Alarm State:  0
Mon Jan 15 17:03:57 PST 2018 ON: 19.99 +20.0 19.64 - 4.4 33.1 00 14 471F 0A0A Alarm State:  0
Mon Jan 15 17:02:56 PST 2018 ON: 20.01 +20.0 19.62 - 3.4 33.6 00 14 481A 091A Alarm State:  0
Mon Jan 15 17:01:54 PST 2018 ON: 19.98 +20.0 19.63 - 4.1 33.5 00 14 480F 0910 Alarm State:  0
Mon Jan 15 17:00:53 PST 2018 ON: 20.02 +20.0 19.70 - 5.0 32.7 03 13 4819 091C Alarm State:  0
Mon Jan 15 16:59:51 PST 2018 ON: 20.00 +20.0 19.63 - 3.7 33.9 00 14 4810 0912 Alarm State:  0
Mon Jan 15 16:58:50 PST 2018 ON: 20.01 +20.0 19.71 - 5.5 32.4 05 13 472B 090B Alarm State:  0
Mon Jan 15 16:57:48 PST 2018 ON: 19.98 +20.0 19.63 - 3.8 33.9 00 14 472E 0926 Alarm State:  0
Mon Jan 15 16:56:47 PST 2018 ON: 20.00 +20.0 19.70 - 5.7 31.9 0D 14 472E 0A0B Alarm State:  0
Mon Jan 15 16:55:45 PST 2018 ON: 19.96 +20.0 19.58 - 3.5 33.8 00 14 4824 0924 Alarm State:  0
Mon Jan 15 16:54:44 PST 2018 ON: 20.02 +20.0 19.66 - 4.1 33.3 00 14 4913 0916 Alarm State:  0
Mon Jan 15 16:53:42 PST 2018 ON: 19.98 +20.0 19.62 - 3.6 34.1 02 14 4825 091E Alarm State:  0
Mon Jan 15 16:52:41 PST 2018 ON: 20.01 +20.0 19.66 - 4.7 33.1 0C 14 480B 0923 Alarm State:  0
Mon Jan 15 16:51:39 PST 2018 ON: 20.00 +20.0 19.59 - 2.9 33.8 00 14 4818 0A03 Alarm State:  0
Mon Jan 15 16:50:38 PST 2018 ON: 19.98 +20.0 19.64 - 5.0 32.8 05 14 4727 0A2D Alarm State:  0
Mon Jan 15 16:49:36 PST 2018 ON: 19.96 +20.0 19.57 - 2.6 34.2 01 14 482F 0930 Alarm State:  0
Mon Jan 15 16:48:35 PST 2018 ON: 20.01 +20.0 19.69 - 5.1 32.8 0D 14 481D 0921 Alarm State:  0
Mon Jan 15 16:47:33 PST 2018 ON: 19.96 +20.0 19.59 - 2.7 34.2 07 14 4913 0912 Alarm State:  0
Mon Jan 15 16:46:32 PST 2018 ON: 20.01 +20.0 19.66 - 4.0 33.9 05 14 4828 0919 Alarm State:  0
Mon Jan 15 16:45:30 PST 2018 ON: 19.98 +20.0 19.67 - 4.6 33.0 00 14 4732 092B Alarm State:  0
Mon Jan 15 16:44:29 PST 2018 ON: 20.00 +20.0 19.59 - 2.7 33.9 01 14 4829 091D Alarm State:  0
Mon Jan 15 16:43:27 PST 2018 ON: 19.99 +20.0 19.62 - 3.6 34.0 00 14 4806 0904 Alarm State:  0
Mon Jan 15 16:42:26 PST 2018 ON: 20.01 +20.0 19.71 - 5.5 32.6 05 13 4719 090F Alarm State:  0
Mon Jan 15 16:41:24 PST 2018 ON: 19.97 +20.0 19.58 - 2.5 34.2 01 14 480F 0908 Alarm State:  0
Mon Jan 15 16:40:23 PST 2018 ON: 20.00 +20.0 19.68 - 4.6 33.0 00 14 4724 090F Alarm State:  0
Mon Jan 15 16:39:21 PST 2018 ON: 20.02 +20.0 19.65 - 4.5 33.0 00 14 4721 0928 Alarm State:  0
Mon Jan 15 16:38:20 PST 2018 ON: 19.95 +20.0 19.60 - 3.8 33.6 00 14 4721 0A07 Alarm State:  0
Mon Jan 15 16:37:18 PST 2018 ON: 20.02 +20.0 19.59 - 2.5 33.8 00 14 481B 0916 Alarm State:  0
Mon Jan 15 16:36:17 PST 2018 ON: 19.97 +20.0 19.65 - 4.5 33.3 0A 14 472A 0A17 Alarm State:  0
Mon Jan 15 16:35:15 PST 2018 ON: 19.97 +20.0 19.58 - 2.4 34.2 00 14 482A 0926 Alarm State:  0
Mon Jan 15 16:34:14 PST 2018 ON: 20.00 +20.0 19.66 - 4.4 33.3 0C 14 4816 0923 Alarm State:  0
Mon Jan 15 16:33:12 PST 2018 ON: 20.01 +20.0 19.60 - 3.1 33.8 00 14 4823 0901 Alarm State:  0
Mon Jan 15 16:32:11 PST 2018 ON: 20.01 +20.0 19.64 - 4.1 33.5 05 14 4808 0930 Alarm State:  0
Mon Jan 15 16:31:09 PST 2018 ON: 20.01 +20.0 19.69 - 5.3 32.4 08 14 4804 091B Alarm State:  0
Mon Jan 15 16:30:08 PST 2018 ON: 19.99 +20.0 19.62 - 3.3 34.1 05 14 4811 0929 Alarm State:  0
Mon Jan 15 16:29:06 PST 2018 ON: 20.02 +20.0 19.70 - 4.7 33.3 0A 13 4809 0918 Alarm State:  0
Mon Jan 15 16:28:05 PST 2018 ON: 20.02 +20.0 19.61 - 3.1 34.1 05 14 4723 0922 Alarm State:  0
Mon Jan 15 16:27:03 PST 2018 ON: 20.01 +20.0 19.74 - 6.1 32.1 0D 12 4624 0B0A Alarm State:  0
Mon Jan 15 16:26:02 PST 2018 ON: 19.94 +20.0 19.57 - 3.4 33.8 01 14 471C 0A19 Alarm State:  0
Mon Jan 15 16:25:01 PST 2018 ON: 20.01 +20.0 19.59 - 3.0 33.7 00 14 4817 0923 Alarm State:  0
Mon Jan 15 16:23:59 PST 2018 ON: 19.99 +20.0 19.66 - 4.6 33.1 05 14 472B 0B00 Alarm State:  0
Mon Jan 15 16:22:58 PST 2018 ON: 19.96 +20.0 19.57 - 2.5 34.3 00 14 4903 0926 Alarm State:  0
Mon Jan 15 16:21:56 PST 2018 ON: 20.02 +20.0 19.70 - 4.8 33.1 08 13 4829 091C Alarm State:  0
Mon Jan 15 16:20:55 PST 2018 ON: 19.99 +20.0 19.59 - 3.0 33.9 00 14 4831 090B Alarm State:  0
Mon Jan 15 16:19:53 PST 2018 ON: 20.00 +20.0 19.64 - 4.3 33.2 00 14 4816 0A09 Alarm State:  0
Mon Jan 15 16:18:52 PST 2018 ON: 20.00 +20.0 19.57 - 2.5 34.0 00 14 4913 0921 Alarm State:  0
Mon Jan 15 16:17:50 PST 2018 ON: 20.01 +20.0 19.64 - 3.9 33.6 02 14 482F 0925 Alarm State:  0
Mon Jan 15 16:16:49 PST 2018 ON: 20.02 +20.0 19.64 - 4.3 33.1 00 14 482D 0910 Alarm State:  0
Mon Jan 15 16:15:47 PST 2018 ON: 20.00 +20.0 19.63 - 3.8 33.7 00 14 481A 090E Alarm State:  0
Mon Jan 15 16:14:46 PST 2018 ON: 20.02 +20.0 19.64 - 3.9 33.4 00 14 4824 0920 Alarm State:  0
Mon Jan 15 16:13:44 PST 2018 ON: 20.00 +20.0 19.65 - 4.0 33.5 02 14 4805 0924 Alarm State:  0
Mon Jan 15 16:12:43 PST 2018 ON: 20.02 +20.0 19.67 - 4.4 33.1 00 14 4809 090F Alarm State:  0
Mon Jan 15 16:11:41 PST 2018 ON: 19.99 +20.0 19.62 - 3.6 34.0 00 14 4723 0915 Alarm State:  0
Mon Jan 15 16:10:40 PST 2018 ON: 20.02 +20.0 19.70 - 5.6 32.1 0A 13 4707 0916 Alarm State:  0
Mon Jan 15 16:09:38 PST 2018 ON: 19.99 +20.0 19.63 - 3.9 33.5 02 14 470E 092A Alarm State:  0
Mon Jan 15 16:08:37 PST 2018 ON: 20.02 +20.0 19.66 - 4.3 33.1 00 14 4730 0920 Alarm State:  0
Mon Jan 15 16:07:35 PST 2018 ON: 19.97 +20.0 19.62 - 3.8 33.6 07 14 472F 0A06 Alarm State:  0
Mon Jan 15 16:06:34 PST 2018 ON: 19.99 +20.0 19.61 - 2.9 33.8 00 14 4826 091C Alarm State:  0
Mon Jan 15 16:05:32 PST 2018 ON: 20.00 +20.0 19.63 - 4.0 33.7 00 14 4805 0922 Alarm State:  0
Mon Jan 15 16:04:31 PST 2018 ON: 20.01 +20.0 19.71 - 5.5 32.2 08 13 4726 091B Alarm State:  0
Mon Jan 15 16:03:29 PST 2018 ON: 19.96 +20.0 19.60 - 3.4 34.1 05 14 4808 091A Alarm State:  0
Mon Jan 15 16:02:28 PST 2018 ON: 20.01 +20.0 19.72 - 5.4 32.5 0D 12 4814 0922 Alarm State:  0
Mon Jan 15 16:01:26 PST 2018 ON: 19.97 +20.0 19.60 - 3.1 34.2 00 14 4904 090D Alarm State:  0
Mon Jan 15 16:00:25 PST 2018 ON: 20.02 +20.0 19.71 - 5.1 32.9 0D 13 482D 0927 Alarm State:  0
Mon Jan 15 15:59:23 PST 2018 ON: 20.01 +20.0 19.61 - 3.3 33.8 00 14 4822 0904 Alarm State:  0
Mon Jan 15 15:58:22 PST 2018 ON: 19.97 +20.0 19.63 - 4.0 33.4 00 14 480C 0928 Alarm State:  0
Mon Jan 15 15:57:20 PST 2018 ON: 20.03 +20.0 19.64 - 3.8 33.5 00 14 4823 091B Alarm State:  0
Mon Jan 15 15:56:19 PST 2018 ON: 19.98 +20.0 19.63 - 3.9 33.6 00 14 4809 091A Alarm State:  0
Mon Jan 15 15:55:17 PST 2018 ON: 20.03 +20.0 19.69 - 4.9 32.8 03 14 4818 0925 Alarm State:  0
Mon Jan 15 15:54:16 PST 2018 ON: 19.98 +20.0 19.62 - 3.1 34.1 00 14 480E 0926 Alarm State:  0
Mon Jan 15 15:53:14 PST 2018 ON: 19.98 +20.0 19.66 - 4.7 33.2 05 14 472C 0A03 Alarm State:  0
Mon Jan 15 15:52:13 PST 2018 ON: 19.97 +20.0 19.57 - 2.5 34.2 00 14 482F 0911 Alarm State:  0
Mon Jan 15 15:51:11 PST 2018 ON: 19.98 +20.0 19.64 - 4.2 33.3 07 14 481E 0919 Alarm State:  0
Mon Jan 15 15:50:10 PST 2018 ON: 20.02 +20.0 19.67 - 4.5 32.9 00 14 4820 0908 Alarm State:  0
Mon Jan 15 15:49:08 PST 2018 ON: 19.98 +20.0 19.63 - 3.7 33.9 02 14 4819 0925 Alarm State:  0
Mon Jan 15 15:48:07 PST 2018 ON: 20.03 +20.0 19.72 - 5.5 32.3 08 13 4811 0A14 Alarm State:  0
Mon Jan 15 15:47:05 PST 2018 ON: 19.97 +20.0 19.60 - 3.4 33.9 0A 14 482E 0A0D Alarm State:  0
Mon Jan 15 15:46:04 PST 2018 ON: 20.04 +20.0 19.70 - 5.0 32.6 0A 13 4903 091A Alarm State:  0
Mon Jan 15 15:45:02 PST 2018 ON: 19.99 +20.0 19.60 - 3.2 34.2 02 14 4829 0914 Alarm State:  0
Mon Jan 15 15:44:01 PST 2018 ON: 19.99 +20.0 19.68 - 4.8 33.0 0D 14 480C 0916 Alarm State:  0
Mon Jan 15 15:42:59 PST 2018 ON: 20.03 +20.0 19.62 - 3.2 33.8 00 14 4820 0924 Alarm State:  0
Mon Jan 15 15:41:58 PST 2018 ON: 19.97 +20.0 19.63 - 3.9 33.8 05 14 4805 0928 Alarm State:  0
Mon Jan 15 15:40:56 PST 2018 ON: 20.04 +20.0 19.70 - 5.3 32.5 08 13 4803 0917 Alarm State:  0
Mon Jan 15 15:39:55 PST 2018 ON: 19.98 +20.0 19.63 - 3.7 33.8 02 14 4809 092B Alarm State:  0
Mon Jan 15 15:38:53 PST 2018 ON: 20.03 +20.0 19.69 - 4.8 32.8 0D 14 480B 0910 Alarm State:  0
Mon Jan 15 15:37:52 PST 2018 ON: 19.97 +20.0 19.62 - 3.7 34.0 00 14 480E 0925 Alarm State:  0
Mon Jan 15 15:36:50 PST 2018 ON: 20.00 +20.0 19.70 - 5.1 33.0 0A 13 4802 091A Alarm State:  0
Mon Jan 15 15:35:49 PST 2018 ON: 19.98 +20.0 19.61 - 3.0 34.4 00 14 481B 0923 Alarm State:  0
Mon Jan 15 15:34:47 PST 2018 ON: 20.00 +20.0 19.71 - 5.6 32.6 0D 13 4801 0926 Alarm State:  0
Mon Jan 15 15:33:46 PST 2018 ON: 19.99 +20.0 19.60 - 3.3 34.1 00 14 482C 0913 Alarm State:  0
Mon Jan 15 15:32:44 PST 2018 ON: 20.04 +20.0 19.70 - 5.2 32.6 03 13 4824 0921 Alarm State:  0
Mon Jan 15 15:31:43 PST 2018 ON: 19.99 +20.0 19.63 - 3.5 34.1 0C 14 4904 092F Alarm State:  0
Mon Jan 15 15:30:42 PST 2018 ON: 20.05 +20.0 19.68 - 4.5 33.4 0A 14 4908 0916 Alarm State:  0
Mon Jan 15 15:29:40 PST 2018 ON: 20.01 +20.0 19.62 - 3.0 34.0 02 14 482A 091A Alarm State:  0
Mon Jan 15 15:28:39 PST 2018 ON: 20.01 +20.0 19.64 - 4.2 33.6 07 14 4802 0925 Alarm State:  0
Mon Jan 15 15:27:37 PST 2018 ON: 20.02 +20.0 19.68 - 5.0 32.6 05 14 4801 090B Alarm State:  0
Mon Jan 15 15:26:36 PST 2018 ON: 19.98 +20.0 19.63 - 3.5 33.9 02 14 480D 0913 Alarm State:  0
Mon Jan 15 15:25:34 PST 2018 ON: 20.01 +20.0 19.64 - 3.7 33.6 00 14 482A 0910 Alarm State:  0
Mon Jan 15 15:24:33 PST 2018 ON: 19.99 +20.0 19.63 - 3.8 34.0 05 14 480E 090F Alarm State:  0
Mon Jan 15 15:23:31 PST 2018 ON: 20.00 +20.0 19.69 - 4.9 33.1 0A 14 4807 0928 Alarm State:  0
Mon Jan 15 15:22:30 PST 2018 ON: 19.97 +20.0 19.60 - 2.8 34.5 0A 14 4829 0905 Alarm State:  0
Mon Jan 15 15:21:28 PST 2018 ON: 20.03 +20.0 19.68 - 4.3 33.7 0A 14 4814 0901 Alarm State:  0
Mon Jan 15 15:20:27 PST 2018 ON: 20.04 +20.0 19.66 - 4.7 33.1 00 14 471F 0914 Alarm State:  0
Mon Jan 15 15:19:25 PST 2018 ON: 19.98 +20.0 19.62 - 3.8 33.8 00 14 4724 0926 Alarm State:  0
Mon Jan 15 15:18:24 PST 2018 ON: 20.02 +20.0 19.65 - 4.0 33.4 00 14 481D 0910 Alarm State:  0
Mon Jan 15 15:17:22 PST 2018 ON: 19.97 +20.0 19.62 - 3.6 34.0 05 14 4824 091F Alarm State:  0
Mon Jan 15 15:16:21 PST 2018 ON: 20.00 +20.0 19.68 - 4.0 33.8 0A 14 490F 0915 Alarm State:  0
Mon Jan 15 15:15:19 PST 2018 ON: 20.02 +20.0 19.68 - 4.7 33.3 05 14 481F 0900 Alarm State:  0
Mon Jan 15 15:14:18 PST 2018 ON: 19.98 +20.0 19.60 - 2.9 34.5 02 14 481F 091A Alarm State:  0
Mon Jan 15 15:13:16 PST 2018 ON: 20.02 +20.0 19.68 - 5.3 32.8 00 14 4727 0922 Alarm State:  0
Mon Jan 15 15:12:15 PST 2018 ON: 19.97 +20.0 19.59 - 2.9 34.5 00 14 481A 0927 Alarm State:  0
Mon Jan 15 15:11:13 PST 2018 ON: 20.03 +20.0 19.68 - 4.2 33.8 0D 14 4807 0900 Alarm State:  0
Mon Jan 15 15:10:12 PST 2018 ON: 20.04 +20.0 19.67 - 4.9 32.8 00 14 471A 0911 Alarm State:  0
Mon Jan 15 15:09:10 PST 2018 ON: 20.00 +20.0 19.64 - 3.8 33.9 07 14 4719 092F Alarm State:  0
Mon Jan 15 15:08:09 PST 2018 ON: 20.04 +20.0 19.69 - 5.1 32.7 08 14 471B 091E Alarm State:  0
Mon Jan 15 15:07:07 PST 2018 ON: 19.98 +20.0 19.61 - 3.2 34.3 05 14 4807 091D Alarm State:  0
Mon Jan 15 15:06:06 PST 2018 ON: 20.01 +20.0 19.71 - 5.4 32.8 0A 13 472C 090F Alarm State:  0
Mon Jan 15 15:05:04 PST 2018 ON: 19.98 +20.0 19.58 - 2.5 34.5 0C 14 480B 091F Alarm State:  0
Mon Jan 15 15:04:03 PST 2018 ON: 20.00 +20.0 19.67 - 4.5 33.3 02 14 4719 0925 Alarm State:  0
Mon Jan 15 15:03:01 PST 2018 ON: 20.01 +20.0 19.60 - 2.8 34.0 00 14 4729 090C Alarm State:  0
Mon Jan 15 15:02:00 PST 2018 ON: 20.00 +20.0 19.64 - 4.3 33.4 07 14 470E 0A0C Alarm State:  0
Mon Jan 15 15:00:58 PST 2018 ON: 20.00 +20.0 19.56 - 2.1 34.4 00 14 4813 091A Alarm State:  0
Mon Jan 15 14:59:57 PST 2018 ON: 20.01 +20.0 19.68 - 4.8 33.3 05 14 4720 0A28 Alarm State:  0
Mon Jan 15 14:58:55 PST 2018 ON: 19.97 +20.0 19.58 - 2.6 34.6 04 14 4825 0A00 Alarm State:  0
Mon Jan 15 14:57:54 PST 2018 ON: 20.03 +20.0 19.70 - 5.2 33.0 0D 13 4810 0926 Alarm State:  0
Mon Jan 15 14:56:52 PST 2018 ON: 20.01 +20.0 19.61 - 2.8 34.4 0D 14 4826 0907 Alarm State:  0
Mon Jan 15 14:55:51 PST 2018 ON: 20.00 +20.0 19.67 - 4.5 33.4 05 14 4811 0A0B Alarm State:  0
Mon Jan 15 14:54:49 PST 2018 ON: 20.01 +20.0 19.59 - 2.4 34.3 05 14 490E 0925 Alarm State:  0
Mon Jan 15 14:53:48 PST 2018 ON: 20.00 +20.0 19.65 - 4.3 33.2 02 14 4822 092F Alarm State:  0
Mon Jan 15 14:52:46 PST 2018 ON: 20.03 +20.0 19.63 - 3.2 33.8 00 14 491D 091D Alarm State:  0
Mon Jan 15 14:51:45 PST 2018 ON: 19.98 +20.0 19.63 - 3.4 34.3 05 14 490A 091D Alarm State:  0
Mon Jan 15 14:50:43 PST 2018 ON: 20.03 +20.0 19.71 - 5.0 33.1 0D 13 4817 0901 Alarm State:  0
Mon Jan 15 14:49:42 PST 2018 ON: 19.99 +20.0 19.59 - 2.7 34.2 04 14 4826 0916 Alarm State:  0
Mon Jan 15 14:48:40 PST 2018 ON: 19.99 +20.0 19.64 - 4.2 33.4 0C 14 4800 0923 Alarm State:  0
Mon Jan 15 14:47:39 PST 2018 ON: 20.02 +20.0 19.64 - 3.8 33.6 00 14 4813 0905 Alarm State:  0
Mon Jan 15 14:46:38 PST 2018 ON: 20.00 +20.0 19.65 - 4.0 33.7 0C 14 472A 0A04 Alarm State:  0
Mon Jan 15 14:45:36 PST 2018 ON: 20.01 +20.0 19.57 - 2.4 34.1 01 14 4822 0927 Alarm State:  0
Mon Jan 15 14:44:35 PST 2018 ON: 19.99 +20.0 19.65 - 4.6 33.4 05 14 4806 0A2A Alarm State:  0
Mon Jan 15 14:43:33 PST 2018 ON: 19.97 +20.0 19.58 - 2.3 34.5 04 14 4910 0927 Alarm State:  0
Mon Jan 15 14:42:32 PST 2018 ON: 20.01 +20.0 19.70 - 5.3 32.8 0D 13 4829 0926 Alarm State:  0
Mon Jan 15 14:41:30 PST 2018 ON: 19.98 +20.0 19.60 - 2.8 34.5 05 14 4917 0917 Alarm State:  0
Mon Jan 15 14:40:29 PST 2018 ON: 20.01 +20.0 19.68 - 4.8 33.3 0D 14 482B 0914 Alarm State:  0
Mon Jan 15 14:39:27 PST 2018 ON: 20.00 +20.0 19.61 - 2.8 34.3 00 14 4828 090A Alarm State:  0
Mon Jan 15 14:38:26 PST 2018 ON: 20.01 +20.0 19.67 - 4.9 33.2 05 14 4729 091D Alarm State:  0
Mon Jan 15 14:37:24 PST 2018 ON: 19.97 +20.0 19.57 - 2.2 34.5 01 14 4815 0910 Alarm State:  0
Mon Jan 15 14:36:23 PST 2018 ON: 20.01 +20.0 19.71 - 5.3 32.9 0D 13 471B 0915 Alarm State:  0
Mon Jan 15 14:35:21 PST 2018 ON: 19.96 +20.0 19.63 - 3.7 33.7 02 14 4807 0910 Alarm State:  0
Mon Jan 15 14:34:20 PST 2018 ON: 20.02 +20.0 19.68 - 4.6 33.2 0A 14 4817 0916 Alarm State:  0
Mon Jan 15 14:33:18 PST 2018 ON: 19.98 +20.0 19.61 - 3.1 34.3 05 14 4804 0A10 Alarm State:  0
Mon Jan 15 14:32:17 PST 2018 ON: 19.96 +20.0 19.66 - 5.1 32.8 00 14 471F 0B13 Alarm State:  0
Mon Jan 15 14:31:15 PST 2018 ON: 19.97 +20.0 19.56 - 2.9 34.4 04 14 4829 0A0A Alarm State:  0
Mon Jan 15 14:30:14 PST 2018 ON: 20.02 +20.0 19.71 - 5.4 32.7 0A 13 4827 091F Alarm State:  0
Mon Jan 15 14:29:12 PST 2018 ON: 20.00 +20.0 19.58 - 2.6 34.4 09 14 4905 0918 Alarm State:  0
Mon Jan 15 14:28:11 PST 2018 ON: 20.00 +20.0 19.66 - 4.5 33.4 00 14 481E 0915 Alarm State:  0
Mon Jan 15 14:27:09 PST 2018 ON: 20.04 +20.0 19.61 - 3.4 33.7 00 14 4829 0922 Alarm State:  0
Mon Jan 15 14:26:08 PST 2018 ON: 19.97 +20.0 19.60 - 4.1 33.5 05 14 4820 0A12 Alarm State:  0
Mon Jan 15 14:25:06 PST 2018 ON: 20.02 +20.0 19.59 - 2.6 34.0 05 14 4921 0918 Alarm State:  0
Mon Jan 15 14:24:05 PST 2018 ON: 19.98 +20.0 19.64 - 4.2 33.3 0A 14 4906 091C Alarm State:  0
Mon Jan 15 14:23:03 PST 2018 ON: 20.04 +20.0 19.65 - 3.7 33.6 00 14 4914 0922 Alarm State:  0
Mon Jan 15 14:22:02 PST 2018 ON: 19.99 +20.0 19.63 - 3.8 34.1 02 14 4824 0907 Alarm State:  0
Mon Jan 15 14:21:00 PST 2018 ON: 20.03 +20.0 19.72 - 5.5 32.7 0D 12 4731 090E Alarm State:  0
Mon Jan 15 14:19:59 PST 2018 ON: 19.98 +20.0 19.62 - 3.3 34.2 00 14 4813 090F Alarm State:  0
Mon Jan 15 14:18:57 PST 2018 ON: 20.03 +20.0 19.70 - 5.4 32.7 0A 13 4807 0902 Alarm State:  0
Mon Jan 15 14:17:56 PST 2018 ON: 19.98 +20.0 19.63 - 3.2 34.3 05 14 4806 091B Alarm State:  0
Mon Jan 15 14:16:54 PST 2018 ON: 20.03 +20.0 19.71 - 5.3 33.0 0D 13 4715 0924 Alarm State:  0
Mon Jan 15 14:15:53 PST 2018 ON: 19.97 +20.0 19.59 - 3.0 34.1 00 14 471A 0A0C Alarm State:  0
Mon Jan 15 14:14:51 PST 2018 ON: 19.95 +20.0 19.66 - 4.9 33.0 02 14 471E 0A2B Alarm State:  0
Mon Jan 15 14:13:50 PST 2018 ON: 19.97 +20.0 19.57 - 2.1 34.6 04 14 482D 0920 Alarm State:  0
Mon Jan 15 14:12:48 PST 2018 ON: 20.02 +20.0 19.68 - 4.6 33.2 0D 14 482B 090D Alarm State:  0
Mon Jan 15 14:11:47 PST 2018 ON: 20.03 +20.0 19.61 - 3.2 33.8 00 14 4907 0922 Alarm State:  0
Mon Jan 15 14:10:45 PST 2018 ON: 19.98 +20.0 19.63 - 3.9 33.8 05 14 4826 0919 Alarm State:  0
Mon Jan 15 14:09:44 PST 2018 ON: 20.05 +20.0 19.65 - 3.8 33.5 00 14 490A 0928 Alarm State:  0
Mon Jan 15 14:08:42 PST 2018 ON: 20.00 +20.0 19.63 - 3.7 34.0 02 14 482C 091D Alarm State:  0
Mon Jan 15 14:07:41 PST 2018 ON: 20.03 +20.0 19.69 - 4.9 32.9 0D 14 4823 0911 Alarm State:  0
Mon Jan 15 14:06:39 PST 2018 ON: 20.01 +20.0 19.60 - 3.1 34.3 02 14 4831 091B Alarm State:  0
Mon Jan 15 14:05:38 PST 2018 ON: 20.00 +20.0 19.67 - 4.8 33.1 07 14 481A 091D Alarm State:  0
Mon Jan 15 14:04:36 PST 2018 ON: 20.01 +20.0 19.57 - 2.3 34.4 01 14 491D 0901 Alarm State:  0
Mon Jan 15 14:03:35 PST 2018 ON: 20.01 +20.0 19.65 - 3.9 34.0 05 14 4906 0901 Alarm State:  0
Mon Jan 15 14:02:33 PST 2018 ON: 20.05 +20.0 19.70 - 4.9 33.2 0D 13 4817 0908 Alarm State:  0
Mon Jan 15 14:01:32 PST 2018 ON: 20.02 +20.0 19.64 - 4.1 33.4 00 14 4800 0910 Alarm State:  0
Mon Jan 15 14:00:30 PST 2018 ON: 19.99 +20.0 19.62 - 3.9 33.7 05 14 4725 092A Alarm State:  0
Mon Jan 15 13:59:29 PST 2018 ON: 20.02 +20.0 19.61 - 3.2 33.8 00 14 4815 0921 Alarm State:  0
Mon Jan 15 13:58:28 PST 2018 ON: 19.99 +20.0 19.63 - 4.4 33.2 00 14 472C 092C Alarm State:  0
Mon Jan 15 13:57:26 PST 2018 ON: 20.02 +20.0 19.65 - 4.2 33.4 00 14 481A 091D Alarm State:  0
Mon Jan 15 13:56:25 PST 2018 ON: 19.96 +20.0 19.62 - 4.0 33.6 00 14 481A 0A00 Alarm State:  0
Mon Jan 15 13:55:23 PST 2018 ON: 20.01 +20.0 19.57 - 2.5 34.0 00 14 4916 090F Alarm State:  0
Mon Jan 15 13:54:22 PST 2018 ON: 19.98 +20.0 19.63 - 4.1 33.7 00 14 482B 0916 Alarm State:  0
Mon Jan 15 13:53:20 PST 2018 ON: 20.04 +20.0 19.65 - 3.9 33.6 00 14 4907 091B Alarm State:  0
Mon Jan 15 13:52:19 PST 2018 ON: 20.00 +20.0 19.62 - 3.6 34.2 00 14 4820 0916 Alarm State:  0
Mon Jan 15 13:51:17 PST 2018 ON: 20.01 +20.0 19.66 - 4.4 33.4 05 14 4817 0916 Alarm State:  0
Mon Jan 15 13:50:15 PST 2018 ON: 20.06 +20.0 19.71 - 5.2 32.7 0D 13 480D 0909 Alarm State:  0
Mon Jan 15 13:49:14 PST 2018 ON: 19.98 +20.0 19.63 - 3.8 33.8 00 14 4816 0922 Alarm State:  0
Mon Jan 15 13:48:12 PST 2018 ON: 20.04 +20.0 19.71 - 5.5 32.3 0A 13 480C 0917 Alarm State:  0
Mon Jan 15 13:47:11 PST 2018 ON: 19.97 +20.0 19.63 - 3.8 33.8 07 14 4809 0A01 Alarm State:  0
Mon Jan 15 13:46:09 PST 2018 ON: 20.02 +20.0 19.71 - 5.3 32.6 0A 13 4803 091C Alarm State:  0
Mon Jan 15 13:45:08 PST 2018 ON: 19.99 +20.0 19.65 - 3.9 33.8 00 14 471D 091E Alarm State:  0
Mon Jan 15 13:44:06 PST 2018 ON: 20.00 +20.0 19.69 - 5.7 32.4 08 14 470F 0911 Alarm State:  0
Mon Jan 15 13:43:05 PST 2018 ON: 20.00 +20.0 19.64 - 4.1 33.5 0D 14 471E 0924 Alarm State:  0
Mon Jan 15 13:42:03 PST 2018 ON: 20.05 +20.0 19.61 - 3.2 33.7 00 14 481B 0904 Alarm State:  0
Mon Jan 15 13:41:02 PST 2018 ON: 19.99 +20.0 19.63 - 4.4 33.2 0A 14 472B 0A0A Alarm State:  0
Mon Jan 15 13:40:00 PST 2018 ON: 20.01 +20.0 19.60 - 3.0 33.8 00 14 482C 0924 Alarm State:  0
Mon Jan 15 13:38:59 PST 2018 ON: 19.98 +20.0 19.63 - 3.7 34.0 00 14 481B 0928 Alarm State:  0
Mon Jan 15 13:37:57 PST 2018 ON: 20.02 +20.0 19.68 - 5.1 32.5 03 14 4813 0915 Alarm State:  0
Mon Jan 15 13:36:56 PST 2018 ON: 20.00 +20.0 19.60 - 3.3 34.2 07 14 481E 0928 Alarm State:  0
Mon Jan 15 13:35:54 PST 2018 ON: 20.03 +20.0 19.69 - 4.8 33.2 0D 14 4812 0927 Alarm State:  0
Mon Jan 15 13:34:53 PST 2018 ON: 20.02 +20.0 19.62 - 3.4 33.8 02 14 481B 090D Alarm State:  0
Mon Jan 15 13:33:51 PST 2018 ON: 19.98 +20.0 19.62 - 4.0 33.5 00 14 480F 092D Alarm State:  0
Mon Jan 15 13:32:50 PST 2018 ON: 20.02 +20.0 19.70 - 4.9 33.1 08 13 4812 090B Alarm State:  0
Mon Jan 15 13:31:48 PST 2018 ON: 19.99 +20.0 19.63 - 3.1 34.3 05 14 472B 090E Alarm State:  0
Mon Jan 15 13:30:47 PST 2018 ON: 20.02 +20.0 19.69 - 5.3 32.9 0D 14 4700 0A1A Alarm State:  0
Mon Jan 15 13:29:45 PST 2018 ON: 19.99 +20.0 19.62 - 3.4 34.1 0A 14 4732 0A00 Alarm State:  0
Mon Jan 15 13:28:44 PST 2018 ON: 20.01 +20.0 19.69 - 5.2 32.5 0A 14 480C 0908 Alarm State:  0
Mon Jan 15 13:27:42 PST 2018 ON: 19.98 +20.0 19.60 - 3.2 34.3 07 14 4812 090E Alarm State:  0
Mon Jan 15 13:26:41 PST 2018 ON: 20.00 +20.0 19.68 - 4.6 33.0 0D 14 4819 0923 Alarm State:  0
Mon Jan 15 13:25:39 PST 2018 ON: 20.01 +20.0 19.58 - 2.8 34.0 00 14 4910 0907 Alarm State:  0
Mon Jan 15 13:24:38 PST 2018 ON: 19.98 +20.0 19.62 - 4.0 33.6 07 14 482C 0A07 Alarm State:  0
Mon Jan 15 13:23:36 PST 2018 ON: 20.04 +20.0 19.61 - 2.8 34.0 00 14 4923 0900 Alarm State:  0
Mon Jan 15 13:22:35 PST 2018 ON: 19.99 +20.0 19.64 - 4.1 34.0 05 14 4827 090E Alarm State:  0
Mon Jan 15 13:21:33 PST 2018 ON: 20.02 +20.0 19.70 - 5.4 32.6 05 13 4813 0913 Alarm State:  0
Mon Jan 15 13:20:32 PST 2018 ON: 19.98 +20.0 19.59 - 3.1 34.4 09 14 4828 0916 Alarm State:  0
Mon Jan 15 13:19:30 PST 2018 ON: 20.02 +20.0 19.69 - 5.0 33.3 0D 14 4818 0909 Alarm State:  0
Mon Jan 15 13:18:29 PST 2018 ON: 20.01 +20.0 19.61 - 3.0 34.2 02 14 4815 0922 Alarm State:  0
Mon Jan 15 13:17:27 PST 2018 ON: 20.00 +20.0 19.66 - 4.8 33.3 0A 14 4720 0A0A Alarm State:  0
Mon Jan 15 13:16:26 PST 2018 ON: 19.97 +20.0 19.60 - 2.8 34.4 00 14 4824 0917 Alarm State:  0
Mon Jan 15 13:15:24 PST 2018 ON: 20.01 +20.0 19.71 - 5.5 32.8 0D 13 480A 0918 Alarm State:  0
Mon Jan 15 13:14:23 PST 2018 ON: 20.01 +20.0 19.61 - 3.0 34.4 02 14 4825 0919 Alarm State:  0
Mon Jan 15 13:13:21 PST 2018 ON: 20.02 +20.0 19.69 - 4.8 33.3 0A 14 4809 091C Alarm State:  0
Mon Jan 15 13:12:20 PST 2018 ON: 20.00 +20.0 19.61 - 2.7 34.4 02 14 4818 0925 Alarm State:  0
Mon Jan 15 13:11:18 PST 2018 ON: 20.00 +20.0 19.68 - 5.1 33.1 05 14 471D 0A05 Alarm State:  0
Mon Jan 15 13:10:17 PST 2018 ON: 19.97 +20.0 19.59 - 2.6 34.4 04 14 4815 0920 Alarm State:  0
Mon Jan 15 13:09:15 PST 2018 ON: 20.00 +20.0 19.69 - 4.7 33.4 0A 14 4803 0919 Alarm State:  0
Mon Jan 15 13:08:14 PST 2018 ON: 20.01 +20.0 19.60 - 2.6 34.2 02 14 481E 0922 Alarm State:  0
Mon Jan 15 13:07:12 PST 2018 ON: 20.01 +20.0 19.67 - 5.0 33.2 05 14 4729 092D Alarm State:  0
Mon Jan 15 13:06:11 PST 2018 ON: 19.98 +20.0 19.55 - 2.2 34.5 00 14 482B 090C Alarm State:  0
Mon Jan 15 13:05:09 PST 2018 ON: 19.99 +20.0 19.67 - 4.9 33.2 05 14 480D 090B Alarm State:  0
Mon Jan 15 13:04:08 PST 2018 ON: 20.02 +20.0 19.58 - 2.4 34.2 01 14 4830 090C Alarm State:  0
Mon Jan 15 13:03:06 PST 2018 ON: 20.02 +20.0 19.66 - 4.3 33.5 02 14 480E 0917 Alarm State:  0
Mon Jan 15 13:02:05 PST 2018 ON: 20.02 +20.0 19.61 - 2.9 33.9 00 14 4821 0920 Alarm State:  0
Mon Jan 15 13:01:03 PST 2018 ON: 19.99 +20.0 19.65 - 4.4 33.3 05 14 472C 0908 Alarm State:  0
Mon Jan 15 13:00:02 PST 2018 ON: 20.02 +20.0 19.60 - 2.9 33.9 00 14 4814 090B Alarm State:  0
Mon Jan 15 12:59:00 PST 2018 ON: 19.99 +20.0 19.65 - 4.3 33.5 00 14 471D 091A Alarm State:  0
Mon Jan 15 12:57:59 PST 2018 ON: 20.06 +20.0 19.69 - 5.8 32.1 05 14 4706 0A12 Alarm State:  0
Mon Jan 15 12:56:57 PST 2018 ON: 19.99 +20.0 19.62 - 4.0 33.7 07 14 4716 0A1D Alarm State:  0
Mon Jan 15 12:55:56 PST 2018 ON: 20.00 +20.0 19.58 - 2.8 33.9 01 14 4818 0920 Alarm State:  0
Mon Jan 15 12:54:54 PST 2018 ON: 19.98 +20.0 19.64 - 4.3 33.3 00 14 4800 0927 Alarm State:  0
Mon Jan 15 12:53:53 PST 2018 ON: 20.01 +20.0 19.64 - 3.9 33.4 00 14 480F 0907 Alarm State:  0
Mon Jan 15 12:52:51 PST 2018 ON: 19.97 +20.0 19.62 - 4.2 33.4 00 14 4803 0928 Alarm State:  0
Mon Jan 15 12:51:50 PST 2018 ON: 20.04 +20.0 19.60 - 2.8 33.9 05 14 482E 090F Alarm State:  0
Mon Jan 15 12:50:48 PST 2018 ON: 20.01 +20.0 19.66 - 4.5 33.3 0C 14 4806 0918 Alarm State:  0
Mon Jan 15 12:49:47 PST 2018 ON: 19.98 +20.0 19.56 - 2.4 34.1 00 14 482B 0903 Alarm State:  0
Mon Jan 15 12:48:45 PST 2018 ON: 20.01 +20.0 19.65 - 4.3 33.4 00 14 4801 0910 Alarm State:  0
Mon Jan 15 12:47:44 PST 2018 ON: 20.04 +20.0 19.63 - 3.7 33.5 00 14 4802 0902 Alarm State:  0
Mon Jan 15 12:46:42 PST 2018 ON: 20.00 +20.0 19.63 - 4.3 33.4 07 14 471C 0924 Alarm State:  0
Mon Jan 15 12:45:41 PST 2018 ON: 20.02 +20.0 19.58 - 2.5 33.9 04 14 4822 0903 Alarm State:  0
Mon Jan 15 12:44:39 PST 2018 ON: 19.99 +20.0 19.63 - 4.5 32.9 00 14 480C 092F Alarm State:  0
Mon Jan 15 12:43:38 PST 2018 ON: 20.01 +20.0 19.64 - 3.6 33.5 00 14 4904 0923 Alarm State:  0
Mon Jan 15 12:42:36 PST 2018 ON: 19.99 +20.0 19.61 - 3.6 34.0 02 14 4821 0924 Alarm State:  0
Mon Jan 15 12:41:35 PST 2018 ON: 20.04 +20.0 19.71 - 5.8 32.4 0D 13 4802 0928 Alarm State:  0
Mon Jan 15 12:40:33 PST 2018 ON: 20.02 +20.0 19.61 - 3.2 34.1 0A 14 4816 0907 Alarm State:  0
Mon Jan 15 12:39:32 PST 2018 ON: 20.00 +20.0 19.68 - 4.9 33.0 0D 14 4801 090B Alarm State:  0
Mon Jan 15 12:38:31 PST 2018 ON: 19.98 +20.0 19.57 - 2.5 34.0 01 14 4818 090C Alarm State:  0
Mon Jan 15 12:37:29 PST 2018 ON: 19.98 +20.0 19.63 - 4.6 33.0 00 14 472F 0A09 Alarm State:  0
Mon Jan 15 12:36:28 PST 2018 ON: 20.02 +20.0 19.57 - 2.5 33.9 07 14 4902 090E Alarm State:  0
Mon Jan 15 12:35:26 PST 2018 ON: 20.01 +20.0 19.66 - 4.5 33.1 0A 14 4809 091D Alarm State:  0
Mon Jan 15 12:34:25 PST 2018 ON: 20.01 +20.0 19.65 - 4.2 33.1 00 14 4816 0907 Alarm State:  0
Mon Jan 15 12:33:23 PST 2018 ON: 19.98 +20.0 19.63 - 4.0 33.7 00 14 480C 092D Alarm State:  0
Mon Jan 15 12:32:22 PST 2018 ON: 20.03 +20.0 19.72 - 5.3 32.7 0A 12 480B 0915 Alarm State:  0
Mon Jan 15 12:31:20 PST 2018 ON: 20.00 +20.0 19.64 - 3.5 34.0 05 14 4821 0923 Alarm State:  0
Mon Jan 15 12:30:19 PST 2018 ON: 20.02 +20.0 19.69 - 5.0 32.9 0D 14 4806 0921 Alarm State:  0
Mon Jan 15 12:29:17 PST 2018 ON: 20.01 +20.0 19.59 - 3.0 33.7 00 14 4802 091C Alarm State:  0
Mon Jan 15 12:28:16 PST 2018 ON: 19.98 +20.0 19.66 - 4.7 33.0 05 14 4716 0A1C Alarm State:  0
Mon Jan 15 12:27:14 PST 2018 ON: 19.97 +20.0 19.53 - 2.1 34.1 01 14 4821 091C Alarm State:  0
Mon Jan 15 12:26:13 PST 2018 ON: 20.02 +20.0 19.66 - 4.7 32.9 07 14 4810 0916 Alarm State:  0
Mon Jan 15 12:25:11 PST 2018 ON: 20.04 +20.0 19.67 - 4.1 33.2 02 14 4824 0924 Alarm State:  0
Mon Jan 15 12:24:10 PST 2018 ON: 19.98 +20.0 19.63 - 3.6 33.9 05 14 481F 091C Alarm State:  0
Mon Jan 15 12:23:08 PST 2018 ON: 20.02 +20.0 19.71 - 5.8 32.2 0A 13 4801 091B Alarm State:  0
Mon Jan 15 12:22:07 PST 2018 ON: 20.00 +20.0 19.62 - 3.6 33.9 05 14 480C 092F Alarm State:  0
Mon Jan 15 12:21:05 PST 2018 ON: 20.05 +20.0 19.71 - 5.5 32.6 0D 13 472F 0926 Alarm State:  0
Mon Jan 15 12:20:04 PST 2018 ON: 19.98 +20.0 19.59 - 3.1 33.9 00 14 4732 0920 Alarm State:  0
Mon Jan 15 12:19:02 PST 2018 ON: 19.99 +20.0 19.66 - 4.7 33.1 05 14 4718 0923 Alarm State:  0
Mon Jan 15 12:18:01 PST 2018 ON: 20.01 +20.0 19.56 - 2.4 33.9 00 14 481A 0900 Alarm State:  0
Mon Jan 15 12:16:59 PST 2018 ON: 20.01 +20.0 19.66 - 4.9 32.8 05 14 472F 092C Alarm State:  0
Mon Jan 15 12:15:58 PST 2018 ON: 19.97 +20.0 19.57 - 2.9 33.6 01 14 482B 091D Alarm State:  0
Mon Jan 15 12:14:56 PST 2018 ON: 19.98 +20.0 19.64 - 3.8 33.8 02 14 481B 091A Alarm State:  0
Mon Jan 15 12:13:55 PST 2018 ON: 20.03 +20.0 19.69 - 4.8 32.9 0D 14 480C 0912 Alarm State:  0
Mon Jan 15 12:12:53 PST 2018 ON: 20.02 +20.0 19.56 - 2.8 33.7 00 14 4826 0918 Alarm State:  0
Mon Jan 15 12:11:52 PST 2018 ON: 20.01 +20.0 19.64 - 4.0 33.7 05 14 472E 0926 Alarm State:  0
Mon Jan 15 12:10:50 PST 2018 ON: 20.02 +20.0 19.70 - 5.9 31.6 0A 14 4718 0A0C Alarm State:  0
Mon Jan 15 12:09:49 PST 2018 ON: 19.97 +20.0 19.58 - 3.6 33.5 04 14 480C 0925 Alarm State:  0
Mon Jan 15 12:08:47 PST 2018 ON: 20.03 +20.0 19.65 - 4.4 33.0 00 14 4828 0913 Alarm State:  0
Mon Jan 15 12:07:46 PST 2018 ON: 19.99 +20.0 19.64 - 4.0 33.4 07 14 4819 090D Alarm State:  0
Mon Jan 15 12:06:44 PST 2018 ON: 20.03 +20.0 19.70 - 5.2 32.7 0D 13 4815 0923 Alarm State:  0
Mon Jan 15 12:05:43 PST 2018 ON: 19.99 +20.0 19.60 - 3.2 33.9 05 14 480E 0919 Alarm State:  0
Mon Jan 15 12:04:41 PST 2018 ON: 19.99 +20.0 19.68 - 5.2 32.6 02 14 4729 0A1E Alarm State:  0
Mon Jan 15 12:03:40 PST 2018 ON: 19.99 +20.0 19.57 - 2.4 34.3 01 14 482F 0927 Alarm State:  0
Mon Jan 15 12:02:29 PST 2018 ON: 20.00 +20.0 19.67 - 4.8 33.1 05 14 4814 0902 Alarm State:  0
Mon Jan 15 12:01:27 PST 2018 ON: 19.99 +20.0 19.58 - 2.6 34.0 07 14 482C 0904 Alarm State:  0
Mon Jan 15 12:00:26 PST 2018 ON: 20.03 +20.0 19.66 - 4.6 33.1 00 14 4803 0910 Alarm State:  0
Mon Jan 15 11:59:24 PST 2018 ON: 20.02 +20.0 19.60 - 3.1 33.7 00 14 4821 0918 Alarm State:  0
Mon Jan 15 11:58:23 PST 2018 ON: 19.99 +20.0 19.64 - 4.3 33.2 07 14 4808 091C Alarm State:  0
Mon Jan 15 11:57:21 PST 2018 ON: 20.02 +20.0 19.62 - 3.3 33.6 00 14 4830 0908 Alarm State:  0
Mon Jan 15 11:56:20 PST 2018 ON: 19.98 +20.0 19.63 - 4.1 33.3 00 14 4813 0914 Alarm State:  0
Mon Jan 15 11:55:18 PST 2018 ON: 20.04 +20.0 19.68 - 4.6 33.0 0D 14 481F 0926 Alarm State:  0
Mon Jan 15 11:54:17 PST 2018 ON: 20.01 +20.0 19.63 - 3.7 33.9 0C 14 472D 090B Alarm State:  0
Mon Jan 15 11:53:15 PST 2018 ON: 20.00 +20.0 19.69 - 5.5 32.6 05 14 4632 0A16 Alarm State:  0
Mon Jan 15 11:52:14 PST 2018 ON: 19.97 +20.0 19.59 - 3.0 34.2 00 14 4730 092D Alarm State:  0
Mon Jan 15 11:51:12 PST 2018 ON: 20.03 +20.0 19.70 - 5.9 32.2 0D 13 4720 0920 Alarm State:  0
Mon Jan 15 11:50:11 PST 2018 ON: 19.98 +20.0 19.58 - 3.6 33.8 01 14 480E 091F Alarm State:  0
Mon Jan 15 11:49:09 PST 2018 ON: 20.02 +20.0 19.70 - 5.1 32.9 0D 13 4814 0927 Alarm State:  0
Mon Jan 15 11:48:08 PST 2018 ON: 20.01 +20.0 19.61 - 3.0 34.0 05 14 481B 0917 Alarm State:  0
Mon Jan 15 11:47:06 PST 2018 ON: 20.02 +20.0 19.70 - 5.5 32.5 0D 14 4726 0A22 Alarm State:  0
Mon Jan 15 11:46:05 PST 2018 ON: 19.96 +20.0 19.59 - 3.0 34.1 09 14 4824 0931 Alarm State:  0
Mon Jan 15 11:45:03 PST 2018 ON: 19.99 +20.0 19.71 - 5.5 32.5 0D 13 4816 0924 Alarm State:  0
Mon Jan 15 11:44:02 PST 2018 ON: 20.00 +20.0 19.59 - 2.8 34.1 02 14 4908 0924 Alarm State:  0
Mon Jan 15 11:43:00 PST 2018 ON: 20.01 +20.0 19.66 - 4.5 33.3 00 14 4831 091D Alarm State:  0
Mon Jan 15 11:41:59 PST 2018 ON: 20.01 +20.0 19.61 - 3.2 33.6 00 14 4921 0912 Alarm State:  0
Mon Jan 15 11:40:57 PST 2018 ON: 19.99 +20.0 19.64 - 4.0 33.6 0C 14 4903 0917 Alarm State:  0
Mon Jan 15 11:39:56 PST 2018 ON: 20.05 +20.0 19.64 - 3.9 33.3 00 14 490A 0920 Alarm State:  0
Mon Jan 15 11:38:54 PST 2018 ON: 20.03 +20.0 19.64 - 3.9 33.9 05 14 4825 091F Alarm State:  0
Mon Jan 15 11:37:53 PST 2018 ON: 20.00 +20.0 19.68 - 5.1 32.7 0D 14 481A 0917 Alarm State:  0
Mon Jan 15 11:36:51 PST 2018 ON: 19.98 +20.0 19.62 - 3.2 34.1 0D 14 4903 0911 Alarm State:  0
Mon Jan 15 11:35:50 PST 2018 ON: 20.05 +20.0 19.68 - 4.8 33.0 0D 14 4819 090D Alarm State:  0
Mon Jan 15 11:34:48 PST 2018 ON: 20.05 +20.0 19.66 - 4.1 33.4 00 14 4732 091A Alarm State:  0
Mon Jan 15 11:33:47 PST 2018 ON: 20.01 +20.0 19.62 - 3.3 33.7 00 14 4709 0A03 Alarm State:  0
Mon Jan 15 11:32:45 PST 2018 ON: 19.98 +20.0 19.66 - 4.7 33.1 00 14 461E 0B08 Alarm State:  0
Mon Jan 15 11:31:44 PST 2018 ON: 20.01 +20.0 19.57 - 2.4 34.2 04 14 4724 0A0B Alarm State:  0
Mon Jan 15 11:30:42 PST 2018 ON: 20.02 +20.0 19.70 - 5.9 32.2 0D 14 4706 0B0C Alarm State:  0
Mon Jan 15 11:29:41 PST 2018 ON: 19.95 +20.0 19.58 - 3.3 33.7 00 14 480B 0A11 Alarm State:  0
Mon Jan 15 11:28:39 PST 2018 ON: 20.03 +20.0 19.68 - 4.5 33.2 08 14 4821 090E Alarm State:  0
Mon Jan 15 11:27:38 PST 2018 ON: 20.02 +20.0 19.63 - 4.0 33.4 02 14 4729 0920 Alarm State:  0
Mon Jan 15 11:26:36 PST 2018 ON: 19.99 +20.0 19.66 - 4.4 33.2 00 14 470D 0929 Alarm State:  0
Mon Jan 15 11:25:35 PST 2018 ON: 20.04 +20.0 19.67 - 5.2 32.4 00 14 4718 0915 Alarm State:  0
Mon Jan 15 11:24:33 PST 2018 ON: 20.01 +20.0 19.62 - 4.1 33.2 07 14 4722 091B Alarm State:  0
Mon Jan 15 11:23:32 PST 2018 ON: 20.01 +20.0 19.66 - 4.6 32.9 00 14 4804 0912 Alarm State:  0
Mon Jan 15 11:22:30 PST 2018 ON: 19.97 +20.0 19.63 - 4.3 33.1 00 14 472A 0A05 Alarm State:  0
Mon Jan 15 11:21:29 PST 2018 ON: 20.05 +20.0 19.70 - 5.5 32.2 0A 13 472D 0911 Alarm State:  0
Mon Jan 15 11:20:27 PST 2018 ON: 19.99 +20.0 19.63 - 4.2 33.1 05 14 472D 0930 Alarm State:  0
Mon Jan 15 11:19:26 PST 2018 ON: 20.03 +20.0 19.68 - 5.5 32.1 08 14 4805 0A0A Alarm State:  0
Mon Jan 15 11:18:24 PST 2018 ON: 19.97 +20.0 19.60 - 4.2 33.3 05 14 480D 0A12 Alarm State:  0
Mon Jan 15 11:17:23 PST 2018 ON: 20.01 +20.0 19.61 - 3.1 33.5 00 14 4909 0919 Alarm State:  0
Mon Jan 15 11:16:21 PST 2018 ON: 19.98 +20.0 19.64 - 4.4 33.1 00 14 481C 0924 Alarm State:  0
Mon Jan 15 11:15:20 PST 2018 ON: 20.05 +20.0 19.66 - 4.7 32.7 00 14 481D 090C Alarm State:  0
Mon Jan 15 11:14:18 PST 2018 ON: 20.00 +20.0 19.64 - 4.1 33.4 07 14 4813 092C Alarm State:  0
Mon Jan 15 11:13:17 PST 2018 ON: 20.01 +20.0 19.69 - 5.2 32.8 0A 14 480C 091C Alarm State:  0
Mon Jan 15 11:12:15 PST 2018 ON: 20.01 +20.0 19.58 - 3.0 33.9 01 14 480E 090F Alarm State:  0
Mon Jan 15 11:11:14 PST 2018 ON: 19.99 +20.0 19.68 - 5.0 32.8 00 14 471B 091B Alarm State:  0
Mon Jan 15 11:10:12 PST 2018 ON: 19.97 +20.0 19.57 - 3.0 33.8 00 14 4810 090F Alarm State:  0
Mon Jan 15 11:09:11 PST 2018 ON: 20.02 +20.0 19.65 - 4.4 33.3 0C 14 4805 090B Alarm State:  0
Mon Jan 15 11:08:09 PST 2018 ON: 20.04 +20.0 19.72 - 5.9 31.9 0D 12 472B 0902 Alarm State:  0
Mon Jan 15 11:07:08 PST 2018 ON: 19.98 +20.0 19.62 - 4.1 33.5 02 14 4803 0915 Alarm State:  0
Mon Jan 15 11:06:06 PST 2018 ON: 20.02 +20.0 19.70 - 5.6 32.4 0A 13 4805 0925 Alarm State:  0
Mon Jan 15 11:05:05 PST 2018 ON: 19.98 +20.0 19.61 - 3.5 33.7 00 14 4824 0926 Alarm State:  0
Mon Jan 15 11:04:03 PST 2018 ON: 20.03 +20.0 19.70 - 5.6 32.1 0A 13 481C 0911 Alarm State:  0
Mon Jan 15 11:03:02 PST 2018 ON: 20.00 +20.0 19.62 - 3.8 33.7 0D 14 4817 0920 Alarm State:  0
Mon Jan 15 11:02:00 PST 2018 ON: 20.03 +20.0 19.69 - 5.0 32.8 0D 14 480D 0913 Alarm State:  0
Mon Jan 15 11:00:59 PST 2018 ON: 19.98 +20.0 19.58 - 2.9 33.7 00 14 4816 0920 Alarm State:  0
Mon Jan 15 10:59:47 PST 2018 ON: 20.00 +20.0 19.68 - 4.8 32.4 07 14 472C 092A Alarm State:  0
Mon Jan 15 10:58:46 PST 2018 ON: 20.02 +20.0 19.63 - 3.6 33.2 00 14 481F 0914 Alarm State:  0
Mon Jan 15 10:57:44 PST 2018 ON: 19.99 +20.0 19.63 - 4.5 32.9 00 14 480A 0A12 Alarm State:  0
Mon Jan 15 10:56:43 PST 2018 ON: 20.02 +20.0 19.63 - 3.6 33.3 00 14 4903 0905 Alarm State:  0
Mon Jan 15 10:55:41 PST 2018 ON: 19.98 +20.0 19.61 - 3.5 33.9 07 14 4825 0928 Alarm State:  0
Mon Jan 15 10:54:40 PST 2018 ON: 20.00 +20.0 19.69 - 4.8 32.9 0A 14 480F 0927 Alarm State:  0
Mon Jan 15 10:53:38 PST 2018 ON: 20.06 +20.0 19.62 - 3.4 33.3 02 14 4723 0908 Alarm State:  0
Mon Jan 15 10:52:37 PST 2018 ON: 20.02 +20.0 19.67 - 5.1 32.5 0A 14 461D 091D Alarm State:  0
Mon Jan 15 10:51:35 PST 2018 ON: 20.02 +20.0 19.63 - 4.3 32.9 00 14 462C 0A03 Alarm State:  0
Mon Jan 15 10:50:34 PST 2018 ON: 19.97 +20.0 19.64 - 4.8 32.8 05 14 4620 0A24 Alarm State:  0
Mon Jan 15 10:49:32 PST 2018 ON: 19.96 +20.0 19.55 - 2.2 33.9 01 14 472F 0919 Alarm State:  0
Mon Jan 15 10:48:31 PST 2018 ON: 19.98 +20.0 19.67 - 4.9 32.7 05 14 4808 092E Alarm State:  0
Mon Jan 15 10:47:29 PST 2018 ON: 20.00 +20.0 19.59 - 2.8 33.9 07 14 490C 0914 Alarm State:  0
Mon Jan 15 10:46:28 PST 2018 ON: 20.05 +20.0 19.67 - 4.4 33.3 02 14 481B 091B Alarm State:  0
Mon Jan 15 10:45:26 PST 2018 ON: 19.99 +20.0 19.62 - 3.2 33.5 00 14 480A 0923 Alarm State:  0
Mon Jan 15 10:44:25 PST 2018 ON: 19.99 +20.0 19.66 - 5.1 32.7 00 14 470C 0930 Alarm State:  0
Mon Jan 15 10:43:23 PST 2018 ON: 19.99 +20.0 19.60 - 3.0 33.8 0D 14 480E 0916 Alarm State:  0
Mon Jan 15 10:42:22 PST 2018 ON: 20.01 +20.0 19.71 - 5.5 32.6 0D 13 4718 091F Alarm State:  0
Mon Jan 15 10:41:20 PST 2018 ON: 20.00 +20.0 19.62 - 3.8 33.7 0C 14 4800 091E Alarm State:  0
Mon Jan 15 10:40:19 PST 2018 ON: 20.03 +20.0 19.72 - 6.1 31.9 0D 13 4724 0A0F Alarm State:  0
Mon Jan 15 10:39:17 PST 2018 ON: 19.96 +20.0 19.60 - 3.9 33.5 00 14 4814 0A0E Alarm State:  0
Mon Jan 15 10:38:16 PST 2018 ON: 20.03 +20.0 19.70 - 5.6 32.1 08 13 4826 091B Alarm State:  0
Mon Jan 15 10:37:14 PST 2018 ON: 19.97 +20.0 19.60 - 3.1 34.0 02 14 4908 0918 Alarm State:  0
Mon Jan 15 10:36:13 PST 2018 ON: 20.00 +20.0 19.66 - 4.8 33.1 07 14 4825 090F Alarm State:  0
Mon Jan 15 10:35:12 PST 2018 ON: 20.03 +20.0 19.70 - 4.8 33.3 0D 13 4800 091D Alarm State:  0
Mon Jan 15 10:34:10 PST 2018 ON: 20.02 +20.0 19.69 - 5.6 32.6 00 14 4625 0909 Alarm State:  0
Mon Jan 15 10:33:09 PST 2018 ON: 20.02 +20.0 19.62 - 4.1 33.6 05 14 461A 092A Alarm State:  0
Mon Jan 15 10:32:07 PST 2018 ON: 20.03 +20.0 19.73 - 6.2 31.9 0D 12 4608 0A1F Alarm State:  0
Mon Jan 15 10:31:06 PST 2018 ON: 19.96 +20.0 19.61 - 4.1 33.1 00 14 4627 0A1D Alarm State:  0
Mon Jan 15 10:30:04 PST 2018 ON: 20.02 +20.0 19.58 - 2.9 33.6 00 14 472E 091B Alarm State:  0
Mon Jan 15 10:29:03 PST 2018 ON: 20.00 +20.0 19.66 - 4.6 32.9 05 14 4715 0925 Alarm State:  0
Mon Jan 15 10:28:01 PST 2018 ON: 20.03 +20.0 19.69 - 5.4 32.2 05 14 4713 0A10 Alarm State:  0
Mon Jan 15 10:26:59 PST 2018 ON: 19.99 +20.0 19.61 - 4.2 33.3 05 14 4718 0A1D Alarm State:  0
Mon Jan 15 10:25:58 PST 2018 ON: 20.01 +20.0 19.60 - 3.4 33.3 00 14 4815 0908 Alarm State:  0
Mon Jan 15 10:24:56 PST 2018 ON: 19.99 +20.0 19.62 - 4.0 33.6 0A 14 4802 0906 Alarm State:  0
Mon Jan 15 10:23:55 PST 2018 ON: 20.04 +20.0 19.71 - 5.7 32.3 0D 13 4800 0924 Alarm State:  0
Mon Jan 15 10:22:53 PST 2018 ON: 19.96 +20.0 19.59 - 3.0 34.0 07 14 481F 0922 Alarm State:  0
Mon Jan 15 10:21:52 PST 2018 ON: 20.04 +20.0 19.69 - 5.0 32.8 0D 14 4813 0919 Alarm State:  0
Mon Jan 15 10:20:50 PST 2018 ON: 19.98 +20.0 19.60 - 2.8 33.8 02 14 4816 0907 Alarm State:  0
Mon Jan 15 10:19:49 PST 2018 ON: 20.02 +20.0 19.67 - 5.1 32.8 00 14 471D 0918 Alarm State:  0
Mon Jan 15 10:18:47 PST 2018 ON: 19.97 +20.0 19.59 - 2.8 33.9 01 14 4813 090F Alarm State:  0
Mon Jan 15 10:17:46 PST 2018 ON: 19.99 +20.0 19.67 - 4.9 32.7 00 14 472E 0914 Alarm State:  0
Mon Jan 15 10:16:35 PST 2018 ON: 20.03 +20.0 19.63 - 3.8 33.2 00 14 4812 091B Alarm State:  0
Mon Jan 15 10:15:33 PST 2018 ON: 19.98 +20.0 19.66 - 4.3 33.2 07 14 471D 0901 Alarm State:  0
Mon Jan 15 10:14:32 PST 2018 ON: 20.05 +20.0 19.68 - 5.1 32.5 05 14 471E 091A Alarm State:  0
Mon Jan 15 10:13:30 PST 2018 ON: 19.99 +20.0 19.64 - 4.1 33.2 00 14 4714 0A0B Alarm State:  0
Mon Jan 15 10:12:29 PST 2018 ON: 20.05 +20.0 19.69 - 5.4 32.2 08 14 4719 0A14 Alarm State:  0
Mon Jan 15 10:11:27 PST 2018 ON: 20.00 +20.0 19.65 - 4.3 33.0 0A 14 4723 0A22 Alarm State:  0
Mon Jan 15 10:10:26 PST 2018 ON: 20.02 +20.0 19.64 - 4.5 32.9 00 14 480D 0A11 Alarm State:  0
Mon Jan 15 10:09:24 PST 2018 ON: 19.97 +20.0 19.62 - 4.6 32.8 07 14 4805 0A2A Alarm State:  0
Mon Jan 15 10:08:23 PST 2018 ON: 19.96 +20.0 19.54 - 2.2 34.0 07 14 490F 091F Alarm State:  0
Mon Jan 15 10:07:21 PST 2018 ON: 20.00 +20.0 19.68 - 5.3 32.4 08 14 4826 091E Alarm State:  0
Mon Jan 15 10:06:20 PST 2018 ON: 20.01 +20.0 19.61 - 3.4 33.4 00 14 491A 0903 Alarm State:  0
Mon Jan 15 10:05:18 PST 2018 ON: 20.01 +20.0 19.62 - 3.5 33.7 0A 14 4831 090E Alarm State:  0
Mon Jan 15 10:04:17 PST 2018 ON: 20.02 +20.0 19.67 - 5.1 32.7 07 14 4808 091E Alarm State:  0
Mon Jan 15 10:03:15 PST 2018 ON: 20.04 +20.0 19.61 - 3.3 33.4 00 14 4830 0910 Alarm State:  0
Mon Jan 15 10:02:14 PST 2018 ON: 19.98 +20.0 19.64 - 4.2 33.2 00 14 481F 0910 Alarm State:  0
Mon Jan 15 10:01:12 PST 2018 ON: 20.01 +20.0 19.66 - 5.0 32.3 00 14 4831 0918 Alarm State:  0
Mon Jan 15 10:00:11 PST 2018 ON: 19.99 +20.0 19.63 - 3.9 33.5 0C 14 4903 092C Alarm State:  0
Mon Jan 15 09:59:09 PST 2018 ON: 20.03 +20.0 19.70 - 5.4 32.4 08 13 4900 0912 Alarm State:  0
Mon Jan 15 09:58:08 PST 2018 ON: 20.01 +20.0 19.58 - 3.2 33.7 04 14 482F 0905 Alarm State:  0
Mon Jan 15 09:57:06 PST 2018 ON: 20.01 +20.0 19.65 - 4.3 33.2 07 14 481D 090C Alarm State:  0
Mon Jan 15 09:56:05 PST 2018 ON: 20.04 +20.0 19.66 - 4.6 32.8 00 14 4820 0925 Alarm State:  0
Mon Jan 15 09:55:03 PST 2018 ON: 19.97 +20.0 19.61 - 4.3 33.3 05 14 4821 0A07 Alarm State:  0
Mon Jan 15 09:54:02 PST 2018 ON: 20.00 +20.0 19.57 - 2.5 33.8 00 14 4924 0907 Alarm State:  0
Mon Jan 15 09:53:00 PST 2018 ON: 20.00 +20.0 19.65 - 4.7 32.9 07 14 482C 0919 Alarm State:  0
Mon Jan 15 09:51:59 PST 2018 ON: 20.02 +20.0 19.63 - 4.0 33.1 00 14 481A 091E Alarm State:  0
Mon Jan 15 09:50:57 PST 2018 ON: 20.01 +20.0 19.65 - 4.5 32.9 07 14 4801 0922 Alarm State:  0
Mon Jan 15 09:49:56 PST 2018 ON: 20.03 +20.0 19.65 - 4.2 33.0 00 14 480D 0907 Alarm State:  0
Mon Jan 15 09:48:54 PST 2018 ON: 20.00 +20.0 19.65 - 4.4 33.2 07 14 472A 0907 Alarm State:  0
Mon Jan 15 09:47:53 PST 2018 ON: 20.05 +20.0 19.69 - 5.5 32.2 0A 14 4801 0919 Alarm State:  0
Mon Jan 15 09:46:51 PST 2018 ON: 19.97 +20.0 19.61 - 4.0 33.3 05 14 481A 0918 Alarm State:  0
Mon Jan 15 09:45:50 PST 2018 ON: 20.04 +20.0 19.70 - 5.4 32.5 08 13 4820 091E Alarm State:  0
Mon Jan 15 09:44:48 PST 2018 ON: 19.99 +20.0 19.62 - 3.3 33.9 02 14 480F 091E Alarm State:  0
Mon Jan 15 09:43:47 PST 2018 ON: 19.98 +20.0 19.69 - 5.5 32.5 0D 14 4716 0A04 Alarm State:  0
Mon Jan 15 09:42:45 PST 2018 ON: 19.97 +20.0 19.59 - 2.9 34.0 01 14 480E 0925 Alarm State:  0
Mon Jan 15 09:41:44 PST 2018 ON: 19.98 +20.0 19.67 - 5.1 32.6 05 14 4808 0A16 Alarm State:  0
Mon Jan 15 09:40:42 PST 2018 ON: 20.00 +20.0 19.58 - 2.8 34.0 04 14 4912 091B Alarm State:  0
Mon Jan 15 09:39:41 PST 2018 ON: 20.02 +20.0 19.69 - 4.8 33.2 0D 14 4829 091C Alarm State:  0
Mon Jan 15 09:38:39 PST 2018 ON: 19.98 +20.0 19.62 - 3.5 33.8 00 14 4824 091E Alarm State:  0
Mon Jan 15 09:37:38 PST 2018 ON: 20.04 +20.0 19.70 - 5.7 32.4 0D 13 4802 091F Alarm State:  0
Mon Jan 15 09:36:36 PST 2018 ON: 19.98 +20.0 19.58 - 3.1 33.8 01 14 4807 0909 Alarm State:  0
Mon Jan 15 09:35:35 PST 2018 ON: 20.00 +20.0 19.66 - 4.8 32.9 02 14 4716 0910 Alarm State:  0
Mon Jan 15 09:34:33 PST 2018 ON: 20.01 +20.0 19.58 - 2.9 33.5 00 14 472F 0911 Alarm State:  0
Mon Jan 15 09:33:32 PST 2018 ON: 19.98 +20.0 19.65 - 5.1 32.7 02 14 470D 0A1C Alarm State:  0
Mon Jan 15 09:32:30 PST 2018 ON: 19.98 +20.0 19.59 - 2.7 33.9 07 14 4815 0923 Alarm State:  0
Mon Jan 15 09:31:29 PST 2018 ON: 20.01 +20.0 19.68 - 4.8 32.8 0D 14 4732 0926 Alarm State:  0
Mon Jan 15 09:30:27 PST 2018 ON: 20.02 +20.0 19.63 - 4.0 33.1 00 14 4731 0916 Alarm State:  0
Mon Jan 15 09:29:26 PST 2018 ON: 20.00 +20.0 19.64 - 4.7 32.6 07 14 471D 0A0F Alarm State:  0
Mon Jan 15 09:28:24 PST 2018 ON: 20.02 +20.0 19.65 - 4.7 32.6 00 14 480D 0905 Alarm State:  0
Mon Jan 15 09:27:23 PST 2018 ON: 19.99 +20.0 19.64 - 4.4 33.0 00 14 4801 0930 Alarm State:  0
Mon Jan 15 09:26:21 PST 2018 ON: 20.04 +20.0 19.68 - 5.3 32.3 08 14 4808 090C Alarm State:  0
Mon Jan 15 09:25:20 PST 2018 ON: 19.97 +20.0 19.62 - 4.3 33.1 05 14 4730 092F Alarm State:  0
Mon Jan 15 09:24:18 PST 2018 ON: 20.04 +20.0 19.60 - 3.2 33.2 00 14 4822 0920 Alarm State:  0
Mon Jan 15 09:23:17 PST 2018 ON: 20.01 +20.0 19.66 - 4.7 32.9 07 14 4723 0904 Alarm State:  0
Mon Jan 15 09:22:15 PST 2018 ON: 20.01 +20.0 19.63 - 3.8 33.1 00 14 4728 0917 Alarm State:  0
Mon Jan 15 09:21:14 PST 2018 ON: 20.01 +20.0 19.64 - 4.7 32.8 02 14 4708 091E Alarm State:  0
Mon Jan 15 09:20:12 PST 2018 ON: 20.00 +20.0 19.60 - 3.3 33.2 00 14 4800 090B Alarm State:  0
Mon Jan 15 09:19:11 PST 2018 ON: 19.97 +20.0 19.64 - 4.6 32.8 00 14 471F 0A0C Alarm State:  0
Mon Jan 15 09:18:09 PST 2018 ON: 20.01 +20.0 19.58 - 3.1 33.2 00 14 4823 0919 Alarm State:  0
Mon Jan 15 09:17:08 PST 2018 ON: 20.00 +20.0 19.60 - 3.5 33.4 07 14 4813 0924 Alarm State:  0
Mon Jan 15 09:16:06 PST 2018 ON: 19.98 +20.0 19.63 - 4.4 32.8 02 14 4804 0926 Alarm State:  0
Mon Jan 15 09:15:05 PST 2018 ON: 20.05 +20.0 19.66 - 4.1 32.9 00 14 481C 0920 Alarm State:  0
Mon Jan 15 09:14:03 PST 2018 ON: 19.99 +20.0 19.65 - 4.5 32.9 07 14 4805 0922 Alarm State:  0
Mon Jan 15 09:13:02 PST 2018 ON: 20.03 +20.0 19.65 - 4.2 32.8 00 14 4811 0901 Alarm State:  0
Mon Jan 15 09:12:00 PST 2018 ON: 19.99 +20.0 19.64 - 4.6 32.7 05 14 4731 0922 Alarm State:  0
Mon Jan 15 09:10:59 PST 2018 ON: 20.00 +20.0 19.59 - 2.8 33.3 02 14 4901 0906 Alarm State:  0
Mon Jan 15 09:09:58 PST 2018 ON: 19.99 +20.0 19.64 - 4.5 32.8 00 14 4809 0910 Alarm State:  0
Mon Jan 15 09:08:56 PST 2018 ON: 20.05 +20.0 19.66 - 4.2 32.9 00 14 481F 0918 Alarm State:  0
Mon Jan 15 09:07:55 PST 2018 ON: 19.98 +20.0 19.59 - 3.2 33.5 01 14 480E 0914 Alarm State:  0
Mon Jan 15 09:06:53 PST 2018 ON: 19.98 +20.0 19.69 - 5.7 32.0 08 14 470E 0A23 Alarm State:  0
Mon Jan 15 09:05:52 PST 2018 ON: 19.98 +20.0 19.61 - 3.5 33.6 05 14 4810 092E Alarm State:  0
Mon Jan 15 09:04:50 PST 2018 ON: 20.02 +20.0 19.70 - 5.7 32.0 0D 13 480A 0919 Alarm State:  0
Mon Jan 15 09:03:49 PST 2018 ON: 19.99 +20.0 19.61 - 3.2 33.5 02 14 481B 0926 Alarm State:  0
Mon Jan 15 09:02:47 PST 2018 ON: 20.01 +20.0 19.65 - 4.5 33.1 00 14 4807 0925 Alarm State:  0
Mon Jan 15 09:01:46 PST 2018 ON: 20.06 +20.0 19.73 - 6.3 31.4 0D 12 4717 0A02 Alarm State:  0
Mon Jan 15 09:00:44 PST 2018 ON: 19.96 +20.0 19.60 - 4.0 33.3 05 14 4800 0930 Alarm State:  0
Mon Jan 15 08:59:43 PST 2018 ON: 20.05 +20.0 19.69 - 5.8 31.6 0A 14 4809 090A Alarm State:  0
Mon Jan 15 08:58:41 PST 2018 ON: 19.96 +20.0 19.63 - 4.0 33.3 02 14 4816 091D Alarm State:  0
Mon Jan 15 08:57:40 PST 2018 ON: 20.01 +20.0 19.70 - 5.7 31.9 0A 13 480C 090C Alarm State:  0
Mon Jan 15 08:56:38 PST 2018 ON: 20.02 +20.0 19.58 - 2.6 33.6 01 14 4819 0915 Alarm State:  0
Mon Jan 15 08:55:37 PST 2018 ON: 20.03 +20.0 19.68 - 4.8 33.0 0D 14 471D 0928 Alarm State:  0
Mon Jan 15 08:54:35 PST 2018 ON: 20.02 +20.0 19.71 - 6.0 32.0 0A 13 4621 090F Alarm State:  0
Mon Jan 15 08:53:34 PST 2018 ON: 19.98 +20.0 19.64 - 4.2 33.2 00 14 4629 0923 Alarm State:  0
Mon Jan 15 08:52:32 PST 2018 ON: 20.03 +20.0 19.70 - 5.9 31.7 0A 14 462B 0A05 Alarm State:  0
Mon Jan 15 08:51:31 PST 2018 ON: 19.97 +20.0 19.64 - 4.2 32.8 00 14 4712 0A01 Alarm State:  0
Mon Jan 15 08:50:29 PST 2018 ON: 20.03 +20.0 19.65 - 4.4 32.7 00 14 472D 0A0C Alarm State:  0
Mon Jan 15 08:49:28 PST 2018 ON: 19.99 +20.0 19.63 - 4.6 32.7 07 14 4723 0A24 Alarm State:  0
Mon Jan 15 08:48:26 PST 2018 ON: 19.98 +20.0 19.56 - 2.9 33.4 00 14 482D 0925 Alarm State:  0
Mon Jan 15 08:47:25 PST 2018 ON: 19.98 +20.0 19.65 - 4.6 32.7 00 14 4823 0924 Alarm State:  0
Mon Jan 15 08:46:23 PST 2018 ON: 20.04 +20.0 19.70 - 5.4 31.9 0D 14 4829 0A04 Alarm State:  0
Mon Jan 15 08:45:22 PST 2018 ON: 19.98 +20.0 19.62 - 4.1 32.9 05 14 4904 0A02 Alarm State:  0
Mon Jan 15 08:44:20 PST 2018 ON: 20.01 +20.0 19.69 - 4.8 32.7 08 14 491D 0925 Alarm State:  0
Mon Jan 15 08:43:19 PST 2018 ON: 20.04 +20.0 19.65 - 4.6 32.9 00 14 4830 0907 Alarm State:  0
Mon Jan 15 08:42:17 PST 2018 ON: 20.00 +20.0 19.63 - 3.4 33.6 00 14 481B 0909 Alarm State:  0
Mon Jan 15 08:41:16 PST 2018 ON: 19.96 +20.0 19.66 - 5.4 32.3 00 14 4729 0A16 Alarm State:  0
Mon Jan 15 08:40:14 PST 2018 ON: 19.98 +20.0 19.60 - 3.4 33.7 05 14 4831 0917 Alarm State:  0
Mon Jan 15 08:39:13 PST 2018 ON: 20.05 +20.0 19.71 - 5.8 31.8 0D 13 482B 0927 Alarm State:  0
Mon Jan 15 08:38:11 PST 2018 ON: 19.97 +20.0 19.61 - 3.8 33.5 00 14 490D 092B Alarm State:  0
Mon Jan 15 08:37:10 PST 2018 ON: 20.03 +20.0 19.69 - 5.2 32.5 0A 14 4903 0918 Alarm State:  0
Mon Jan 15 08:36:08 PST 2018 ON: 20.00 +20.0 19.60 - 3.1 33.6 05 14 4904 090E Alarm State:  0
Mon Jan 15 08:35:07 PST 2018 ON: 19.98 +20.0 19.65 - 4.5 32.8 05 14 4811 091B Alarm State:  0
Mon Jan 15 08:34:05 PST 2018 ON: 20.06 +20.0 19.68 - 5.0 32.6 0D 14 480A 0917 Alarm State:  0
Mon Jan 15 08:33:04 PST 2018 ON: 20.02 +20.0 19.64 - 3.7 33.7 05 14 4713 0924 Alarm State:  0
Mon Jan 15 08:32:02 PST 2018 ON: 19.99 +20.0 19.70 - 5.7 32.1 0D 14 461A 0A2C Alarm State:  0
Mon Jan 15 08:31:01 PST 2018 ON: 19.96 +20.0 19.61 - 3.6 33.5 00 14 4721 0A04 Alarm State:  0
Mon Jan 15 08:29:59 PST 2018 ON: 20.02 +20.0 19.69 - 5.7 31.8 0A 14 472A 0A0A Alarm State:  0
Mon Jan 15 08:28:58 PST 2018 ON: 19.97 +20.0 19.59 - 3.8 33.1 00 14 480F 0A04 Alarm State:  0
Mon Jan 15 08:27:56 PST 2018 ON: 20.04 +20.0 19.67 - 4.5 32.8 00 14 4826 0923 Alarm State:  0
Mon Jan 15 08:26:55 PST 2018 ON: 20.02 +20.0 19.63 - 3.9 33.7 05 14 4814 0924 Alarm State:  0
Mon Jan 15 08:25:53 PST 2018 ON: 20.01 +20.0 19.72 - 5.9 32.1 0D 12 4727 0901 Alarm State:  0
Mon Jan 15 08:24:52 PST 2018 ON: 19.99 +20.0 19.62 - 3.4 33.8 02 14 4804 090B Alarm State:  0
Mon Jan 15 08:23:51 PST 2018 ON: 20.03 +20.0 19.69 - 5.2 32.5 0D 14 4720 0A09 Alarm State:  0
Mon Jan 15 08:22:49 PST 2018 ON: 19.99 +20.0 19.58 - 2.9 33.8 0C 14 481D 091D Alarm State:  0
Mon Jan 15 08:21:48 PST 2018 ON: 19.99 +20.0 19.69 - 5.8 32.1 0D 14 4800 0A21 Alarm State:  0
Mon Jan 15 08:20:46 PST 2018 ON: 19.99 +20.0 19.61 - 3.6 33.5 07 14 4902 092A Alarm State:  0
Mon Jan 15 08:19:45 PST 2018 ON: 20.04 +20.0 19.70 - 5.2 32.3 0D 13 490A 0905 Alarm State:  0
Mon Jan 15 08:18:43 PST 2018 ON: 19.99 +20.0 19.61 - 3.4 33.8 02 14 482E 092A Alarm State:  0
Mon Jan 15 08:17:42 PST 2018 ON: 20.02 +20.0 19.69 - 5.0 32.8 0D 14 480E 0908 Alarm State:  0
Mon Jan 15 08:16:40 PST 2018 ON: 20.00 +20.0 19.61 - 3.0 33.6 02 14 4827 0917 Alarm State:  0
Mon Jan 15 08:15:39 PST 2018 ON: 19.98 +20.0 19.64 - 4.4 33.1 00 14 4807 0924 Alarm State:  0
Mon Jan 15 08:14:37 PST 2018 ON: 20.05 +20.0 19.63 - 4.2 32.9 00 14 4816 0927 Alarm State:  0
Mon Jan 15 08:13:36 PST 2018 ON: 20.00 +20.0 19.64 - 4.4 32.9 0A 14 472F 092C Alarm State:  0
Mon Jan 15 08:12:34 PST 2018 ON: 20.02 +20.0 19.65 - 4.7 32.6 00 14 4809 090E Alarm State:  0
Mon Jan 15 08:11:33 PST 2018 ON: 20.01 +20.0 19.65 - 4.4 33.0 07 14 4801 092A Alarm State:  0
Mon Jan 15 08:10:31 PST 2018 ON: 20.02 +20.0 19.67 - 4.9 32.4 00 14 480C 0A0A Alarm State:  0
Mon Jan 15 08:09:30 PST 2018 ON: 19.97 +20.0 19.62 - 3.8 33.4 00 14 481C 0A0A Alarm State:  0
Mon Jan 15 08:08:28 PST 2018 ON: 20.04 +20.0 19.69 - 5.7 31.5 05 14 4817 0A1F Alarm State:  0
Mon Jan 15 08:07:27 PST 2018 ON: 19.97 +20.0 19.60 - 3.8 33.2 07 14 4831 0A0B Alarm State:  0
Mon Jan 15 08:06:25 PST 2018 ON: 20.02 +20.0 19.68 - 5.1 32.2 05 14 490F 0917 Alarm State:  0
Mon Jan 15 08:05:24 PST 2018 ON: 20.00 +20.0 19.60 - 3.3 33.7 02 14 4832 0914 Alarm State:  0
Mon Jan 15 08:04:22 PST 2018 ON: 20.02 +20.0 19.67 - 5.0 32.7 00 14 480B 0922 Alarm State:  0
Mon Jan 15 08:03:21 PST 2018 ON: 20.00 +20.0 19.61 - 3.7 33.1 00 14 471E 0906 Alarm State:  0
Mon Jan 15 08:02:19 PST 2018 ON: 20.01 +20.0 19.67 - 5.1 32.6 05 14 462E 0A10 Alarm State:  0
Mon Jan 15 08:01:18 PST 2018 ON: 19.98 +20.0 19.58 - 2.9 33.8 04 14 4802 090E Alarm State:  0
Mon Jan 15 08:00:16 PST 2018 ON: 20.02 +20.0 19.70 - 5.9 31.9 0D 14 4722 0A0A Alarm State:  0
Mon Jan 15 07:59:15 PST 2018 ON: 19.98 +20.0 19.58 - 3.3 33.8 09 14 4823 091A Alarm State:  0
Mon Jan 15 07:58:13 PST 2018 ON: 20.01 +20.0 19.71 - 5.8 32.0 0D 13 4826 0927 Alarm State:  0
Mon Jan 15 07:57:12 PST 2018 ON: 19.97 +20.0 19.58 - 3.0 33.9 09 14 4919 0916 Alarm State:  0
Mon Jan 15 07:56:10 PST 2018 ON: 20.01 +20.0 19.67 - 4.9 32.7 0D 14 490E 0910 Alarm State:  0
Mon Jan 15 07:55:09 PST 2018 ON: 20.00 +20.0 19.63 - 3.6 33.1 00 14 4918 0918 Alarm State:  0
Mon Jan 15 07:54:07 PST 2018 ON: 20.00 +20.0 19.62 - 4.2 33.3 00 14 4830 091A Alarm State:  0
Mon Jan 15 07:53:06 PST 2018 ON: 20.06 +20.0 19.70 - 5.5 31.8 0D 13 482A 0907 Alarm State:  0
Mon Jan 15 07:52:04 PST 2018 ON: 19.98 +20.0 19.63 - 3.6 33.6 00 14 4904 090E Alarm State:  0
Mon Jan 15 07:51:03 PST 2018 ON: 20.02 +20.0 19.69 - 5.3 32.3 0D 14 4827 0905 Alarm State:  0
Mon Jan 15 07:50:01 PST 2018 ON: 19.99 +20.0 19.58 - 2.6 33.8 01 14 490B 090C Alarm State:  0
Mon Jan 15 07:49:00 PST 2018 ON: 19.99 +20.0 19.65 - 4.6 32.8 00 14 481A 0913 Alarm State:  0
Mon Jan 15 07:47:58 PST 2018 ON: 20.05 +20.0 19.69 - 5.3 32.2 0D 14 4815 0907 Alarm State:  0
Mon Jan 15 07:46:57 PST 2018 ON: 19.99 +20.0 19.62 - 4.0 33.5 0A 14 4821 0930 Alarm State:  0
Mon Jan 15 07:45:55 PST 2018 ON: 20.02 +20.0 19.70 - 5.7 32.2 0A 13 4814 0924 Alarm State:  0
Mon Jan 15 07:44:54 PST 2018 ON: 19.99 +20.0 19.61 - 3.7 33.7 07 14 4830 0925 Alarm State:  0
Mon Jan 15 07:43:52 PST 2018 ON: 20.02 +20.0 19.71 - 5.6 32.2 0A 13 4831 0911 Alarm State:  0
Mon Jan 15 07:42:51 PST 2018 ON: 19.99 +20.0 19.61 - 3.3 33.6 00 14 4900 0927 Alarm State:  0
Mon Jan 15 07:41:49 PST 2018 ON: 20.02 +20.0 19.63 - 3.3 33.9 0A 14 482C 091F Alarm State:  0
Mon Jan 15 07:40:48 PST 2018 ON: 20.01 +20.0 19.67 - 4.9 32.8 07 14 4800 0907 Alarm State:  0
Mon Jan 15 07:39:46 PST 2018 ON: 20.03 +20.0 19.68 - 5.1 32.4 00 14 4726 0907 Alarm State:  0
Mon Jan 15 07:38:45 PST 2018 ON: 19.99 +20.0 19.64 - 4.2 33.3 00 14 472D 0918 Alarm State:  0
Mon Jan 15 07:37:44 PST 2018 ON: 20.02 +20.0 19.68 - 5.2 32.2 0D 14 480A 0916 Alarm State:  0
Mon Jan 15 07:36:42 PST 2018 ON: 20.00 +20.0 19.62 - 3.9 33.3 07 14 481F 0920 Alarm State:  0
Mon Jan 15 07:35:41 PST 2018 ON: 20.04 +20.0 19.64 - 4.2 33.0 00 14 4912 0912 Alarm State:  0
Mon Jan 15 07:34:39 PST 2018 ON: 19.99 +20.0 19.61 - 3.5 33.9 00 14 482E 0916 Alarm State:  0
Mon Jan 15 07:33:38 PST 2018 ON: 20.01 +20.0 19.70 - 5.4 32.7 0D 13 480C 091D Alarm State:  0
Mon Jan 15 07:32:36 PST 2018 ON: 20.00 +20.0 19.60 - 2.9 33.9 0C 14 4813 0907 Alarm State:  0
Mon Jan 15 07:31:35 PST 2018 ON: 20.02 +20.0 19.68 - 5.2 32.8 05 14 4714 0910 Alarm State:  0
Mon Jan 15 07:30:33 PST 2018 ON: 20.00 +20.0 19.62 - 3.3 33.8 05 14 4719 0925 Alarm State:  0
Mon Jan 15 07:29:32 PST 2018 ON: 20.03 +20.0 19.72 - 6.1 31.8 0D 13 462B 0B07 Alarm State:  0
Mon Jan 15 07:28:30 PST 2018 ON: 19.95 +20.0 19.59 - 3.5 33.6 00 14 472F 0A0C Alarm State:  0
Mon Jan 15 07:27:29 PST 2018 ON: 20.03 +20.0 19.67 - 4.7 32.8 00 14 4816 0A07 Alarm State:  0
Mon Jan 15 07:26:27 PST 2018 ON: 19.98 +20.0 19.63 - 4.5 32.8 07 14 4811 0A16 Alarm State:  0
Mon Jan 15 07:25:26 PST 2018 ON: 20.02 +20.0 19.64 - 3.8 33.2 07 14 4914 0916 Alarm State:  0
Mon Jan 15 07:24:24 PST 2018 ON: 19.99 +20.0 19.63 - 3.6 33.8 00 14 4923 0919 Alarm State:  0
Mon Jan 15 07:23:23 PST 2018 ON: 20.03 +20.0 19.66 - 4.7 33.0 07 14 4907 091A Alarm State:  0
Mon Jan 15 07:22:21 PST 2018 ON: 20.02 +20.0 19.68 - 5.0 32.7 0D 14 481F 0920 Alarm State:  0
Mon Jan 15 07:21:20 PST 2018 ON: 19.98 +20.0 19.62 - 3.8 33.7 07 14 4819 0919 Alarm State:  0
Mon Jan 15 07:20:18 PST 2018 ON: 20.04 +20.0 19.70 - 5.6 32.4 0D 13 4802 0917 Alarm State:  0
Mon Jan 15 07:19:17 PST 2018 ON: 20.00 +20.0 19.59 - 3.3 33.8 0D 14 480E 091D Alarm State:  0
Mon Jan 15 07:18:15 PST 2018 ON: 20.00 +20.0 19.71 - 5.8 32.1 0D 13 4730 0A13 Alarm State:  0
Mon Jan 15 07:17:14 PST 2018 ON: 19.97 +20.0 19.60 - 3.5 33.7 05 14 4900 0917 Alarm State:  0
Mon Jan 15 07:16:12 PST 2018 ON: 20.02 +20.0 19.72 - 5.7 32.0 0D 12 4901 091E Alarm State:  0
Mon Jan 15 07:15:11 PST 2018 ON: 19.98 +20.0 19.64 - 3.8 33.3 07 14 4919 091E Alarm State:  0
Mon Jan 15 07:14:09 PST 2018 ON: 20.05 +20.0 19.68 - 5.4 32.1 0A 14 4910 090E Alarm State:  0
Mon Jan 15 07:13:08 PST 2018 ON: 20.03 +20.0 19.64 - 3.8 33.7 0C 14 4900 090D Alarm State:  0
Mon Jan 15 07:11:56 PST 2018 ON: 19.99 +20.0 19.66 - 4.7 32.9 00 14 480E 0923 Alarm State:  0
Mon Jan 15 07:10:55 PST 2018 ON: 20.04 +20.0 19.65 - 4.7 32.6 00 14 4805 091D Alarm State:  0
Mon Jan 15 07:09:53 PST 2018 ON: 19.99 +20.0 19.64 - 4.1 33.4 0C 14 4726 0918 Alarm State:  0
Mon Jan 15 07:08:52 PST 2018 ON: 20.03 +20.0 19.70 - 5.2 32.6 0D 13 4722 0909 Alarm State:  0
Mon Jan 15 07:07:50 PST 2018 ON: 20.00 +20.0 19.60 - 3.3 33.3 00 14 471F 0A03 Alarm State:  0
Mon Jan 15 07:06:49 PST 2018 ON: 19.98 +20.0 19.64 - 5.1 32.6 0A 14 4708 0B01 Alarm State:  0
Mon Jan 15 07:05:47 PST 2018 ON: 19.97 +20.0 19.55 - 2.5 33.7 01 14 4813 092D Alarm State:  0
Mon Jan 15 07:04:46 PST 2018 ON: 19.98 +20.0 19.66 - 5.3 32.3 00 14 480C 0A21 Alarm State:  0
Mon Jan 15 07:03:44 PST 2018 ON: 19.98 +20.0 19.57 - 2.7 33.8 07 14 490F 0929 Alarm State:  0
Mon Jan 15 07:02:43 PST 2018 ON: 20.01 +20.0 19.66 - 4.7 32.9 00 14 482B 0921 Alarm State:  0
Mon Jan 15 07:01:41 PST 2018 ON: 20.01 +20.0 19.66 - 4.8 32.6 00 14 4807 0909 Alarm State:  0
Mon Jan 15 07:00:40 PST 2018 ON: 20.01 +20.0 19.65 - 4.7 32.8 00 14 4719 090F Alarm State:  0
Mon Jan 15 06:59:39 PST 2018 ON: 20.03 +20.0 19.70 - 5.6 31.8 0A 13 471F 0925 Alarm State:  0
Mon Jan 15 06:58:37 PST 2018 ON: 19.98 +20.0 19.63 - 4.0 33.2 00 14 4732 0931 Alarm State:  0
Mon Jan 15 06:57:36 PST 2018 ON: 20.07 +20.0 19.66 - 4.6 32.6 00 14 4811 0908 Alarm State:  0
Mon Jan 15 06:56:34 PST 2018 ON: 19.98 +20.0 19.63 - 4.6 32.8 00 14 472B 090E Alarm State:  0
Mon Jan 15 06:55:33 PST 2018 ON: 20.02 +20.0 19.65 - 4.8 32.2 00 14 472F 0926 Alarm State:  0
Mon Jan 15 06:54:31 PST 2018 ON: 20.01 +20.0 19.64 - 4.4 32.9 0C 14 4724 0A16 Alarm State:  0
Mon Jan 15 06:53:30 PST 2018 ON: 20.04 +20.0 19.69 - 5.5 31.8 08 14 472A 0A1E Alarm State:  0
Mon Jan 15 06:52:28 PST 2018 ON: 19.95 +20.0 19.59 - 4.2 32.6 00 14 4806 0A28 Alarm State:  0
Mon Jan 15 06:51:27 PST 2018 ON: 20.02 +20.0 19.60 - 3.1 33.2 00 14 490B 0903 Alarm State:  0
Mon Jan 15 06:50:25 PST 2018 ON: 20.00 +20.0 19.62 - 3.6 33.4 00 14 4811 0915 Alarm State:  0
Mon Jan 15 06:49:24 PST 2018 ON: 19.99 +20.0 19.68 - 5.7 32.1 02 14 4710 0928 Alarm State:  0
Mon Jan 15 06:48:22 PST 2018 ON: 19.99 +20.0 19.60 - 3.1 33.7 0C 14 4808 0916 Alarm State:  0
Mon Jan 15 06:47:21 PST 2018 ON: 20.00 +20.0 19.69 - 5.5 32.3 0D 14 472B 090F Alarm State:  0
Mon Jan 15 06:46:19 PST 2018 ON: 19.99 +20.0 19.59 - 3.0 33.6 00 14 481D 0906 Alarm State:  0
Mon Jan 15 06:45:18 PST 2018 ON: 20.02 +20.0 19.66 - 5.2 32.4 05 14 4809 092C Alarm State:  0
Mon Jan 15 06:44:16 PST 2018 ON: 19.99 +20.0 19.58 - 3.0 33.5 00 14 490D 0909 Alarm State:  0
Mon Jan 15 06:43:15 PST 2018 ON: 19.98 +20.0 19.65 - 4.6 32.7 05 14 4905 0925 Alarm State:  0
Mon Jan 15 06:42:13 PST 2018 ON: 20.01 +20.0 19.62 - 3.5 33.4 00 14 4A0B 0906 Alarm State:  0
Mon Jan 15 06:41:12 PST 2018 ON: 19.99 +20.0 19.64 - 4.1 33.6 00 14 492C 090B Alarm State:  0
Mon Jan 15 06:40:10 PST 2018 ON: 20.04 +20.0 19.72 - 5.5 32.6 0D 12 4913 0909 Alarm State:  0
Mon Jan 15 06:39:09 PST 2018 ON: 20.01 +20.0 19.60 - 3.3 33.7 00 14 4921 091D Alarm State:  0
Mon Jan 15 06:38:07 PST 2018 ON: 20.01 +20.0 19.63 - 4.0 33.8 0A 14 4902 0927 Alarm State:  0
Mon Jan 15 06:37:06 PST 2018 ON: 20.00 +20.0 19.65 - 4.4 33.5 07 14 4906 0928 Alarm State:  0
Mon Jan 15 06:36:04 PST 2018 ON: 20.01 +20.0 19.68 - 5.0 32.9 0A 14 482C 0926 Alarm State:  0
Mon Jan 15 06:35:03 PST 2018 ON: 20.04 +20.0 19.67 - 4.8 32.9 07 14 4820 0902 Alarm State:  0
Mon Jan 15 06:34:01 PST 2018 ON: 19.99 +20.0 19.61 - 4.3 33.0 00 14 4811 0902 Alarm State:  0
Mon Jan 15 06:33:00 PST 2018 ON: 19.99 +20.0 19.63 - 4.5 33.0 07 14 4802 092B Alarm State:  0
Mon Jan 15 06:31:58 PST 2018 ON: 20.02 +20.0 19.69 - 5.3 32.4 0A 14 481B 0A01 Alarm State:  0
Mon Jan 15 06:30:57 PST 2018 ON: 19.97 +20.0 19.63 - 4.0 33.4 00 14 482B 0931 Alarm State:  0
Mon Jan 15 06:29:55 PST 2018 ON: 20.04 +20.0 19.67 - 4.9 32.7 0A 14 490B 090D Alarm State:  0
Mon Jan 15 06:28:54 PST 2018 ON: 20.01 +20.0 19.61 - 3.2 33.7 02 14 4909 090C Alarm State:  0
Mon Jan 15 06:27:52 PST 2018 ON: 19.99 +20.0 19.65 - 4.7 33.2 00 14 480D 0918 Alarm State:  0
Mon Jan 15 06:26:51 PST 2018 ON: 20.06 +20.0 19.71 - 6.0 31.8 0D 13 4728 091B Alarm State:  0
Mon Jan 15 06:25:49 PST 2018 ON: 19.97 +20.0 19.62 - 4.3 33.2 00 14 4731 092F Alarm State:  0
Mon Jan 15 06:24:48 PST 2018 ON: 20.01 +20.0 19.63 - 4.4 32.9 00 14 4820 0921 Alarm State:  0
Mon Jan 15 06:23:46 PST 2018 ON: 19.99 +20.0 19.64 - 4.5 32.9 07 14 481D 0A11 Alarm State:  0
Mon Jan 15 06:22:45 PST 2018 ON: 20.01 +20.0 19.59 - 3.0 33.5 00 14 4920 091D Alarm State:  0
Mon Jan 15 06:21:43 PST 2018 ON: 20.02 +20.0 19.66 - 4.6 33.1 02 14 482C 092B Alarm State:  0
Mon Jan 15 06:20:42 PST 2018 ON: 20.05 +20.0 19.65 - 4.5 32.9 00 14 4905 0910 Alarm State:  0
Mon Jan 15 06:19:40 PST 2018 ON: 19.96 +20.0 19.61 - 4.3 33.3 00 14 4831 0930 Alarm State:  0
Mon Jan 15 06:18:39 PST 2018 ON: 20.03 +20.0 19.68 - 5.5 32.3 0D 14 4908 090D Alarm State:  0
Mon Jan 15 06:17:37 PST 2018 ON: 20.00 +20.0 19.63 - 3.4 33.8 05 14 4905 0901 Alarm State:  0
Mon Jan 15 06:16:36 PST 2018 ON: 19.98 +20.0 19.64 - 5.1 32.9 05 14 481A 0931 Alarm State:  0
Mon Jan 15 06:15:34 PST 2018 ON: 20.01 +20.0 19.57 - 2.7 33.8 0D 14 4920 0914 Alarm State:  0
Mon Jan 15 06:14:33 PST 2018 ON: 20.00 +20.0 19.66 - 4.8 33.0 05 14 4904 0917 Alarm State:  0
Mon Jan 15 06:13:31 PST 2018 ON: 19.99 +20.0 19.57 - 2.7 33.8 01 14 4929 0906 Alarm State:  0
Mon Jan 15 06:12:30 PST 2018 ON: 20.03 +20.0 19.66 - 4.6 33.4 00 14 490B 090D Alarm State:  0
Mon Jan 15 06:11:28 PST 2018 ON: 20.00 +20.0 19.68 - 5.3 32.7 0A 14 4825 0917 Alarm State:  0
Mon Jan 15 06:10:27 PST 2018 ON: 19.98 +20.0 19.56 - 2.7 33.8 00 14 490C 0913 Alarm State:  0
Mon Jan 15 06:09:25 PST 2018 ON: 20.01 +20.0 19.68 - 5.6 32.5 0D 14 481E 0A17 Alarm State:  0
Mon Jan 15 06:08:24 PST 2018 ON: 19.98 +20.0 19.57 - 3.0 33.9 09 14 4917 092D Alarm State:  0
Mon Jan 15 06:07:22 PST 2018 ON: 20.01 +20.0 19.65 - 4.9 32.8 02 14 490A 0925 Alarm State:  0
Mon Jan 15 06:06:21 PST 2018 ON: 20.03 +20.0 19.61 - 3.4 33.4 00 14 4918 0908 Alarm State:  0
Mon Jan 15 06:05:19 PST 2018 ON: 19.99 +20.0 19.66 - 4.5 33.1 00 14 4820 0916 Alarm State:  0
Mon Jan 15 06:04:18 PST 2018 ON: 20.02 +20.0 19.68 - 5.5 32.2 08 14 481C 0907 Alarm State:  0
Mon Jan 15 06:03:16 PST 2018 ON: 19.99 +20.0 19.65 - 3.9 33.6 07 14 482B 090E Alarm State:  0
Mon Jan 15 06:02:15 PST 2018 ON: 20.01 +20.0 19.69 - 5.4 32.6 0D 14 4815 0907 Alarm State:  0
Mon Jan 15 06:01:13 PST 2018 ON: 20.03 +20.0 19.62 - 3.8 33.4 02 14 4802 090D Alarm State:  0
Mon Jan 15 06:00:12 PST 2018 ON: 19.99 +20.0 19.65 - 4.8 32.8 0A 14 471F 0A0E Alarm State:  0
Mon Jan 15 05:59:10 PST 2018 ON: 20.00 +20.0 19.58 - 3.2 33.4 00 14 481D 0919 Alarm State:  0
Mon Jan 15 05:58:09 PST 2018 ON: 19.99 +20.0 19.63 - 4.6 33.1 07 14 4815 0A0C Alarm State:  0
Mon Jan 15 05:57:07 PST 2018 ON: 19.98 +20.0 19.55 - 2.4 33.8 00 14 491F 0905 Alarm State:  0
Mon Jan 15 05:56:06 PST 2018 ON: 19.98 +20.0 19.64 - 4.7 32.8 02 14 490B 0A02 Alarm State:  0
Mon Jan 15 05:55:04 PST 2018 ON: 20.02 +20.0 19.62 - 3.7 33.4 00 14 4928 0906 Alarm State:  0
Mon Jan 15 05:54:03 PST 2018 ON: 20.02 +20.0 19.67 - 4.9 32.8 00 14 4825 091B Alarm State:  0
Mon Jan 15 05:53:01 PST 2018 ON: 20.05 +20.0 19.66 - 4.2 33.3 00 14 4802 0904 Alarm State:  0
Mon Jan 15 05:52:00 PST 2018 ON: 20.02 +20.0 19.61 - 3.6 33.6 00 14 4719 0A05 Alarm State:  0
Mon Jan 15 05:50:58 PST 2018 ON: 19.97 +20.0 19.65 - 5.1 32.6 05 14 470C 0A31 Alarm State:  0
Mon Jan 15 05:49:57 PST 2018 ON: 19.97 +20.0 19.54 - 2.4 34.0 07 14 4815 0929 Alarm State:  0
Mon Jan 15 05:48:55 PST 2018 ON: 20.00 +20.0 19.68 - 5.5 32.4 00 14 4725 0929 Alarm State:  0
Mon Jan 15 05:47:54 PST 2018 ON: 19.97 +20.0 19.62 - 3.5 33.8 07 14 4812 091D Alarm State:  0
Mon Jan 15 05:46:52 PST 2018 ON: 20.05 +20.0 19.68 - 5.0 32.8 02 14 472E 0915 Alarm State:  0
Mon Jan 15 05:45:51 PST 2018 ON: 20.06 +20.0 19.67 - 4.7 32.8 00 14 4700 0928 Alarm State:  0
Mon Jan 15 05:44:49 PST 2018 ON: 19.97 +20.0 19.65 - 4.7 32.7 07 14 4624 0A22 Alarm State:  0
Mon Jan 15 05:43:48 PST 2018 ON: 20.03 +20.0 19.64 - 4.2 32.9 00 14 470F 0A1C Alarm State:  0
Mon Jan 15 05:42:46 PST 2018 ON: 19.98 +20.0 19.63 - 4.9 32.6 07 14 4706 0B06 Alarm State:  0
Mon Jan 15 05:41:45 PST 2018 ON: 19.97 +20.0 19.54 - 2.2 34.0 0C 14 4811 092C Alarm State:  0
Mon Jan 15 05:40:43 PST 2018 ON: 20.00 +20.0 19.71 - 6.1 31.9 0A 13 4727 0A24 Alarm State:  0
Mon Jan 15 05:39:42 PST 2018 ON: 19.96 +20.0 19.61 - 3.9 33.3 02 14 4822 0A15 Alarm State:  0
Mon Jan 15 05:38:40 PST 2018 ON: 20.03 +20.0 19.67 - 4.7 32.9 0A 14 4908 0913 Alarm State:  0
Mon Jan 15 05:37:39 PST 2018 ON: 20.02 +20.0 19.65 - 4.6 32.8 00 14 4811 0926 Alarm State:  0
Mon Jan 15 05:36:37 PST 2018 ON: 20.00 +20.0 19.62 - 3.5 33.8 02 14 481E 0910 Alarm State:  0
Mon Jan 15 05:35:36 PST 2018 ON: 20.03 +20.0 19.68 - 5.0 32.9 0A 14 4808 0A13 Alarm State:  0
Mon Jan 15 05:34:34 PST 2018 ON: 19.96 +20.0 19.58 - 3.1 33.9 04 14 4904 092A Alarm State:  0
Mon Jan 15 05:33:33 PST 2018 ON: 20.00 +20.0 19.67 - 5.4 32.5 00 14 481B 0929 Alarm State:  0
Mon Jan 15 05:32:31 PST 2018 ON: 20.01 +20.0 19.58 - 3.1 33.8 0D 14 4909 0922 Alarm State:  0
Mon Jan 15 05:31:30 PST 2018 ON: 20.00 +20.0 19.66 - 5.0 32.7 05 14 481C 0927 Alarm State:  0
Mon Jan 15 05:30:28 PST 2018 ON: 19.98 +20.0 19.57 - 2.5 33.8 00 14 4916 0915 Alarm State:  0
Mon Jan 15 05:29:27 PST 2018 ON: 20.02 +20.0 19.65 - 4.6 33.0 05 14 4900 091A Alarm State:  0
Mon Jan 15 05:28:25 PST 2018 ON: 20.02 +20.0 19.69 - 5.1 32.7 0D 14 4903 090C Alarm State:  0
Mon Jan 15 05:27:24 PST 2018 ON: 20.00 +20.0 19.67 - 5.0 32.7 00 14 480A 091F Alarm State:  0
Mon Jan 15 05:26:22 PST 2018 ON: 20.00 +20.0 19.60 - 3.1 33.7 05 14 4815 0913 Alarm State:  0
Mon Jan 15 05:25:21 PST 2018 ON: 19.99 +20.0 19.64 - 4.9 32.8 00 14 4728 091A Alarm State:  0
Mon Jan 15 05:24:19 PST 2018 ON: 20.00 +20.0 19.56 - 2.6 33.8 00 14 4826 0907 Alarm State:  0
Mon Jan 15 05:23:18 PST 2018 ON: 20.02 +20.0 19.67 - 4.9 32.8 07 14 4731 0914 Alarm State:  0
Mon Jan 15 05:22:16 PST 2018 ON: 19.99 +20.0 19.57 - 2.6 33.8 00 14 4819 0907 Alarm State:  0
Mon Jan 15 05:21:15 PST 2018 ON: 20.02 +20.0 19.69 - 5.2 32.7 0A 14 4712 091A Alarm State:  0
Mon Jan 15 05:20:13 PST 2018 ON: 20.01 +20.0 19.62 - 3.3 33.7 0A 14 4715 090A Alarm State:  0
Mon Jan 15 05:19:12 PST 2018 ON: 20.02 +20.0 19.69 - 5.9 32.1 00 14 4617 0A18 Alarm State:  0
Mon Jan 15 05:18:10 PST 2018 ON: 19.98 +20.0 19.59 - 3.5 33.9 09 14 4718 0922 Alarm State:  0
Mon Jan 15 05:17:09 PST 2018 ON: 20.01 +20.0 19.72 - 6.3 31.6 0D 13 4717 0A0A Alarm State:  0
Mon Jan 15 05:16:07 PST 2018 ON: 19.95 +20.0 19.60 - 4.1 33.1 02 14 4808 092A Alarm State:  0
Mon Jan 15 05:15:06 PST 2018 ON: 20.03 +20.0 19.66 - 4.7 32.8 00 14 482C 090C Alarm State:  0
Mon Jan 15 05:14:04 PST 2018 ON: 19.99 +20.0 19.64 - 4.2 33.4 0A 14 481F 0906 Alarm State:  0
Mon Jan 15 05:13:03 PST 2018 ON: 20.02 +20.0 19.72 - 5.8 32.3 0A 12 480A 0900 Alarm State:  0
Mon Jan 15 05:12:01 PST 2018 ON: 20.01 +20.0 19.60 - 3.4 33.8 0A 14 4806 091A Alarm State:  0
Mon Jan 15 05:11:00 PST 2018 ON: 19.98 +20.0 19.69 - 5.6 32.4 0D 14 4718 0A22 Alarm State:  0
Mon Jan 15 05:09:58 PST 2018 ON: 19.95 +20.0 19.56 - 3.0 34.0 01 14 4819 0A00 Alarm State:  0
Mon Jan 15 05:08:57 PST 2018 ON: 20.02 +20.0 19.67 - 4.7 33.0 0D 14 4810 091E Alarm State:  0
Mon Jan 15 05:07:55 PST 2018 ON: 20.02 +20.0 19.67 - 5.0 32.5 02 14 4802 0921 Alarm State:  0
Mon Jan 15 05:06:54 PST 2018 ON: 19.98 +20.0 19.60 - 4.1 33.1 02 14 4809 0A03 Alarm State:  0
Mon Jan 15 05:05:52 PST 2018 ON: 20.04 +20.0 19.69 - 4.8 32.8 0A 14 481B 0913 Alarm State:  0
Mon Jan 15 05:04:51 PST 2018 ON: 20.02 +20.0 19.66 - 4.5 32.9 00 14 472D 0921 Alarm State:  0
Mon Jan 15 05:03:49 PST 2018 ON: 19.96 +20.0 19.61 - 4.3 33.0 02 14 471D 0A14 Alarm State:  0
Mon Jan 15 05:02:48 PST 2018 ON: 20.02 +20.0 19.60 - 3.6 33.3 05 14 481D 091B Alarm State:  0
Mon Jan 15 05:01:46 PST 2018 ON: 20.01 +20.0 19.65 - 4.3 33.6 0C 14 4801 0920 Alarm State:  0
Mon Jan 15 05:00:45 PST 2018 ON: 20.01 +20.0 19.71 - 5.8 32.1 08 13 4721 0926 Alarm State:  0
Mon Jan 15 04:59:43 PST 2018 ON: 19.98 +20.0 19.63 - 3.8 33.6 05 14 481A 0920 Alarm State:  0
Mon Jan 15 04:58:42 PST 2018 ON: 20.00 +20.0 19.68 - 5.0 32.7 0A 14 4819 0906 Alarm State:  0
Mon Jan 15 04:57:40 PST 2018 ON: 20.00 +20.0 19.60 - 3.2 33.4 00 14 482D 0912 Alarm State:  0
Mon Jan 15 04:56:39 PST 2018 ON: 20.02 +20.0 19.66 - 4.6 33.1 07 14 4804 091C Alarm State:  0
Mon Jan 15 04:55:37 PST 2018 ON: 20.02 +20.0 19.68 - 4.7 32.6 0A 14 4812 0907 Alarm State:  0
Mon Jan 15 04:54:36 PST 2018 ON: 20.02 +20.0 19.62 - 3.8 33.2 00 14 4809 0924 Alarm State:  0
Mon Jan 15 04:53:34 PST 2018 ON: 20.00 +20.0 19.64 - 4.8 32.9 00 14 4717 0A02 Alarm State:  0
Mon Jan 15 04:52:33 PST 2018 ON: 19.99 +20.0 19.56 - 2.6 33.8 00 14 481D 0903 Alarm State:  0
Mon Jan 15 04:51:31 PST 2018 ON: 19.99 +20.0 19.67 - 4.6 33.0 00 14 4730 090A Alarm State:  0
Mon Jan 15 04:50:30 PST 2018 ON: 20.07 +20.0 19.69 - 5.4 32.1 08 14 4723 091F Alarm State:  0
Mon Jan 15 04:49:28 PST 2018 ON: 19.98 +20.0 19.64 - 4.3 32.9 07 14 4731 092A Alarm State:  0
Mon Jan 15 04:48:27 PST 2018 ON: 20.01 +20.0 19.65 - 4.3 32.9 00 14 482B 090D Alarm State:  0
Mon Jan 15 04:47:25 PST 2018 ON: 20.02 +20.0 19.62 - 3.6 33.7 0A 14 4829 0923 Alarm State:  0
Mon Jan 15 04:46:24 PST 2018 ON: 20.00 +20.0 19.71 - 5.4 32.6 0D 13 4814 091B Alarm State:  0
Mon Jan 15 04:45:22 PST 2018 ON: 19.98 +20.0 19.56 - 3.1 33.9 04 14 4905 0919 Alarm State:  0
Mon Jan 15 04:44:21 PST 2018 ON: 20.01 +20.0 19.66 - 4.8 33.0 05 14 481F 0913 Alarm State:  0
Mon Jan 15 04:43:19 PST 2018 ON: 19.98 +20.0 19.59 - 3.0 33.9 00 14 4908 0919 Alarm State:  0
Mon Jan 15 04:42:18 PST 2018 ON: 20.01 +20.0 19.67 - 4.8 32.9 00 14 4816 0923 Alarm State:  0
Mon Jan 15 04:41:16 PST 2018 ON: 20.02 +20.0 19.61 - 3.1 33.5 02 14 4822 0914 Alarm State:  0
Mon Jan 15 04:40:15 PST 2018 ON: 20.03 +20.0 19.68 - 4.6 33.2 05 14 4724 0924 Alarm State:  0
Mon Jan 15 04:39:13 PST 2018 ON: 20.03 +20.0 19.70 - 5.7 32.4 0D 13 4714 091F Alarm State:  0
Mon Jan 15 04:38:12 PST 2018 ON: 19.96 +20.0 19.61 - 3.8 33.7 0A 14 4731 0921 Alarm State:  0
Mon Jan 15 04:37:10 PST 2018 ON: 20.03 +20.0 19.72 - 6.1 31.9 0A 13 472B 0A0E Alarm State:  0
Mon Jan 15 04:36:09 PST 2018 ON: 19.96 +20.0 19.62 - 3.6 33.7 05 14 481B 0A07 Alarm State:  0
Mon Jan 15 04:35:07 PST 2018 ON: 20.01 +20.0 19.66 - 5.0 32.5 00 14 4825 0914 Alarm State:  0
Mon Jan 15 04:34:06 PST 2018 ON: 20.00 +20.0 19.62 - 3.6 33.8 0C 14 481C 0914 Alarm State:  0
Mon Jan 15 04:33:04 PST 2018 ON: 20.01 +20.0 19.67 - 4.7 32.9 07 14 480A 091B Alarm State:  0
Mon Jan 15 04:32:03 PST 2018 ON: 20.04 +20.0 19.62 - 3.3 33.5 00 14 480F 090B Alarm State:  0
Mon Jan 15 04:31:01 PST 2018 ON: 20.04 +20.0 19.68 - 4.6 33.3 05 14 4706 0920 Alarm State:  0
Mon Jan 15 04:30:00 PST 2018 ON: 20.03 +20.0 19.72 - 6.2 31.8 0D 13 4612 0B01 Alarm State:  0
Mon Jan 15 04:28:58 PST 2018 ON: 19.96 +20.0 19.59 - 3.9 33.3 00 14 462A 0A31 Alarm State:  0
Mon Jan 15 04:27:57 PST 2018 ON: 20.05 +20.0 19.66 - 4.4 33.0 07 14 4712 0A24 Alarm State:  0
Mon Jan 15 04:26:55 PST 2018 ON: 19.98 +20.0 19.64 - 4.9 32.8 0D 14 4703 0B17 Alarm State:  0
Mon Jan 15 04:25:54 PST 2018 ON: 19.96 +20.0 19.53 - 2.2 34.1 04 14 480D 0A0C Alarm State:  0
Mon Jan 15 04:24:52 PST 2018 ON: 20.03 +20.0 19.74 - 6.5 31.7 08 12 472A 0B05 Alarm State:  0
Mon Jan 15 04:23:51 PST 2018 ON: 19.95 +20.0 19.61 - 3.8 33.3 05 14 4822 0A18 Alarm State:  0
Mon Jan 15 04:22:49 PST 2018 ON: 20.01 +20.0 19.62 - 3.9 33.1 00 14 4913 090B Alarm State:  0
Mon Jan 15 04:21:48 PST 2018 ON: 20.01 +20.0 19.66 - 4.2 33.6 0C 14 4821 0919 Alarm State:  0
Mon Jan 15 04:20:47 PST 2018 ON: 20.04 +20.0 19.73 - 5.8 32.3 0D 12 4726 0926 Alarm State:  0
Mon Jan 15 04:19:45 PST 2018 ON: 20.01 +20.0 19.64 - 4.0 33.6 05 14 4721 0926 Alarm State:  0
Mon Jan 15 04:18:43 PST 2018 ON: 20.06 +20.0 19.71 - 5.5 32.6 0D 13 470F 0921 Alarm State:  0
Mon Jan 15 04:17:42 PST 2018 ON: 19.98 +20.0 19.63 - 4.1 33.4 00 14 4708 091B Alarm State:  0
Mon Jan 15 04:16:40 PST 2018 ON: 20.03 +20.0 19.71 - 6.0 31.9 08 13 4627 0A14 Alarm State:  0
Mon Jan 15 04:15:39 PST 2018 ON: 19.98 +20.0 19.61 - 4.2 33.2 0C 14 4703 0A13 Alarm State:  0
Mon Jan 15 04:14:37 PST 2018 ON: 20.02 +20.0 19.63 - 3.6 33.2 00 14 472F 0923 Alarm State:  0
Mon Jan 15 04:13:36 PST 2018 ON: 19.99 +20.0 19.64 - 4.8 32.7 00 14 471C 0A19 Alarm State:  0
Mon Jan 15 04:12:34 PST 2018 ON: 20.00 +20.0 19.55 - 2.5 33.8 07 14 4827 0911 Alarm State:  0
Mon Jan 15 04:11:33 PST 2018 ON: 19.98 +20.0 19.65 - 4.7 32.8 00 14 4808 0917 Alarm State:  0
Mon Jan 15 04:10:31 PST 2018 ON: 20.01 +20.0 19.65 - 4.4 32.9 00 14 4824 0921 Alarm State:  0
Mon Jan 15 04:09:30 PST 2018 ON: 19.99 +20.0 19.63 - 4.2 33.0 0A 14 4825 090D Alarm State:  0
Mon Jan 15 04:08:28 PST 2018 ON: 20.02 +20.0 19.63 - 3.8 33.1 00 14 4831 090D Alarm State:  0
Mon Jan 15 04:07:27 PST 2018 ON: 20.01 +20.0 19.65 - 4.4 33.2 07 14 480C 0917 Alarm State:  0
Mon Jan 15 04:06:25 PST 2018 ON: 20.05 +20.0 19.70 - 5.9 31.8 0D 13 4728 0916 Alarm State:  0
Mon Jan 15 04:05:24 PST 2018 ON: 19.97 +20.0 19.62 - 4.1 33.3 05 14 472F 092B Alarm State:  0
Mon Jan 15 04:04:22 PST 2018 ON: 20.03 +20.0 19.69 - 5.7 31.8 08 14 4729 090C Alarm State:  0
Mon Jan 15 04:03:21 PST 2018 ON: 19.98 +20.0 19.62 - 3.9 33.2 07 14 4801 0915 Alarm State:  0
Mon Jan 15 04:02:19 PST 2018 ON: 20.05 +20.0 19.68 - 4.5 33.0 0A 14 480D 091F Alarm State:  0
Mon Jan 15 04:01:18 PST 2018 ON: 20.01 +20.0 19.62 - 3.6 33.6 05 14 470E 0A0A Alarm State:  0
Mon Jan 15 04:00:16 PST 2018 ON: 20.02 +20.0 19.69 - 5.7 32.2 0C 14 4609 0B1F Alarm State:  0
Mon Jan 15 03:59:15 PST 2018 ON: 19.96 +20.0 19.59 - 3.4 33.7 04 14 4709 0A26 Alarm State:  0
Mon Jan 15 03:58:13 PST 2018 ON: 20.02 +20.0 19.71 - 6.0 31.5 05 14 4701 0B0B Alarm State:  0
Mon Jan 15 03:57:12 PST 2018 ON: 19.97 +20.0 19.59 - 3.9 33.1 07 14 4722 0A2E Alarm State:  0
Mon Jan 15 03:56:10 PST 2018 ON: 20.02 +20.0 19.64 - 3.4 33.4 00 14 4817 0A0C Alarm State:  0
Mon Jan 15 03:55:09 PST 2018 ON: 19.98 +20.0 19.65 - 4.7 33.0 05 14 4801 0B02 Alarm State:  0
Mon Jan 15 03:54:07 PST 2018 ON: 19.99 +20.0 19.57 - 2.6 34.1 04 14 490C 092C Alarm State:  0
Mon Jan 15 03:53:06 PST 2018 ON: 20.01 +20.0 19.67 - 5.0 32.8 05 14 481B 0928 Alarm State:  0
Mon Jan 15 03:52:04 PST 2018 ON: 20.01 +20.0 19.61 - 2.7 33.7 00 14 481D 091B Alarm State:  0
Mon Jan 15 03:51:03 PST 2018 ON: 20.03 +20.0 19.65 - 4.6 33.3 07 14 4717 0906 Alarm State:  0
Mon Jan 15 03:50:01 PST 2018 ON: 20.04 +20.0 19.68 - 5.0 32.5 00 14 462E 0A15 Alarm State:  0
Mon Jan 15 03:49:00 PST 2018 ON: 19.96 +20.0 19.62 - 4.2 33.1 00 14 470A 0A21 Alarm State:  0
Mon Jan 15 03:47:58 PST 2018 ON: 19.99 +20.0 19.56 - 2.4 33.9 04 14 4815 0919 Alarm State:  0
Mon Jan 15 03:46:57 PST 2018 ON: 20.01 +20.0 19.66 - 4.3 33.6 0C 14 4723 0925 Alarm State:  0
Mon Jan 15 03:45:55 PST 2018 ON: 19.98 +20.0 19.69 - 5.2 32.7 0D 14 4707 0930 Alarm State:  0
Mon Jan 15 03:44:54 PST 2018 ON: 20.00 +20.0 19.60 - 3.4 33.9 05 14 4809 091B Alarm State:  0
Mon Jan 15 03:43:52 PST 2018 ON: 20.03 +20.0 19.71 - 5.0 32.8 0D 13 4809 0906 Alarm State:  0
Mon Jan 15 03:42:51 PST 2018 ON: 19.99 +20.0 19.57 - 3.0 33.6 00 14 4816 0919 Alarm State:  0
Mon Jan 15 03:41:49 PST 2018 ON: 20.01 +20.0 19.66 - 4.7 32.9 00 14 471B 0928 Alarm State:  0
Mon Jan 15 03:40:48 PST 2018 ON: 20.03 +20.0 19.67 - 4.7 32.8 00 14 4712 0A1E Alarm State:  0
Mon Jan 15 03:39:46 PST 2018 ON: 19.96 +20.0 19.64 - 4.5 32.8 00 14 470B 0B0B Alarm State:  0
Mon Jan 15 03:38:45 PST 2018 ON: 20.02 +20.0 19.58 - 2.9 33.5 00 14 4813 0A08 Alarm State:  0
Mon Jan 15 03:37:43 PST 2018 ON: 19.98 +20.0 19.63 - 4.3 33.0 05 14 4817 0A1C Alarm State:  0
Mon Jan 15 03:36:42 PST 2018 ON: 19.99 +20.0 19.57 - 2.4 33.9 00 14 4919 091F Alarm State:  0
Mon Jan 15 03:35:40 PST 2018 ON: 20.03 +20.0 19.65 - 3.8 33.7 05 14 4830 0924 Alarm State:  0
Mon Jan 15 03:34:39 PST 2018 ON: 19.98 +20.0 19.66 - 4.6 32.9 02 14 4823 0A01 Alarm State:  0
Mon Jan 15 03:33:38 PST 2018 ON: 20.00 +20.0 19.57 - 2.5 33.8 00 14 491A 0915 Alarm State:  0
Mon Jan 15 03:32:36 PST 2018 ON: 20.01 +20.0 19.66 - 4.3 33.5 00 14 481C 0925 Alarm State:  0
Mon Jan 15 03:31:35 PST 2018 ON: 20.01 +20.0 19.72 - 5.9 32.0 0A 12 4728 090C Alarm State:  0
Mon Jan 15 03:30:33 PST 2018 ON: 19.99 +20.0 19.61 - 3.6 33.8 0A 14 4813 0912 Alarm State:  0
Mon Jan 15 03:29:32 PST 2018 ON: 19.98 +20.0 19.68 - 5.2 32.5 08 14 4816 0927 Alarm State:  0
Mon Jan 15 03:28:30 PST 2018 ON: 19.98 +20.0 19.55 - 2.5 33.9 00 14 4909 091C Alarm State:  0
Mon Jan 15 03:27:29 PST 2018 ON: 20.02 +20.0 19.67 - 4.5 33.4 05 14 481F 0922 Alarm State:  0
Mon Jan 15 03:26:27 PST 2018 ON: 19.99 +20.0 19.70 - 5.4 32.4 0D 13 4805 0927 Alarm State:  0
Mon Jan 15 03:25:26 PST 2018 ON: 20.00 +20.0 19.58 - 3.1 33.9 0C 14 4828 0916 Alarm State:  0
Mon Jan 15 03:24:24 PST 2018 ON: 20.02 +20.0 19.69 - 5.4 32.4 0D 14 4808 0917 Alarm State:  0
Mon Jan 15 03:23:23 PST 2018 ON: 19.99 +20.0 19.59 - 2.9 33.8 01 14 4827 0912 Alarm State:  0
Mon Jan 15 03:22:21 PST 2018 ON: 20.01 +20.0 19.66 - 4.4 33.2 02 14 480D 091F Alarm State:  0
Mon Jan 15 03:21:20 PST 2018 ON: 20.02 +20.0 19.64 - 4.1 33.1 00 14 4802 090F Alarm State:  0
Mon Jan 15 03:20:18 PST 2018 ON: 19.97 +20.0 19.61 - 4.2 33.2 00 14 472D 0A02 Alarm State:  0
Mon Jan 15 03:19:17 PST 2018 ON: 20.02 +20.0 19.60 - 3.5 33.3 00 14 4827 091D Alarm State:  0
Mon Jan 15 03:18:15 PST 2018 ON: 20.00 +20.0 19.66 - 3.9 33.7 0A 14 4813 0920 Alarm State:  0
Mon Jan 15 03:17:14 PST 2018 ON: 20.01 +20.0 19.68 - 4.9 33.2 0A 14 4802 0918 Alarm State:  0
Mon Jan 15 03:16:12 PST 2018 ON: 20.03 +20.0 19.71 - 6.1 31.6 0A 13 462C 0A04 Alarm State:  0
Mon Jan 15 03:15:11 PST 2018 ON: 19.96 +20.0 19.61 - 4.0 33.1 07 14 471C 0927 Alarm State:  0
Mon Jan 15 03:14:09 PST 2018 ON: 20.01 +20.0 19.64 - 4.2 32.9 00 14 480D 090B Alarm State:  0
Mon Jan 15 03:13:08 PST 2018 ON: 20.00 +20.0 19.63 - 4.1 33.5 00 14 4806 091C Alarm State:  0
Mon Jan 15 03:12:06 PST 2018 ON: 20.05 +20.0 19.72 - 5.6 32.2 0D 12 4804 0909 Alarm State:  0
Mon Jan 15 03:11:05 PST 2018 ON: 19.99 +20.0 19.61 - 3.4 33.8 05 14 481B 0916 Alarm State:  0
Mon Jan 15 03:10:03 PST 2018 ON: 20.03 +20.0 19.68 - 5.4 32.5 0D 14 4803 0913 Alarm State:  0
Mon Jan 15 03:09:02 PST 2018 ON: 19.97 +20.0 19.60 - 3.1 34.0 07 14 4810 0927 Alarm State:  0
Mon Jan 15 03:08:00 PST 2018 ON: 20.02 +20.0 19.69 - 4.9 32.9 08 14 4720 0926 Alarm State:  0
Mon Jan 15 03:06:59 PST 2018 ON: 20.02 +20.0 19.62 - 3.3 33.5 07 14 4715 0926 Alarm State:  0
Mon Jan 15 03:05:57 PST 2018 ON: 19.98 +20.0 19.65 - 4.8 33.0 05 14 4619 092F Alarm State:  0
Mon Jan 15 03:04:56 PST 2018 ON: 20.02 +20.0 19.60 - 2.8 33.8 09 14 4721 0910 Alarm State:  0
Mon Jan 15 03:03:54 PST 2018 ON: 19.99 +20.0 19.67 - 4.6 33.1 05 14 470B 0A0F Alarm State:  0
Mon Jan 15 03:02:53 PST 2018 ON: 19.99 +20.0 19.58 - 2.3 33.9 00 14 480F 091E Alarm State:  0
Mon Jan 15 03:01:51 PST 2018 ON: 20.03 +20.0 19.67 - 5.3 32.6 05 14 4722 0923 Alarm State:  0
Mon Jan 15 03:00:50 PST 2018 ON: 19.98 +20.0 19.62 - 3.3 33.9 05 14 4818 0918 Alarm State:  0
Mon Jan 15 02:59:48 PST 2018 ON: 20.02 +20.0 19.72 - 5.6 32.4 0D 12 472F 0917 Alarm State:  0
Mon Jan 15 02:58:47 PST 2018 ON: 20.02 +20.0 19.64 - 3.8 33.6 0A 14 4805 0A07 Alarm State:  0
Mon Jan 15 02:57:45 PST 2018 ON: 20.05 +20.0 19.73 - 6.2 31.6 0D 13 471E 0B00 Alarm State:  0
Mon Jan 15 02:56:44 PST 2018 ON: 19.95 +20.0 19.61 - 4.3 33.1 00 14 4806 0A31 Alarm State:  0
Mon Jan 15 02:55:42 PST 2018 ON: 19.96 +20.0 19.56 - 2.3 34.0 07 14 4911 0927 Alarm State:  0
Mon Jan 15 02:54:41 PST 2018 ON: 20.00 +20.0 19.66 - 4.9 32.5 05 14 482B 0921 Alarm State:  0
Mon Jan 15 02:53:39 PST 2018 ON: 20.01 +20.0 19.61 - 3.5 33.2 00 14 4908 0902 Alarm State:  0
Mon Jan 15 02:52:38 PST 2018 ON: 20.02 +20.0 19.64 - 4.2 33.0 00 14 4822 090A Alarm State:  0
Mon Jan 15 02:51:36 PST 2018 ON: 20.06 +20.0 19.66 - 4.4 32.8 00 14 481A 0A09 Alarm State:  0
Mon Jan 15 02:50:35 PST 2018 ON: 19.96 +20.0 19.65 - 4.7 32.7 00 14 4807 0A31 Alarm State:  0
Mon Jan 15 02:49:33 PST 2018 ON: 19.97 +20.0 19.53 - 2.1 33.9 00 14 4912 0925 Alarm State:  0
Mon Jan 15 02:48:32 PST 2018 ON: 20.01 +20.0 19.67 - 4.5 33.0 07 14 4830 0925 Alarm State:  0
Mon Jan 15 02:47:30 PST 2018 ON: 20.03 +20.0 19.68 - 5.0 32.8 0D 14 481C 0903 Alarm State:  0
Mon Jan 15 02:46:29 PST 2018 ON: 19.98 +20.0 19.63 - 3.9 33.5 0A 14 4815 0916 Alarm State:  0
Mon Jan 15 02:45:27 PST 2018 ON: 20.03 +20.0 19.70 - 5.5 32.6 0D 13 4729 0915 Alarm State:  0
Mon Jan 15 02:44:26 PST 2018 ON: 19.99 +20.0 19.63 - 3.7 33.6 0D 14 4803 0924 Alarm State:  0
Mon Jan 15 02:43:24 PST 2018 ON: 20.00 +20.0 19.71 - 5.8 32.1 0D 13 4716 0925 Alarm State:  0
Mon Jan 15 02:42:23 PST 2018 ON: 20.00 +20.0 19.60 - 3.7 33.4 07 14 480A 0929 Alarm State:  0
Mon Jan 15 02:41:21 PST 2018 ON: 20.06 +20.0 19.71 - 5.9 31.6 0A 13 4806 0912 Alarm State:  0
Mon Jan 15 02:40:20 PST 2018 ON: 19.98 +20.0 19.61 - 4.1 33.0 00 14 480B 092C Alarm State:  0
Mon Jan 15 02:39:18 PST 2018 ON: 20.03 +20.0 19.69 - 5.5 32.0 05 14 4730 091B Alarm State:  0
Mon Jan 15 02:38:17 PST 2018 ON: 20.01 +20.0 19.66 - 4.5 32.6 07 14 4731 0A0B Alarm State:  0
Mon Jan 15 02:37:15 PST 2018 ON: 20.06 +20.0 19.66 - 4.8 32.4 00 14 4810 0A0C Alarm State:  0
Mon Jan 15 02:36:14 PST 2018 ON: 19.97 +20.0 19.65 - 4.6 32.7 00 14 480B 0A2A Alarm State:  0
Mon Jan 15 02:35:12 PST 2018 ON: 19.97 +20.0 19.57 - 2.4 33.8 04 14 4916 0924 Alarm State:  0
Mon Jan 15 02:34:11 PST 2018 ON: 20.05 +20.0 19.67 - 4.6 33.0 0A 14 481F 0926 Alarm State:  0
Mon Jan 15 02:33:09 PST 2018 ON: 20.01 +20.0 19.65 - 4.4 33.0 05 14 4801 0904 Alarm State:  0
Mon Jan 15 02:32:08 PST 2018 ON: 20.00 +20.0 19.70 - 5.6 31.7 0A 13 4800 0923 Alarm State:  0
Mon Jan 15 02:31:06 PST 2018 ON: 19.97 +20.0 19.61 - 4.0 33.2 00 14 4816 0924 Alarm State:  0
Mon Jan 15 02:30:05 PST 2018 ON: 20.04 +20.0 19.72 - 5.4 32.1 0D 12 4825 0925 Alarm State:  0
Mon Jan 15 02:29:03 PST 2018 ON: 20.00 +20.0 19.61 - 3.5 33.6 0C 14 490C 092B Alarm State:  0
Mon Jan 15 02:28:02 PST 2018 ON: 20.01 +20.0 19.71 - 5.6 32.2 0D 13 4828 0921 Alarm State:  0
Mon Jan 15 02:27:00 PST 2018 ON: 19.97 +20.0 19.59 - 3.1 33.7 07 14 490F 091F Alarm State:  0
Mon Jan 15 02:25:59 PST 2018 ON: 20.03 +20.0 19.66 - 4.9 32.4 07 14 4831 091B Alarm State:  0
Mon Jan 15 02:24:57 PST 2018 ON: 20.03 +20.0 19.58 - 3.0 33.2 00 14 4916 091B Alarm State:  0
Mon Jan 15 02:23:56 PST 2018 ON: 20.00 +20.0 19.64 - 4.3 33.0 00 14 4822 0906 Alarm State:  0
Mon Jan 15 02:22:54 PST 2018 ON: 20.04 +20.0 19.69 - 5.5 31.5 05 14 472D 0911 Alarm State:  0
Mon Jan 15 02:21:53 PST 2018 ON: 20.00 +20.0 19.61 - 3.9 33.2 00 14 4801 0924 Alarm State:  0
Mon Jan 15 02:20:51 PST 2018 ON: 20.04 +20.0 19.70 - 5.6 31.7 08 14 4809 0A05 Alarm State:  0
Mon Jan 15 02:19:49 PST 2018 ON: 19.96 +20.0 19.61 - 3.8 33.0 00 14 482E 092F Alarm State:  0
Mon Jan 15 02:18:48 PST 2018 ON: 20.03 +20.0 19.69 - 5.3 31.8 0D 14 4901 0914 Alarm State:  0
Mon Jan 15 02:17:46 PST 2018 ON: 20.00 +20.0 19.61 - 3.4 33.5 0A 14 481A 0914 Alarm State:  0
Mon Jan 15 02:16:45 PST 2018 ON: 20.04 +20.0 19.70 - 5.6 32.0 0D 13 472B 091D Alarm State:  0
Mon Jan 15 02:15:44 PST 2018 ON: 19.97 +20.0 19.61 - 3.7 33.3 0C 14 480D 0927 Alarm State:  0
Mon Jan 15 02:14:42 PST 2018 ON: 20.02 +20.0 19.72 - 5.9 31.3 0A 12 472E 0920 Alarm State:  0
Mon Jan 15 02:13:41 PST 2018 ON: 19.99 +20.0 19.61 - 3.8 33.1 07 14 4808 092A Alarm State:  0
Mon Jan 15 02:12:39 PST 2018 ON: 20.04 +20.0 19.69 - 5.1 32.0 08 14 480C 0917 Alarm State:  0
Mon Jan 15 02:11:38 PST 2018 ON: 19.98 +20.0 19.61 - 3.8 33.3 0C 14 480D 0931 Alarm State:  0
Mon Jan 15 02:10:36 PST 2018 ON: 20.03 +20.0 19.69 - 4.7 32.6 0D 14 481B 0908 Alarm State:  0
Mon Jan 15 02:09:35 PST 2018 ON: 20.00 +20.0 19.59 - 2.6 33.9 00 14 4812 0904 Alarm State:  0
Mon Jan 15 02:08:23 PST 2018 ON: 19.97 +20.0 19.67 - 5.3 32.4 05 14 4710 0A1F Alarm State:  0
Mon Jan 15 02:07:22 PST 2018 ON: 19.99 +20.0 19.60 - 3.0 34.1 0A 14 481A 091C Alarm State:  0
Mon Jan 15 02:06:20 PST 2018 ON: 20.07 +20.0 19.70 - 5.1 32.8 0D 13 4808 0911 Alarm State:  0
Mon Jan 15 02:05:19 PST 2018 ON: 20.02 +20.0 19.62 - 3.5 33.6 07 14 4712 091F Alarm State:  0
Mon Jan 15 02:04:17 PST 2018 ON: 19.99 +20.0 19.65 - 4.7 32.9 07 14 461C 0A26 Alarm State:  0
Mon Jan 15 02:03:16 PST 2018 ON: 19.99 +20.0 19.55 - 2.5 33.8 00 14 471C 0A03 Alarm State:  0
Mon Jan 15 02:02:14 PST 2018 ON: 19.98 +20.0 19.64 - 4.8 32.9 05 14 4708 0A2B Alarm State:  0
Mon Jan 15 02:01:13 PST 2018 ON: 19.98 +20.0 19.56 - 2.4 33.9 01 14 4810 0928 Alarm State:  0
Mon Jan 15 02:00:11 PST 2018 ON: 20.00 +20.0 19.65 - 4.4 33.0 07 14 480C 091B Alarm State:  0
Mon Jan 15 01:59:10 PST 2018 ON: 20.01 +20.0 19.58 - 2.8 33.6 00 14 482F 0916 Alarm State:  0
Mon Jan 15 01:58:08 PST 2018 ON: 19.98 +20.0 19.64 - 4.3 33.1 00 14 480D 091D Alarm State:  0
Mon Jan 15 01:57:07 PST 2018 ON: 20.03 +20.0 19.59 - 3.1 33.5 00 14 482C 091A Alarm State:  0
Mon Jan 15 01:56:05 PST 2018 ON: 20.00 +20.0 19.63 - 4.3 33.1 07 14 4808 091F Alarm State:  0
Mon Jan 15 01:55:04 PST 2018 ON: 20.02 +20.0 19.64 - 3.9 33.2 00 14 481F 0916 Alarm State:  0
Mon Jan 15 01:54:02 PST 2018 ON: 19.99 +20.0 19.64 - 4.2 33.0 00 14 4807 0917 Alarm State:  0
Mon Jan 15 01:53:01 PST 2018 ON: 20.05 +20.0 19.67 - 5.1 32.5 00 14 480C 0905 Alarm State:  0
Mon Jan 15 01:51:59 PST 2018 ON: 20.00 +20.0 19.62 - 4.2 33.1 07 14 472F 092A Alarm State:  0
Mon Jan 15 01:50:58 PST 2018 ON: 20.01 +20.0 19.69 - 4.9 32.9 0D 14 4807 0908 Alarm State:  0
Mon Jan 15 01:49:56 PST 2018 ON: 20.01 +20.0 19.60 - 3.0 33.7 00 14 4805 0928 Alarm State:  0
Mon Jan 15 01:48:55 PST 2018 ON: 19.99 +20.0 19.67 - 4.9 32.7 0C 14 4715 0A07 Alarm State:  0
Mon Jan 15 01:47:53 PST 2018 ON: 19.98 +20.0 19.59 - 2.7 34.0 0C 14 481E 0907 Alarm State:  0
Mon Jan 15 01:46:52 PST 2018 ON: 20.00 +20.0 19.69 - 5.2 32.7 0D 14 4732 0907 Alarm State:  0
Mon Jan 15 01:45:50 PST 2018 ON: 19.99 +20.0 19.61 - 3.6 33.8 05 14 4819 0913 Alarm State:  0
Mon Jan 15 01:44:49 PST 2018 ON: 20.03 +20.0 19.71 - 5.6 32.3 0D 13 4806 0913 Alarm State:  0
Mon Jan 15 01:43:47 PST 2018 ON: 19.97 +20.0 19.63 - 3.6 33.9 07 14 4804 092B Alarm State:  0
Mon Jan 15 01:42:46 PST 2018 ON: 20.03 +20.0 19.72 - 6.2 31.7 0A 13 4724 0A1F Alarm State:  0
Mon Jan 15 01:41:44 PST 2018 ON: 19.97 +20.0 19.58 - 3.5 33.6 01 14 4811 0A10 Alarm State:  0
Mon Jan 15 01:40:43 PST 2018 ON: 20.03 +20.0 19.69 - 4.8 32.8 08 14 4820 0910 Alarm State:  0
Mon Jan 15 01:39:41 PST 2018 ON: 19.97 +20.0 19.60 - 3.4 33.9 02 14 4827 0925 Alarm State:  0
Mon Jan 15 01:38:40 PST 2018 ON: 20.01 +20.0 19.72 - 5.8 32.0 0D 12 4807 0924 Alarm State:  0
Mon Jan 15 01:37:38 PST 2018 ON: 20.00 +20.0 19.62 - 3.3 33.9 05 14 4826 0915 Alarm State:  0
Mon Jan 15 01:36:37 PST 2018 ON: 20.04 +20.0 19.69 - 4.7 33.0 0D 14 4818 0906 Alarm State:  0
Mon Jan 15 01:35:35 PST 2018 ON: 20.02 +20.0 19.61 - 3.4 33.3 00 14 4730 0916 Alarm State:  0
Mon Jan 15 01:34:34 PST 2018 ON: 19.99 +20.0 19.64 - 4.5 33.0 02 14 4704 0921 Alarm State:  0
Mon Jan 15 01:33:32 PST 2018 ON: 20.03 +20.0 19.65 - 4.4 32.9 00 14 470B 0A0D Alarm State:  0
Mon Jan 15 01:32:31 PST 2018 ON: 19.98 +20.0 19.64 - 4.5 33.1 05 14 4701 0A1F Alarm State:  0
Mon Jan 15 01:31:29 PST 2018 ON: 19.98 +20.0 19.56 - 2.5 33.7 00 14 4809 0924 Alarm State:  0
Mon Jan 15 01:30:28 PST 2018 ON: 19.97 +20.0 19.65 - 5.2 32.4 00 14 472E 0A1F Alarm State:  0
Mon Jan 15 01:29:26 PST 2018 ON: 19.96 +20.0 19.56 - 2.6 34.1 09 14 4905 0914 Alarm State:  0
Mon Jan 15 01:28:25 PST 2018 ON: 20.02 +20.0 19.68 - 5.2 32.6 0D 14 4905 0901 Alarm State:  0
Mon Jan 15 01:27:23 PST 2018 ON: 20.01 +20.0 19.60 - 3.1 33.6 00 14 4916 0910 Alarm State:  0
Mon Jan 15 01:26:22 PST 2018 ON: 20.00 +20.0 19.65 - 4.4 33.0 00 14 482B 0919 Alarm State:  0
Mon Jan 15 01:25:21 PST 2018 ON: 20.03 +20.0 19.65 - 4.5 32.8 05 14 482E 0901 Alarm State:  0
Mon Jan 15 01:24:19 PST 2018 ON: 19.99 +20.0 19.63 - 3.8 33.8 0A 14 481A 0923 Alarm State:  0
Mon Jan 15 01:23:18 PST 2018 ON: 20.03 +20.0 19.70 - 5.3 32.6 0D 13 4805 091B Alarm State:  0
Mon Jan 15 01:22:16 PST 2018 ON: 20.01 +20.0 19.60 - 3.1 34.0 07 14 4829 091F Alarm State:  0
Mon Jan 15 01:21:15 PST 2018 ON: 20.00 +20.0 19.69 - 5.2 32.6 08 14 4808 092D Alarm State:  0
Mon Jan 15 01:20:13 PST 2018 ON: 19.97 +20.0 19.63 - 3.3 34.0 00 14 4907 0919 Alarm State:  0
Mon Jan 15 01:19:12 PST 2018 ON: 20.05 +20.0 19.70 - 5.5 32.5 0A 13 4823 090D Alarm State:  0
Mon Jan 15 01:18:10 PST 2018 ON: 20.01 +20.0 19.60 - 2.8 33.9 02 14 482B 0927 Alarm State:  0
Mon Jan 15 01:17:09 PST 2018 ON: 19.98 +20.0 19.65 - 4.4 33.2 00 14 481A 0930 Alarm State:  0
Mon Jan 15 01:16:07 PST 2018 ON: 19.97 +20.0 19.57 - 2.2 34.0 01 14 491D 0918 Alarm State:  0
Mon Jan 15 01:15:06 PST 2018 ON: 20.03 +20.0 19.66 - 4.9 32.8 07 14 4829 0924 Alarm State:  0
Mon Jan 15 01:14:04 PST 2018 ON: 20.03 +20.0 19.58 - 2.8 33.7 04 14 4916 0902 Alarm State:  0
Mon Jan 15 01:13:03 PST 2018 ON: 20.00 +20.0 19.64 - 4.3 33.1 05 14 4820 090C Alarm State:  0
Mon Jan 15 01:12:01 PST 2018 ON: 20.04 +20.0 19.68 - 5.1 32.4 0D 14 480C 0905 Alarm State:  0
Mon Jan 15 01:11:00 PST 2018 ON: 19.99 +20.0 19.64 - 4.3 33.0 00 14 4732 092D Alarm State:  0
Mon Jan 15 01:09:58 PST 2018 ON: 20.03 +20.0 19.61 - 3.6 33.4 00 14 4821 0A01 Alarm State:  0
Mon Jan 15 01:08:57 PST 2018 ON: 19.98 +20.0 19.65 - 4.7 32.9 05 14 480A 0A22 Alarm State:  0
Mon Jan 15 01:07:55 PST 2018 ON: 20.00 +20.0 19.55 - 2.1 34.1 01 14 4915 0918 Alarm State:  0
Mon Jan 15 01:06:54 PST 2018 ON: 19.99 +20.0 19.65 - 4.4 33.3 00 14 4831 0922 Alarm State:  0
Mon Jan 15 01:05:52 PST 2018 ON: 20.04 +20.0 19.70 - 5.4 32.5 0A 13 481F 091F Alarm State:  0
Mon Jan 15 01:04:51 PST 2018 ON: 20.02 +20.0 19.64 - 3.9 33.6 00 14 4816 0915 Alarm State:  0
Mon Jan 15 01:03:49 PST 2018 ON: 20.04 +20.0 19.71 - 5.8 32.1 0D 13 472F 0918 Alarm State:  0
Mon Jan 15 01:02:48 PST 2018 ON: 19.97 +20.0 19.62 - 3.8 33.6 02 14 480D 0922 Alarm State:  0
Mon Jan 15 01:01:46 PST 2018 ON: 20.03 +20.0 19.72 - 5.3 32.5 0D 12 4808 0912 Alarm State:  0
Mon Jan 15 01:00:45 PST 2018 ON: 20.01 +20.0 19.62 - 3.2 33.9 0A 14 4818 0924 Alarm State:  0
Mon Jan 15 00:59:43 PST 2018 ON: 20.02 +20.0 19.72 - 5.7 32.3 0D 12 4726 0926 Alarm State:  0
Mon Jan 15 00:58:42 PST 2018 ON: 19.99 +20.0 19.62 - 3.4 33.9 02 14 472E 0917 Alarm State:  0
Mon Jan 15 00:57:40 PST 2018 ON: 20.00 +20.0 19.70 - 5.7 32.1 08 14 471D 0A17 Alarm State:  0
Mon Jan 15 00:56:39 PST 2018 ON: 19.97 +20.0 19.58 - 3.2 34.0 00 14 4814 092B Alarm State:  0
Mon Jan 15 00:55:37 PST 2018 ON: 20.04 +20.0 19.69 - 5.3 32.5 0D 14 4811 091B Alarm State:  0
Mon Jan 15 00:54:36 PST 2018 ON: 20.01 +20.0 19.58 - 3.0 34.0 09 14 482D 0915 Alarm State:  0
Mon Jan 15 00:53:34 PST 2018 ON: 20.03 +20.0 19.69 - 5.3 32.5 0D 14 4808 0919 Alarm State:  0
Mon Jan 15 00:52:33 PST 2018 ON: 19.99 +20.0 19.57 - 2.5 33.9 01 14 481C 091F Alarm State:  0
Mon Jan 15 00:51:31 PST 2018 ON: 20.00 +20.0 19.68 - 4.6 33.1 07 14 4726 0902 Alarm State:  0
Mon Jan 15 00:50:30 PST 2018 ON: 20.01 +20.0 19.60 - 3.0 33.6 00 14 4801 0914 Alarm State:  0
Mon Jan 15 00:49:28 PST 2018 ON: 20.01 +20.0 19.66 - 4.5 33.2 05 14 470D 0922 Alarm State:  0
Mon Jan 15 00:48:27 PST 2018 ON: 20.04 +20.0 19.70 - 5.3 32.6 0A 13 4709 090D Alarm State:  0
Mon Jan 15 00:47:25 PST 2018 ON: 19.98 +20.0 19.62 - 3.4 33.9 0A 14 4716 091E Alarm State:  0
Mon Jan 15 00:46:24 PST 2018 ON: 19.99 +20.0 19.74 - 6.1 31.8 0D 12 462A 0A1D Alarm State:  0
Mon Jan 15 00:45:22 PST 2018 ON: 19.99 +20.0 19.62 - 3.6 33.4 07 14 4724 092E Alarm State:  0
Mon Jan 15 00:44:21 PST 2018 ON: 20.04 +20.0 19.70 - 5.2 32.2 0A 14 4805 0A01 Alarm State:  0
Mon Jan 15 00:43:19 PST 2018 ON: 19.97 +20.0 19.64 - 3.6 33.5 07 14 482A 0924 Alarm State:  0
Mon Jan 15 00:42:18 PST 2018 ON: 20.01 +20.0 19.68 - 4.6 33.2 0D 14 482C 0909 Alarm State:  0
Mon Jan 15 00:41:16 PST 2018 ON: 20.02 +20.0 19.66 - 4.3 33.1 07 14 4815 0913 Alarm State:  0
Mon Jan 15 00:40:15 PST 2018 ON: 20.06 +20.0 19.69 - 5.5 31.8 05 14 480B 0A00 Alarm State:  0
Mon Jan 15 00:39:13 PST 2018 ON: 19.97 +20.0 19.61 - 3.9 33.3 00 14 481C 0931 Alarm State:  0
Mon Jan 15 00:38:12 PST 2018 ON: 20.02 +20.0 19.68 - 5.0 32.3 05 14 482C 0904 Alarm State:  0
Mon Jan 15 00:37:10 PST 2018 ON: 20.00 +20.0 19.64 - 3.7 33.6 05 14 482B 0919 Alarm State:  0
Mon Jan 15 00:36:09 PST 2018 ON: 20.05 +20.0 19.72 - 5.7 31.9 0D 12 481B 0912 Alarm State:  0
Mon Jan 15 00:35:07 PST 2018 ON: 19.98 +20.0 19.63 - 3.6 33.7 0A 14 481E 092C Alarm State:  0
Mon Jan 15 00:34:06 PST 2018 ON: 20.02 +20.0 19.70 - 5.3 32.6 0D 13 4806 0925 Alarm State:  0
Mon Jan 15 00:33:04 PST 2018 ON: 19.99 +20.0 19.62 - 3.1 33.7 05 14 480F 0913 Alarm State:  0
Mon Jan 15 00:32:03 PST 2018 ON: 20.01 +20.0 19.67 - 5.4 32.4 05 14 4720 091C Alarm State:  0
Mon Jan 15 00:31:01 PST 2018 ON: 19.98 +20.0 19.60 - 3.0 33.8 0D 14 4818 0909 Alarm State:  0
Mon Jan 15 00:30:00 PST 2018 ON: 20.02 +20.0 19.71 - 5.3 32.3 0D 13 4800 0904 Alarm State:  0
Mon Jan 15 00:28:58 PST 2018 ON: 20.01 +20.0 19.59 - 2.9 33.3 00 14 4821 0907 Alarm State:  0
Mon Jan 15 00:27:57 PST 2018 ON: 19.99 +20.0 19.64 - 4.1 33.3 00 14 4803 0916 Alarm State:  0
Mon Jan 15 00:26:55 PST 2018 ON: 20.03 +20.0 19.69 - 5.3 32.2 0D 14 471F 0914 Alarm State:  0
Mon Jan 15 00:25:54 PST 2018 ON: 20.02 +20.0 19.61 - 3.1 33.5 0A 14 4731 0918 Alarm State:  0
Mon Jan 15 00:24:52 PST 2018 ON: 19.98 +20.0 19.68 - 5.2 32.2 00 14 470E 0A1E Alarm State:  0
Mon Jan 15 00:23:51 PST 2018 ON: 19.96 +20.0 19.56 - 2.6 33.8 04 14 4819 0916 Alarm State:  0
Mon Jan 15 00:22:49 PST 2018 ON: 20.02 +20.0 19.68 - 5.0 32.3 0D 14 480C 0A0E Alarm State:  0
Mon Jan 15 00:21:48 PST 2018 ON: 20.02 +20.0 19.58 - 2.5 33.6 01 14 4905 0920 Alarm State:  0
Mon Jan 15 00:20:46 PST 2018 ON: 20.00 +20.0 19.65 - 4.2 33.4 05 14 4805 090B Alarm State:  0
Mon Jan 15 00:19:45 PST 2018 ON: 20.01 +20.0 19.70 - 5.6 32.2 08 13 470A 091E Alarm State:  0
Mon Jan 15 00:18:43 PST 2018 ON: 20.01 +20.0 19.59 - 3.0 33.7 07 14 471B 0A02 Alarm State:  0
Mon Jan 15 00:17:42 PST 2018 ON: 20.02 +20.0 19.69 - 5.2 32.4 0D 14 4705 0A2A Alarm State:  0
Mon Jan 15 00:16:40 PST 2018 ON: 19.97 +20.0 19.57 - 2.5 34.0 00 14 480B 0929 Alarm State:  0
Mon Jan 15 00:15:39 PST 2018 ON: 20.00 +20.0 19.70 - 5.2 32.6 0D 13 4720 0928 Alarm State:  0
Mon Jan 15 00:14:37 PST 2018 ON: 20.01 +20.0 19.58 - 2.9 33.9 07 14 480C 0923 Alarm State:  0
Mon Jan 15 00:13:36 PST 2018 ON: 20.03 +20.0 19.69 - 5.2 32.7 0D 14 4718 0A05 Alarm State:  0
Mon Jan 15 00:12:34 PST 2018 ON: 19.98 +20.0 19.58 - 2.8 34.1 04 14 480C 0926 Alarm State:  0
Mon Jan 15 00:11:33 PST 2018 ON: 20.01 +20.0 19.69 - 5.1 32.9 0D 14 471F 0A02 Alarm State:  0
Mon Jan 15 00:10:32 PST 2018 ON: 19.97 +20.0 19.60 - 3.3 34.0 02 14 4815 092B Alarm State:  0
Mon Jan 15 00:09:30 PST 2018 ON: 20.03 +20.0 19.72 - 5.6 32.6 0A 12 4807 0920 Alarm State:  0
Mon Jan 15 00:08:29 PST 2018 ON: 20.01 +20.0 19.65 - 3.9 33.8 0C 14 4731 0910 Alarm State:  0
Mon Jan 15 00:07:27 PST 2018 ON: 20.02 +20.0 19.74 - 5.9 32.1 0D 12 4721 0A07 Alarm State:  0
Mon Jan 15 00:06:26 PST 2018 ON: 19.98 +20.0 19.60 - 3.5 33.8 00 14 480D 092E Alarm State:  0
Mon Jan 15 00:05:24 PST 2018 ON: 20.02 +20.0 19.71 - 5.2 32.7 05 13 480F 090B Alarm State:  0
Mon Jan 15 00:04:23 PST 2018 ON: 20.01 +20.0 19.64 - 3.4 34.0 0C 14 481A 0926 Alarm State:  0
Mon Jan 15 00:03:21 PST 2018 ON: 20.02 +20.0 19.69 - 5.0 32.9 0D 14 472A 0929 Alarm State:  0
Mon Jan 15 00:02:20 PST 2018 ON: 19.97 +20.0 19.58 - 2.7 34.1 00 14 4824 0914 Alarm State:  0
Mon Jan 15 00:01:18 PST 2018 ON: 19.99 +20.0 19.66 - 4.8 33.1 0A 14 4810 090B Alarm State:  0
Mon Jan 15 00:00:17 PST 2018 ON: 20.03 +20.0 19.59 - 2.7 33.9 07 14 482F 090A Alarm State:  0
Sun Jan 14 23:59:15 PST 2018 ON: 20.01 +20.0 19.65 - 4.3 33.3 00 14 480D 0911 Alarm State:  0
Sun Jan 14 23:58:14 PST 2018 ON: 20.02 +20.0 19.69 - 4.8 32.6 03 14 4816 0922 Alarm State:  0
Sun Jan 14 23:57:12 PST 2018 ON: 19.98 +20.0 19.62 - 3.3 33.9 00 14 4812 0911 Alarm State:  0
Sun Jan 14 23:56:11 PST 2018 ON: 20.03 +20.0 19.68 - 4.9 32.7 05 14 4720 091B Alarm State:  0
Sun Jan 14 23:55:09 PST 2018 ON: 20.02 +20.0 19.64 - 4.1 33.2 00 14 472D 0907 Alarm State:  0
Sun Jan 14 23:54:08 PST 2018 ON: 19.99 +20.0 19.65 - 4.2 33.5 05 14 470B 0916 Alarm State:  0
Sun Jan 14 23:53:06 PST 2018 ON: 20.05 +20.0 19.72 - 5.7 32.2 0D 12 462F 0910 Alarm State:  0
Sun Jan 14 23:52:05 PST 2018 ON: 20.01 +20.0 19.63 - 3.8 33.6 07 14 4702 0927 Alarm State:  0
Sun Jan 14 23:51:03 PST 2018 ON: 20.02 +20.0 19.67 - 4.8 32.7 00 14 4711 0924 Alarm State:  0
Sun Jan 14 23:50:02 PST 2018 ON: 19.97 +20.0 19.64 - 4.3 33.0 00 14 470D 0A1D Alarm State:  0
Sun Jan 14 23:49:00 PST 2018 ON: 20.06 +20.0 19.67 - 4.6 32.9 07 14 472A 0A10 Alarm State:  0
Sun Jan 14 23:47:59 PST 2018 ON: 19.99 +20.0 19.64 - 4.5 32.9 07 14 472A 0A29 Alarm State:  0
Sun Jan 14 23:46:57 PST 2018 ON: 19.95 +20.0 19.52 - 1.8 34.2 00 14 4901 091E Alarm State:  0
Sun Jan 14 23:45:56 PST 2018 ON: 19.99 +20.0 19.67 - 5.1 32.9 00 14 481A 0919 Alarm State:  0
Sun Jan 14 23:44:54 PST 2018 ON: 20.02 +20.0 19.59 - 3.0 33.8 04 14 4825 091E Alarm State:  0
Sun Jan 14 23:43:53 PST 2018 ON: 20.01 +20.0 19.62 - 4.2 33.6 0A 14 480D 0923 Alarm State:  0
Sun Jan 14 23:42:51 PST 2018 ON: 20.00 +20.0 19.69 - 5.2 32.8 0D 14 480E 0917 Alarm State:  0
Sun Jan 14 23:41:50 PST 2018 ON: 19.97 +20.0 19.59 - 3.2 34.0 01 14 4830 090F Alarm State:  0
Sun Jan 14 23:40:48 PST 2018 ON: 20.03 +20.0 19.69 - 5.2 32.7 0A 14 4814 090B Alarm State:  0
Sun Jan 14 23:39:47 PST 2018 ON: 20.02 +20.0 19.62 - 3.3 33.9 05 14 481C 0917 Alarm State:  0
Sun Jan 14 23:38:45 PST 2018 ON: 20.00 +20.0 19.68 - 5.3 32.6 07 14 4728 0925 Alarm State:  0
Sun Jan 14 23:37:44 PST 2018 ON: 19.98 +20.0 19.58 - 2.9 34.0 04 14 4825 0909 Alarm State:  0
Sun Jan 14 23:36:42 PST 2018 ON: 19.98 +20.0 19.65 - 4.4 33.0 00 14 481E 0928 Alarm State:  0
Sun Jan 14 23:35:41 PST 2018 ON: 20.03 +20.0 19.69 - 5.0 32.7 0A 14 481A 0915 Alarm State:  0
Sun Jan 14 23:34:39 PST 2018 ON: 20.02 +20.0 19.69 - 4.3 33.5 0D 14 4803 0923 Alarm State:  0
Sun Jan 14 23:33:38 PST 2018 ON: 20.03 +20.0 19.73 - 6.2 31.6 08 13 4722 0B01 Alarm State:  0
Sun Jan 14 23:32:36 PST 2018 ON: 19.94 +20.0 19.58 - 3.7 33.3 00 14 4818 0A10 Alarm State:  0
Sun Jan 14 23:31:35 PST 2018 ON: 20.01 +20.0 19.61 - 3.2 33.5 00 14 4913 091C Alarm State:  0
Sun Jan 14 23:30:33 PST 2018 ON: 19.99 +20.0 19.63 - 4.3 33.2 00 14 482F 0A14 Alarm State:  0
Sun Jan 14 23:29:32 PST 2018 ON: 20.02 +20.0 19.59 - 2.6 33.8 00 14 4920 0928 Alarm State:  0
Sun Jan 14 23:28:30 PST 2018 ON: 20.01 +20.0 19.63 - 4.0 33.6 07 14 4824 0911 Alarm State:  0
Sun Jan 14 23:27:29 PST 2018 ON: 20.01 +20.0 19.64 - 4.2 33.7 02 14 4727 0924 Alarm State:  0
Sun Jan 14 23:26:27 PST 2018 ON: 20.00 +20.0 19.70 - 5.9 32.3 0D 14 4704 0B05 Alarm State:  0
Sun Jan 14 23:25:26 PST 2018 ON: 19.95 +20.0 19.61 - 4.1 33.3 05 14 472C 0A27 Alarm State:  0
Sun Jan 14 23:24:24 PST 2018 ON: 20.04 +20.0 19.69 - 5.5 32.3 0A 14 480A 0A24 Alarm State:  0
Sun Jan 14 23:23:23 PST 2018 ON: 19.98 +20.0 19.63 - 4.2 33.2 07 14 4824 0A1D Alarm State:  0
Sun Jan 14 23:22:21 PST 2018 ON: 19.99 +20.0 19.56 - 2.6 33.7 00 14 4924 0924 Alarm State:  0
Sun Jan 14 23:21:20 PST 2018 ON: 19.99 +20.0 19.68 - 4.7 33.0 0A 14 481F 090E Alarm State:  0
Sun Jan 14 23:20:18 PST 2018 ON: 20.06 +20.0 19.63 - 4.1 33.1 00 14 4818 090A Alarm State:  0
Sun Jan 14 23:19:17 PST 2018 ON: 20.04 +20.0 19.67 - 4.6 33.0 0A 14 471B 0919 Alarm State:  0
Sun Jan 14 23:18:15 PST 2018 ON: 20.02 +20.0 19.64 - 4.3 33.0 00 14 4726 0905 Alarm State:  0
Sun Jan 14 23:17:14 PST 2018 ON: 19.99 +20.0 19.65 - 4.6 32.7 00 14 4718 0929 Alarm State:  0
Sun Jan 14 23:16:12 PST 2018 ON: 20.03 +20.0 19.65 - 4.2 33.0 00 14 472D 0928 Alarm State:  0
Sun Jan 14 23:15:11 PST 2018 ON: 19.99 +20.0 19.63 - 4.5 33.0 00 14 471F 0925 Alarm State:  0
Sun Jan 14 23:14:09 PST 2018 ON: 19.99 +20.0 19.58 - 2.5 33.6 07 14 481B 0916 Alarm State:  0
Sun Jan 14 23:13:08 PST 2018 ON: 20.01 +20.0 19.68 - 5.4 32.4 05 14 472C 0A1D Alarm State:  0
Sun Jan 14 23:12:06 PST 2018 ON: 19.96 +20.0 19.59 - 3.0 33.9 00 14 4830 0928 Alarm State:  0
Sun Jan 14 23:11:05 PST 2018 ON: 20.00 +20.0 19.67 - 4.8 32.9 00 14 4828 0915 Alarm State:  0
Sun Jan 14 23:10:03 PST 2018 ON: 20.02 +20.0 19.62 - 3.4 33.4 00 14 482F 0907 Alarm State:  0
Sun Jan 14 23:09:02 PST 2018 ON: 20.03 +20.0 19.67 - 4.5 32.9 0C 14 4805 0916 Alarm State:  0
Sun Jan 14 23:08:00 PST 2018 ON: 20.01 +20.0 19.61 - 3.3 33.3 00 14 4727 091C Alarm State:  0
Sun Jan 14 23:06:59 PST 2018 ON: 19.99 +20.0 19.65 - 4.7 33.0 07 14 462C 0929 Alarm State:  0
Sun Jan 14 23:05:57 PST 2018 ON: 19.99 +20.0 19.61 - 3.2 33.7 0A 14 4720 0929 Alarm State:  0
Sun Jan 14 23:04:56 PST 2018 ON: 20.02 +20.0 19.69 - 5.0 32.6 0A 14 4704 0924 Alarm State:  0
Sun Jan 14 23:03:54 PST 2018 ON: 20.00 +20.0 19.58 - 2.9 33.4 01 14 471D 0925 Alarm State:  0
Sun Jan 14 23:02:53 PST 2018 ON: 20.00 +20.0 19.68 - 4.7 32.8 0C 14 4628 092E Alarm State:  0
Sun Jan 14 23:01:51 PST 2018 ON: 20.00 +20.0 19.59 - 3.1 33.3 00 14 4722 0928 Alarm State:  0
Sun Jan 14 23:00:50 PST 2018 ON: 19.96 +20.0 19.62 - 4.5 32.9 00 14 4718 0A1F Alarm State:  0
Sun Jan 14 22:59:48 PST 2018 ON: 20.02 +20.0 19.58 - 2.5 33.5 01 14 4822 091A Alarm State:  0
Sun Jan 14 22:58:47 PST 2018 ON: 20.00 +20.0 19.63 - 4.4 32.9 07 14 4808 0921 Alarm State:  0
Sun Jan 14 22:57:45 PST 2018 ON: 20.00 +20.0 19.59 - 2.8 33.4 00 14 4825 091A Alarm State:  0
Sun Jan 14 22:56:44 PST 2018 ON: 19.98 +20.0 19.66 - 4.9 32.4 00 14 4728 0A02 Alarm State:  0
Sun Jan 14 22:55:42 PST 2018 ON: 20.03 +20.0 19.59 - 3.3 33.1 00 14 4810 0A04 Alarm State:  0
Sun Jan 14 22:54:41 PST 2018 ON: 19.99 +20.0 19.63 - 4.7 32.6 05 14 4802 0A2F Alarm State:  0
Sun Jan 14 22:53:39 PST 2018 ON: 19.97 +20.0 19.55 - 2.2 33.8 00 14 490C 092A Alarm State:  0
Sun Jan 14 22:52:38 PST 2018 ON: 20.00 +20.0 19.67 - 4.8 32.7 07 14 481D 0906 Alarm State:  0
Sun Jan 14 22:51:36 PST 2018 ON: 20.03 +20.0 19.63 - 4.2 32.7 00 14 481E 0902 Alarm State:  0
Sun Jan 14 22:50:35 PST 2018 ON: 20.00 +20.0 19.64 - 4.4 32.9 07 14 480A 0922 Alarm State:  0
Sun Jan 14 22:49:33 PST 2018 ON: 20.01 +20.0 19.62 - 3.4 33.1 00 14 4904 0911 Alarm State:  0
Sun Jan 14 22:48:32 PST 2018 ON: 19.98 +20.0 19.64 - 4.4 32.6 00 14 4825 0A0A Alarm State:  0
Sun Jan 14 22:47:30 PST 2018 ON: 20.01 +20.0 19.58 - 3.3 33.0 00 14 491F 0927 Alarm State:  0
Sun Jan 14 22:46:29 PST 2018 ON: 20.01 +20.0 19.66 - 4.4 32.8 00 14 4830 0909 Alarm State:  0
Sun Jan 14 22:45:27 PST 2018 ON: 20.03 +20.0 19.68 - 5.3 32.2 0D 14 4829 0926 Alarm State:  0
Sun Jan 14 22:44:26 PST 2018 ON: 20.00 +20.0 19.60 - 3.3 33.5 0A 14 4825 0919 Alarm State:  0
Sun Jan 14 22:43:24 PST 2018 ON: 20.03 +20.0 19.68 - 5.3 32.2 0D 14 4800 091D Alarm State:  0
Sun Jan 14 22:42:23 PST 2018 ON: 20.01 +20.0 19.61 - 3.2 33.3 05 14 4812 091F Alarm State:  0
Sun Jan 14 22:41:21 PST 2018 ON: 19.98 +20.0 19.63 - 4.7 32.6 05 14 472C 0923 Alarm State:  0
Sun Jan 14 22:40:20 PST 2018 ON: 20.01 +20.0 19.60 - 3.0 33.1 00 14 4823 090D Alarm State:  0
Sun Jan 14 22:39:18 PST 2018 ON: 19.99 +20.0 19.62 - 4.3 32.7 00 14 4812 0A05 Alarm State:  0
Sun Jan 14 22:38:17 PST 2018 ON: 20.04 +20.0 19.62 - 4.1 32.6 00 14 482E 090C Alarm State:  0
Sun Jan 14 22:37:15 PST 2018 ON: 19.99 +20.0 19.64 - 4.4 32.5 00 14 4815 092F Alarm State:  0
Sun Jan 14 22:36:14 PST 2018 ON: 20.02 +20.0 19.69 - 5.3 31.9 08 14 4819 0914 Alarm State:  0
Sun Jan 14 22:35:12 PST 2018 ON: 19.99 +20.0 19.61 - 3.4 33.4 0A 14 481C 0927 Alarm State:  0
Sun Jan 14 22:34:11 PST 2018 ON: 20.03 +20.0 19.68 - 5.5 32.0 0D 14 4800 0922 Alarm State:  0
Sun Jan 14 22:33:09 PST 2018 ON: 19.99 +20.0 19.60 - 3.2 33.1 00 14 4805 090C Alarm State:  0
Sun Jan 14 22:32:08 PST 2018 ON: 19.98 +20.0 19.64 - 4.6 32.6 0C 14 472E 0A01 Alarm State:  0
Sun Jan 14 22:31:06 PST 2018 ON: 19.98 +20.0 19.56 - 2.7 33.2 01 14 4830 0910 Alarm State:  0
Sun Jan 14 22:30:05 PST 2018 ON: 20.00 +20.0 19.67 - 5.0 32.0 02 14 4812 0913 Alarm State:  0
Sun Jan 14 22:29:03 PST 2018 ON: 20.02 +20.0 19.60 - 3.3 32.8 05 14 4902 0908 Alarm State:  0
Sun Jan 14 22:28:02 PST 2018 ON: 20.02 +20.0 19.66 - 4.6 32.2 02 14 4817 090F Alarm State:  0
Sun Jan 14 22:27:00 PST 2018 ON: 20.04 +20.0 19.67 - 4.7 31.9 00 14 4814 0901 Alarm State:  0
Sun Jan 14 22:25:59 PST 2018 ON: 20.00 +20.0 19.63 - 3.7 32.8 02 14 471D 0912 Alarm State:  0
Sun Jan 14 22:24:57 PST 2018 ON: 20.03 +20.0 19.71 - 5.1 32.3 08 13 461E 091C Alarm State:  0
Sun Jan 14 22:23:56 PST 2018 ON: 19.99 +20.0 19.74 - 6.7 30.4 0D 12 451D 0B06 Alarm State:  0
Sun Jan 14 22:22:54 PST 2018 ON: 19.96 +20.0 19.57 - 3.4 32.8 07 14 4621 0A07 Alarm State:  0
Sun Jan 14 22:21:53 PST 2018 ON: 20.04 +20.0 19.61 - 3.7 32.2 00 14 4714 0921 Alarm State:  0
Sun Jan 14 22:20:51 PST 2018 ON: 19.98 +20.0 19.65 - 4.8 32.1 0A 14 4632 0A1D Alarm State:  0
Sun Jan 14 22:19:50 PST 2018 ON: 19.98 +20.0 19.56 - 2.3 33.3 00 14 480A 0915 Alarm State:  0
Sun Jan 14 22:18:48 PST 2018 ON: 19.98 +20.0 19.67 - 4.9 32.2 02 14 472A 0A15 Alarm State:  0
Sun Jan 14 22:17:47 PST 2018 ON: 19.99 +20.0 19.58 - 2.9 33.2 00 14 4823 0927 Alarm State:  0
Sun Jan 14 22:16:45 PST 2018 ON: 20.03 +20.0 19.63 - 3.9 33.3 05 14 4804 0908 Alarm State:  0
Sun Jan 14 22:15:44 PST 2018 ON: 20.03 +20.0 19.70 - 5.4 32.0 0D 13 471D 090D Alarm State:  0
Sun Jan 14 22:14:42 PST 2018 ON: 19.98 +20.0 19.55 - 2.4 33.6 04 14 4811 0902 Alarm State:  0
Sun Jan 14 22:13:41 PST 2018 ON: 19.99 +20.0 19.68 - 4.9 32.3 0A 14 472C 092E Alarm State:  0
Sun Jan 14 22:12:39 PST 2018 ON: 19.97 +20.0 19.55 - 2.0 34.1 00 14 4832 0901 Alarm State:  0
Sun Jan 14 22:11:38 PST 2018 ON: 20.00 +20.0 19.69 - 5.2 32.5 0D 14 4808 090C Alarm State:  0
Sun Jan 14 22:10:36 PST 2018 ON: 20.00 +20.0 19.59 - 2.7 34.2 00 14 482D 0909 Alarm State:  0
Sun Jan 14 22:09:35 PST 2018 ON: 19.99 +20.0 19.66 - 4.7 33.2 02 14 4809 091A Alarm State:  0
Sun Jan 14 22:08:33 PST 2018 ON: 20.02 +20.0 19.58 - 2.5 34.5 01 14 4901 0905 Alarm State:  0
Sun Jan 14 22:07:32 PST 2018 ON: 20.01 +20.0 19.62 - 3.6 34.4 05 14 4801 0917 Alarm State:  0
Sun Jan 14 22:06:30 PST 2018 ON: 20.01 +20.0 19.66 - 4.6 33.7 0C 14 4710 0924 Alarm State:  0
Sun Jan 14 22:05:29 PST 2018 ON: 20.00 +20.0 19.60 - 2.8 34.4 00 14 472F 0921 Alarm State:  0
Sun Jan 14 22:04:27 PST 2018 ON: 19.99 +20.0 19.67 - 4.4 34.0 05 14 470D 0931 Alarm State:  0
Sun Jan 14 22:03:26 PST 2018 ON: 19.97 +20.0 19.57 - 2.6 34.7 04 14 480F 0912 Alarm State:  0
Sun Jan 14 22:02:24 PST 2018 ON: 19.99 +20.0 19.68 - 4.5 33.7 05 14 4726 0915 Alarm State:  0
Sun Jan 14 22:01:23 PST 2018 ON: 19.99 +20.0 19.58 - 2.5 34.5 01 14 4812 0916 Alarm State:  0
Sun Jan 14 22:00:21 PST 2018 ON: 19.98 +20.0 19.66 - 5.0 33.4 05 14 4721 0A21 Alarm State:  0
Sun Jan 14 21:59:20 PST 2018 ON: 19.98 +20.0 19.59 - 3.2 34.6 00 14 482B 092D Alarm State:  0
Sun Jan 14 21:58:18 PST 2018 ON: 20.02 +20.0 19.70 - 5.2 33.2 0A 13 482B 0916 Alarm State:  0
Sun Jan 14 21:57:17 PST 2018 ON: 20.02 +20.0 19.63 - 3.9 33.9 00 14 481C 091A Alarm State:  0
Sun Jan 14 21:56:15 PST 2018 ON: 19.97 +20.0 19.64 - 4.1 33.7 07 14 4812 0911 Alarm State:  0
Sun Jan 14 21:55:14 PST 2018 ON: 20.06 +20.0 19.66 - 4.1 33.8 00 14 4827 0916 Alarm State:  0
Sun Jan 14 21:54:13 PST 2018 ON: 19.99 +20.0 19.60 - 3.2 34.5 02 14 4811 091B Alarm State:  0
Sun Jan 14 21:53:11 PST 2018 ON: 20.00 +20.0 19.64 - 3.9 34.3 07 14 480A 091D Alarm State:  0
Sun Jan 14 21:52:10 PST 2018 ON: 20.01 +20.0 19.69 - 5.3 33.3 0D 14 472B 0A18 Alarm State:  0
Sun Jan 14 21:51:08 PST 2018 ON: 19.99 +20.0 19.63 - 3.6 34.5 05 14 4732 0B04 Alarm State:  0
Sun Jan 14 21:50:07 PST 2018 ON: 20.01 +20.0 19.72 - 6.1 32.6 0A 13 4722 0B26 Alarm State:  0
Sun Jan 14 21:49:05 PST 2018 ON: 19.96 +20.0 19.62 - 3.8 33.9 07 14 4818 0B09 Alarm State:  0
Sun Jan 14 21:48:04 PST 2018 ON: 20.01 +20.0 19.67 - 4.7 33.3 08 14 4907 0A23 Alarm State:  0
Sun Jan 14 21:47:02 PST 2018 ON: 19.98 +20.0 19.61 - 3.8 33.8 00 14 4924 0A1B Alarm State:  0
Sun Jan 14 21:46:01 PST 2018 ON: 20.00 +20.0 19.62 - 3.4 34.1 00 14 4A1B 0904 Alarm State:  0
Sun Jan 14 21:44:59 PST 2018 ON: 20.01 +20.0 19.66 - 4.1 34.1 00 14 4923 0916 Alarm State:  0
Sun Jan 14 21:43:58 PST 2018 ON: 19.99 +20.0 19.62 - 3.2 34.6 00 14 491B 0919 Alarm State:  0
Sun Jan 14 21:42:56 PST 2018 ON: 20.00 +20.0 19.64 - 4.1 34.3 05 14 4829 091F Alarm State:  0
Sun Jan 14 21:41:55 PST 2018 ON: 19.99 +20.0 19.65 - 4.4 34.0 07 14 4809 0926 Alarm State:  0
Sun Jan 14 21:40:53 PST 2018 ON: 20.03 +20.0 19.71 - 5.6 32.5 08 13 4727 0928 Alarm State:  0
Sun Jan 14 21:39:52 PST 2018 ON: 19.96 +20.0 19.60 - 4.2 33.8 00 14 4802 0A01 Alarm State:  0
Sun Jan 14 21:38:50 PST 2018 ON: 19.99 +20.0 19.54 - 2.5 34.2 00 14 4906 0902 Alarm State:  0
Sun Jan 14 21:37:49 PST 2018 ON: 19.98 +20.0 19.63 - 4.2 33.3 05 14 4829 0A01 Alarm State:  0
Sun Jan 14 21:36:47 PST 2018 ON: 20.01 +20.0 19.68 - 4.4 33.8 0A 14 4915 0907 Alarm State:  0
Sun Jan 14 21:35:46 PST 2018 ON: 20.00 +20.0 19.57 - 2.8 34.4 01 14 490F 0921 Alarm State:  0
Sun Jan 14 21:34:44 PST 2018 ON: 19.99 +20.0 19.64 - 4.3 33.7 00 14 481B 0906 Alarm State:  0
Sun Jan 14 21:33:43 PST 2018 ON: 20.02 +20.0 19.65 - 3.7 34.3 00 14 4825 091C Alarm State:  0
Sun Jan 14 21:32:41 PST 2018 ON: 20.00 +20.0 19.62 - 3.2 34.5 00 14 4800 0901 Alarm State:  0
Sun Jan 14 21:31:40 PST 2018 ON: 19.99 +20.0 19.68 - 5.2 33.2 05 14 4703 0A12 Alarm State:  0
Sun Jan 14 21:30:38 PST 2018 ON: 19.96 +20.0 19.59 - 3.3 34.5 07 14 4805 0917 Alarm State:  0
Sun Jan 14 21:29:37 PST 2018 ON: 20.03 +20.0 19.70 - 5.3 32.9 05 13 4805 0923 Alarm State:  0
Sun Jan 14 21:28:35 PST 2018 ON: 20.00 +20.0 19.61 - 3.9 34.0 07 14 480E 0A03 Alarm State:  0
Sun Jan 14 21:27:34 PST 2018 ON: 20.02 +20.0 19.66 - 4.6 33.4 00 14 4820 090A Alarm State:  0
Sun Jan 14 21:26:32 PST 2018 ON: 20.00 +20.0 19.62 - 3.8 34.2 07 14 4815 0929 Alarm State:  0
Sun Jan 14 21:25:31 PST 2018 ON: 20.06 +20.0 19.69 - 5.1 33.3 0D 14 480B 0916 Alarm State:  0
Sun Jan 14 21:24:29 PST 2018 ON: 20.00 +20.0 19.57 - 2.6 34.7 07 14 4806 090C Alarm State:  0
Sun Jan 14 21:23:28 PST 2018 ON: 20.03 +20.0 19.68 - 4.7 33.8 05 14 4723 0A0D Alarm State:  0
Sun Jan 14 21:22:26 PST 2018 ON: 19.99 +20.0 19.57 - 2.4 34.6 0C 14 4819 0A02 Alarm State:  0
Sun Jan 14 21:21:25 PST 2018 ON: 20.01 +20.0 19.68 - 5.4 33.1 0A 14 4732 0A30 Alarm State:  0
Sun Jan 14 21:20:23 PST 2018 ON: 19.96 +20.0 19.58 - 2.7 34.8 00 14 4907 0927 Alarm State:  0
Sun Jan 14 21:19:22 PST 2018 ON: 20.01 +20.0 19.67 - 4.4 33.6 0D 14 491D 0904 Alarm State:  0
Sun Jan 14 21:18:20 PST 2018 ON: 20.02 +20.0 19.66 - 4.1 33.7 00 14 491E 0919 Alarm State:  0
Sun Jan 14 21:17:19 PST 2018 ON: 20.01 +20.0 19.65 - 4.1 33.7 00 14 4908 0920 Alarm State:  0
Sun Jan 14 21:16:17 PST 2018 ON: 20.00 +20.0 19.59 - 2.9 34.3 02 14 4911 090C Alarm State:  0
Sun Jan 14 21:15:16 PST 2018 ON: 19.99 +20.0 19.64 - 4.2 33.9 05 14 481F 0914 Alarm State:  0
Sun Jan 14 21:14:14 PST 2018 ON: 20.01 +20.0 19.61 - 2.8 34.3 00 14 490A 090E Alarm State:  0
Sun Jan 14 21:13:13 PST 2018 ON: 19.99 +20.0 19.64 - 4.0 34.2 00 14 4814 091E Alarm State:  0
Sun Jan 14 21:12:11 PST 2018 ON: 20.01 +20.0 19.69 - 5.1 33.3 0A 14 4808 0917 Alarm State:  0
Sun Jan 14 21:11:10 PST 2018 ON: 19.99 +20.0 19.61 - 2.7 34.7 02 14 480F 090B Alarm State:  0
Sun Jan 14 21:10:08 PST 2018 ON: 19.99 +20.0 19.65 - 4.7 33.7 00 14 4724 0A12 Alarm State:  0
Sun Jan 14 21:09:07 PST 2018 ON: 20.01 +20.0 19.59 - 2.4 34.6 01 14 4818 0A01 Alarm State:  0
Sun Jan 14 21:08:05 PST 2018 ON: 19.98 +20.0 19.67 - 5.3 33.1 05 14 4724 0B0A Alarm State:  0
Sun Jan 14 21:07:04 PST 2018 ON: 19.97 +20.0 19.61 - 3.3 34.4 07 14 482A 0A07 Alarm State:  0
Sun Jan 14 21:06:02 PST 2018 ON: 20.01 +20.0 19.69 - 5.3 32.8 08 14 4830 0916 Alarm State:  0
Sun Jan 14 21:05:01 PST 2018 ON: 20.01 +20.0 19.60 - 3.4 34.2 00 14 481D 0910 Alarm State:  0
Sun Jan 14 21:03:59 PST 2018 ON: 19.97 +20.0 19.63 - 3.9 34.0 00 14 482B 0926 Alarm State:  0
Sun Jan 14 21:02:58 PST 2018 ON: 20.04 +20.0 19.63 - 3.2 34.0 00 14 491B 091F Alarm State:  0
Sun Jan 14 21:01:56 PST 2018 ON: 20.00 +20.0 19.67 - 4.4 33.7 00 14 4824 092A Alarm State:  0
Sun Jan 14 21:00:55 PST 2018 ON: 20.04 +20.0 19.67 - 4.3 34.0 00 14 4824 0910 Alarm State:  0
Sun Jan 14 20:59:53 PST 2018 ON: 20.01 +20.0 19.68 - 5.4 33.1 00 14 4723 0925 Alarm State:  0
Sun Jan 14 20:58:52 PST 2018 ON: 20.00 +20.0 19.62 - 3.8 34.4 00 14 4730 090B Alarm State:  0
Sun Jan 14 20:57:50 PST 2018 ON: 20.01 +20.0 19.67 - 4.9 33.2 00 14 4805 091B Alarm State:  0
Sun Jan 14 20:56:49 PST 2018 ON: 19.99 +20.0 19.62 - 3.9 34.0 00 14 480A 0A01 Alarm State:  0
Sun Jan 14 20:55:47 PST 2018 ON: 20.02 +20.0 19.70 - 5.0 33.0 03 13 4810 0910 Alarm State:  0
Sun Jan 14 20:54:46 PST 2018 ON: 20.01 +20.0 19.59 - 3.0 34.6 07 14 4815 0900 Alarm State:  0
Sun Jan 14 20:53:44 PST 2018 ON: 19.98 +20.0 19.64 - 4.1 34.0 00 14 4813 0920 Alarm State:  0
Sun Jan 14 20:52:43 PST 2018 ON: 20.04 +20.0 19.63 - 3.7 33.9 00 14 482C 0921 Alarm State:  0
Sun Jan 14 20:51:41 PST 2018 ON: 19.99 +20.0 19.64 - 3.9 34.2 00 14 481C 0924 Alarm State:  0
Sun Jan 14 20:50:40 PST 2018 ON: 20.05 +20.0 19.68 - 5.0 33.1 0A 14 480F 091C Alarm State:  0
Sun Jan 14 20:49:38 PST 2018 ON: 19.97 +20.0 19.59 - 3.1 34.7 04 14 4811 0905 Alarm State:  0
Sun Jan 14 20:48:37 PST 2018 ON: 20.02 +20.0 19.66 - 4.4 33.7 02 14 480E 0926 Alarm State:  0
Sun Jan 14 20:47:35 PST 2018 ON: 20.03 +20.0 19.59 - 3.0 34.2 00 14 4903 0922 Alarm State:  0
Sun Jan 14 20:46:34 PST 2018 ON: 20.02 +20.0 19.64 - 4.3 33.8 00 14 4817 092C Alarm State:  0
Sun Jan 14 20:45:32 PST 2018 ON: 20.05 +20.0 19.66 - 4.4 33.7 00 14 482B 090D Alarm State:  0
Sun Jan 14 20:44:31 PST 2018 ON: 19.99 +20.0 19.63 - 4.1 34.0 07 14 4824 0931 Alarm State:  0
Sun Jan 14 20:43:29 PST 2018 ON: 20.03 +20.0 19.69 - 4.9 33.4 0A 14 4909 090C Alarm State:  0
Sun Jan 14 20:42:28 PST 2018 ON: 20.02 +20.0 19.60 - 3.0 34.4 02 14 4924 0915 Alarm State:  0
Sun Jan 14 20:41:27 PST 2018 ON: 20.03 +20.0 19.64 - 3.5 34.5 05 14 490E 0914 Alarm State:  0
Sun Jan 14 20:40:25 PST 2018 ON: 20.00 +20.0 19.66 - 4.7 33.5 05 14 4824 0918 Alarm State:  0
Sun Jan 14 20:39:23 PST 2018 ON: 20.00 +20.0 19.59 - 2.8 34.4 05 14 491F 0904 Alarm State:  0
Sun Jan 14 20:38:22 PST 2018 ON: 20.00 +20.0 19.63 - 3.3 34.4 00 14 4910 090C Alarm State:  0
Sun Jan 14 20:37:20 PST 2018 ON: 20.00 +20.0 19.67 - 4.5 33.8 0C 14 4823 0917 Alarm State:  0
Sun Jan 14 20:36:19 PST 2018 ON: 19.98 +20.0 19.57 - 2.2 34.7 04 14 4923 0904 Alarm State:  0
Sun Jan 14 20:35:17 PST 2018 ON: 20.00 +20.0 19.65 - 4.0 34.4 0A 14 482C 090F Alarm State:  0
Sun Jan 14 20:34:16 PST 2018 ON: 19.99 +20.0 19.68 - 4.7 33.7 08 14 4813 0921 Alarm State:  0
Sun Jan 14 20:33:14 PST 2018 ON: 19.98 +20.0 19.60 - 2.9 34.7 02 14 4902 0917 Alarm State:  0
Sun Jan 14 20:32:13 PST 2018 ON: 20.02 +20.0 19.67 - 4.9 33.4 00 14 480E 0921 Alarm State:  0
Sun Jan 14 20:31:12 PST 2018 ON: 20.02 +20.0 19.65 - 4.3 33.6 00 14 4810 091E Alarm State:  0
Sun Jan 14 20:30:10 PST 2018 ON: 19.96 +20.0 19.61 - 4.0 34.0 00 14 4813 0A0C Alarm State:  0
Sun Jan 14 20:29:08 PST 2018 ON: 20.03 +20.0 19.63 - 3.8 33.9 00 14 4906 0903 Alarm State:  0
Sun Jan 14 20:28:07 PST 2018 ON: 19.98 +20.0 19.65 - 4.2 33.8 00 14 4822 0928 Alarm State:  0
Sun Jan 14 20:27:06 PST 2018 ON: 20.02 +20.0 19.69 - 5.0 33.1 0A 14 4832 0903 Alarm State:  0
Sun Jan 14 20:26:04 PST 2018 ON: 19.97 +20.0 19.61 - 3.1 34.7 02 14 490A 0908 Alarm State:  0
Sun Jan 14 20:25:03 PST 2018 ON: 20.01 +20.0 19.68 - 4.7 33.7 0D 14 482B 0903 Alarm State:  0
Sun Jan 14 20:24:01 PST 2018 ON: 19.99 +20.0 19.59 - 2.8 34.4 00 14 4907 090A Alarm State:  0
Sun Jan 14 20:23:00 PST 2018 ON: 20.00 +20.0 19.63 - 4.2 33.9 07 14 481C 090F Alarm State:  0
Sun Jan 14 20:21:58 PST 2018 ON: 20.00 +20.0 19.58 - 2.6 34.4 01 14 490E 0904 Alarm State:  0
Sun Jan 14 20:20:57 PST 2018 ON: 20.00 +20.0 19.65 - 4.3 33.9 07 14 4810 0917 Alarm State:  0
Sun Jan 14 20:19:55 PST 2018 ON: 20.02 +20.0 19.65 - 4.7 33.4 00 14 4803 0915 Alarm State:  0
Sun Jan 14 20:18:54 PST 2018 ON: 19.99 +20.0 19.64 - 4.1 34.0 07 14 4726 090E Alarm State:  0
Sun Jan 14 20:17:52 PST 2018 ON: 20.01 +20.0 19.64 - 4.4 33.6 00 14 4806 0911 Alarm State:  0
Sun Jan 14 20:16:51 PST 2018 ON: 19.98 +20.0 19.62 - 4.0 33.9 07 14 4801 0921 Alarm State:  0
Sun Jan 14 20:15:49 PST 2018 ON: 20.00 +20.0 19.68 - 4.8 33.4 0A 14 481C 091E Alarm State:  0
Sun Jan 14 20:14:48 PST 2018 ON: 19.98 +20.0 19.61 - 3.2 34.6 02 14 4828 0926 Alarm State:  0
Sun Jan 14 20:13:46 PST 2018 ON: 20.01 +20.0 19.70 - 5.2 33.3 0A 13 4803 0903 Alarm State:  0
Sun Jan 14 20:12:45 PST 2018 ON: 19.97 +20.0 19.61 - 3.0 34.6 02 14 481B 0903 Alarm State:  0
Sun Jan 14 20:11:43 PST 2018 ON: 19.99 +20.0 19.70 - 5.4 33.2 08 14 4731 0A07 Alarm State:  0
Sun Jan 14 20:10:42 PST 2018 ON: 19.95 +20.0 19.56 - 2.7 34.8 01 14 4905 090D Alarm State:  0
Sun Jan 14 20:09:40 PST 2018 ON: 20.03 +20.0 19.67 - 4.3 34.1 0A 14 481E 0905 Alarm State:  0
Sun Jan 14 20:08:39 PST 2018 ON: 19.98 +20.0 19.65 - 4.0 34.2 07 14 480A 090A Alarm State:  0
Sun Jan 14 20:07:37 PST 2018 ON: 20.06 +20.0 19.68 - 4.6 33.5 0D 14 4809 0921 Alarm State:  0
Sun Jan 14 20:06:36 PST 2018 ON: 19.99 +20.0 19.64 - 3.9 34.2 00 14 4727 091D Alarm State:  0
Sun Jan 14 20:05:34 PST 2018 ON: 20.03 +20.0 19.70 - 5.3 32.9 0D 14 4725 0A0A Alarm State:  0
Sun Jan 14 20:04:33 PST 2018 ON: 19.97 +20.0 19.61 - 4.0 33.8 00 14 4732 0A0D Alarm State:  0
Sun Jan 14 20:03:31 PST 2018 ON: 20.03 +20.0 19.69 - 4.6 33.5 05 14 4815 0910 Alarm State:  0
Sun Jan 14 20:02:30 PST 2018 ON: 19.99 +20.0 19.62 - 3.8 34.1 00 14 480E 0925 Alarm State:  0
Sun Jan 14 20:01:28 PST 2018 ON: 20.02 +20.0 19.68 - 4.2 33.9 0A 14 481E 0900 Alarm State:  0
Sun Jan 14 20:00:27 PST 2018 ON: 20.00 +20.0 19.61 - 3.2 34.6 00 14 4728 090A Alarm State:  0
Sun Jan 14 19:59:25 PST 2018 ON: 20.01 +20.0 19.70 - 5.4 33.3 08 13 4631 091B Alarm State:  0
Sun Jan 14 19:58:24 PST 2018 ON: 19.98 +20.0 19.58 - 2.8 34.6 04 14 4711 092B Alarm State:  0
Sun Jan 14 19:57:22 PST 2018 ON: 19.97 +20.0 19.68 - 4.8 33.5 05 14 470D 0A24 Alarm State:  0
Sun Jan 14 19:56:21 PST 2018 ON: 19.97 +20.0 19.58 - 2.6 34.8 00 14 4817 0923 Alarm State:  0
Sun Jan 14 19:55:19 PST 2018 ON: 20.00 +20.0 19.69 - 5.5 33.0 0A 14 4732 091E Alarm State:  0
Sun Jan 14 19:54:18 PST 2018 ON: 19.99 +20.0 19.60 - 3.6 34.3 05 14 482E 0915 Alarm State:  0
Sun Jan 14 19:53:16 PST 2018 ON: 20.02 +20.0 19.69 - 5.1 33.5 0A 14 4828 0902 Alarm State:  0
Sun Jan 14 19:52:15 PST 2018 ON: 20.02 +20.0 19.61 - 3.1 34.5 02 14 4815 090A Alarm State:  0
Sun Jan 14 19:51:13 PST 2018 ON: 19.98 +20.0 19.67 - 5.1 33.3 05 14 4720 0A11 Alarm State:  0
Sun Jan 14 19:50:12 PST 2018 ON: 20.00 +20.0 19.59 - 2.9 34.7 07 14 4826 0918 Alarm State:  0
Sun Jan 14 19:49:10 PST 2018 ON: 20.01 +20.0 19.68 - 5.3 33.3 0D 14 481C 0907 Alarm State:  0
Sun Jan 14 19:48:09 PST 2018 ON: 20.02 +20.0 19.61 - 2.9 34.7 0C 14 4827 0918 Alarm State:  0
Sun Jan 14 19:47:07 PST 2018 ON: 20.03 +20.0 19.68 - 4.7 33.7 02 14 472E 0925 Alarm State:  0
Sun Jan 14 19:46:06 PST 2018 ON: 20.03 +20.0 19.61 - 3.6 34.0 00 14 472B 091F Alarm State:  0
Sun Jan 14 19:45:04 PST 2018 ON: 20.02 +20.0 19.64 - 4.4 33.9 00 14 4709 0928 Alarm State:  0
Sun Jan 14 19:44:03 PST 2018 ON: 20.02 +20.0 19.61 - 2.9 34.3 00 14 472E 0A01 Alarm State:  0
Sun Jan 14 19:43:01 PST 2018 ON: 20.00 +20.0 19.65 - 4.4 33.8 05 14 472A 0A2E Alarm State:  0
Sun Jan 14 19:42:00 PST 2018 ON: 19.98 +20.0 19.55 - 1.9 34.7 04 14 4901 092D Alarm State:  0
Sun Jan 14 19:40:58 PST 2018 ON: 20.03 +20.0 19.66 - 4.8 33.6 07 14 480B 0909 Alarm State:  0
Sun Jan 14 19:39:57 PST 2018 ON: 20.00 +20.0 19.61 - 3.5 34.1 05 14 482A 0908 Alarm State:  0
Sun Jan 14 19:38:55 PST 2018 ON: 20.02 +20.0 19.63 - 3.6 34.5 07 14 482A 0926 Alarm State:  0
Sun Jan 14 19:37:54 PST 2018 ON: 20.01 +20.0 19.68 - 4.5 34.1 0D 14 481F 0924 Alarm State:  0
Sun Jan 14 19:36:52 PST 2018 ON: 20.02 +20.0 19.70 - 5.1 33.4 0D 14 481F 0A1D Alarm State:  0
Sun Jan 14 19:35:51 PST 2018 ON: 19.99 +20.0 19.57 - 2.4 34.8 04 14 491D 092A Alarm State:  0
Sun Jan 14 19:34:49 PST 2018 ON: 20.03 +20.0 19.65 - 4.0 34.3 00 14 4832 0906 Alarm State:  0